Provisional Data: Meshoppen Creek near Kaiserville, PA


Please select a monitoring station.
Please select start date.
Please select start date.

Toggle Unit: C/F Toggle Unit: C/F
Sample Time Temperature (C) Temperature (F) Specific Conductivity (mS/cm) pH   Turbidity (NTU+) DO (mg/L)
12/23/2022 12:00:00 AM 0.21 32.378 0.14 7.25 7.21 17.01
12/23/2022 12:15:00 AM 0.23 32.414 0.141 7.25 8.44 16.97
12/23/2022 12:30:00 AM 0.29 32.522 0.14 7.24 9.69 16.95
12/23/2022 12:45:00 AM 0.33 32.594 0.14 7.22 17.13 16.91
12/23/2022 1:00:00 AM 0.39 32.702 0.141 7.22 12.99 16.87
12/23/2022 1:15:00 AM 0.44 32.792 0.141 7.21 15.93 16.85
12/23/2022 1:30:00 AM 0.49 32.882 0.141 7.2 20.56 16.83
12/23/2022 1:45:00 AM 0.55 32.99 0.139 7.18 23.13 16.81
12/23/2022 2:00:00 AM 0.57 33.026 0.138 7.19 32.25 16.79
12/23/2022 2:15:00 AM 0.55 32.99 0.135 7.17 42.9 16.77
12/23/2022 2:30:00 AM 0.54 32.972 0.132 7.15 51.4 16.75
12/23/2022 2:45:00 AM 0.57 33.026 0.128 7.13 58.22 16.75
12/23/2022 3:00:00 AM 0.58 33.044 0.125 7.11 69.9 16.74
12/23/2022 3:15:00 AM 0.58 33.044 0.121 7.09 77.61 16.73
12/23/2022 3:30:00 AM 0.59 33.062 0.118 7.08 90.49 16.74
12/23/2022 3:45:00 AM 0.61 33.098 0.116 7.05 100.55 16.74
12/23/2022 4:00:00 AM 0.62 33.116 0.113 7.05 101.72 16.74
12/23/2022 4:15:00 AM 0.65 33.17 0.111 7.04 100.25 16.73
12/23/2022 4:30:00 AM 0.68 33.224 0.109 7.02 102.13 16.71
12/23/2022 4:45:00 AM 0.73 33.314 0.108 7.02 96.53 16.69
12/23/2022 5:00:00 AM 0.77 33.386 0.107 7.02 93.4 16.67
12/23/2022 5:15:00 AM 0.81 33.458 0.107 7 87.2 16.64
12/23/2022 5:30:00 AM 0.86 33.548 0.108 7.02 88.67 16.62
12/23/2022 5:45:00 AM 0.9 33.62 0.111 6.98 87.46 16.6
12/23/2022 6:00:00 AM 0.94 33.692 0.115 6.98 79.62 16.58
12/23/2022 6:15:00 AM 0.98 33.764 0.118 6.97 80.44 16.58
12/23/2022 6:30:00 AM 1 33.8 0.119 6.98 86.33 16.57
12/23/2022 6:45:00 AM 1.01 33.818 0.118 6.98 81.77 16.56
12/23/2022 7:00:00 AM 1.02 33.836 0.116 6.96 77.89 16.56
12/23/2022 7:15:00 AM 1.02 33.836 0.114 6.96 79.39 16.56
12/23/2022 7:30:00 AM 1.01 33.818 0.112 6.97 81.21 16.57
12/23/2022 7:45:00 AM 1 33.8 0.11 6.95 77.9 16.56
12/23/2022 8:00:00 AM 1 33.8 0.108 6.94 82.54 16.56
12/23/2022 8:15:00 AM 1 33.8 0.107 6.96 75.97 16.57
12/23/2022 8:30:00 AM 1 33.8 0.105 6.94 79.41 16.57
12/23/2022 8:45:00 AM 1 33.8 0.104 6.94 81.9 16.57
12/23/2022 9:00:00 AM 1.01 33.818 0.103 6.91 91.67 16.55
12/23/2022 9:15:00 AM 1.03 33.854 0.103 6.91 87.03 16.55
12/23/2022 9:30:00 AM 1.04 33.872 0.103 6.9 91.24 16.54
12/23/2022 9:45:00 AM 1.06 33.908 0.103 6.91 82.67 16.53
12/23/2022 10:00:00 AM 1.07 33.926 0.103 6.9 80.81 16.52
12/23/2022 10:15:00 AM 1.09 33.962 0.103 6.9 77.19 16.52
12/23/2022 10:30:00 AM 1.11 33.998 0.103 6.9 76.77 16.51
12/23/2022 10:45:00 AM 1.13 34.034 0.103 6.89 77.94 16.51
12/23/2022 11:00:00 AM 1.14 34.052 0.103 6.9 87.08 16.5
12/23/2022 11:15:00 AM 1.15 34.07 0.103 6.9 79.73 16.5
12/23/2022 11:30:00 AM 1.16 34.088 0.103 6.89 77.94 16.51
12/23/2022 11:45:00 AM 1.18 34.124 0.103 6.89 73.56 16.5
12/23/2022 12:00:00 PM 1.19 34.142 0.104 6.94 81.03 16.5
12/23/2022 12:15:00 PM 1.19 34.142 0.104 6.95 74.95 16.5
12/23/2022 12:30:00 PM 1.19 34.142 0.105 6.93 74.25 16.5
12/23/2022 12:45:00 PM 1.17 34.106 0.106 6.93 76.67 16.51
12/23/2022 1:00:00 PM 1.16 34.088 0.106 6.95 71.56 16.52
12/23/2022 1:15:00 PM 1.14 34.052 0.107 6.93 72.85 16.52
12/23/2022 1:30:00 PM 1.12 34.016 0.108 6.94 67.83 16.53
12/23/2022 1:45:00 PM 1.1 33.98 0.108 6.95 67.7 16.54
12/23/2022 2:00:00 PM 1.08 33.944 0.109 6.94 66.81 16.55
12/23/2022 2:15:00 PM 1.05 33.89 0.109 6.95 66.92 16.57
12/23/2022 2:30:00 PM 1.02 33.836 0.109 6.95 63.54 16.58
12/23/2022 2:45:00 PM 0.99 33.782 0.108 6.95 62.5 16.59
12/23/2022 3:00:00 PM 0.95 33.71 0.108 6.95 61.39 16.62
12/23/2022 3:15:00 PM 0.91 33.638 0.107 6.95 57.47 16.64
12/23/2022 3:30:00 PM 0.86 33.548 0.106 6.94 55.6 16.65
12/23/2022 3:45:00 PM 0.81 33.458 0.106 6.94 48.33 16.68
12/23/2022 4:00:00 PM 0.76 33.368 0.106 6.95 51.53 16.71
12/23/2022 4:15:00 PM 0.71 33.278 0.106 6.94 50.55 16.72
12/23/2022 4:30:00 PM 0.65 33.17 0.105 6.96 49.39 16.75
12/23/2022 4:45:00 PM 0.59 33.062 0.105 6.96 48.42 16.78
12/23/2022 5:00:00 PM 0.51 32.918 0.104 6.96 45.74 16.81
12/23/2022 5:15:00 PM 0.44 32.792 0.104 6.97 46.72 16.85
12/23/2022 5:30:00 PM 0.37 32.666 0.103 6.95 47.14 16.87
12/23/2022 5:45:00 PM 0.29 32.522 0.103 6.95 45.04 16.92
12/23/2022 6:00:00 PM 0.21 32.378 0.103 6.94 44.94 16.95
12/23/2022 6:15:00 PM 0.14 32.252 0.102 6.96 45.42 16.98
12/23/2022 6:30:00 PM 0.07 32.126 0.102 6.94 44.12 17.02
12/23/2022 6:45:00 PM 0 32 0.101 6.94 43.72 17.05
12/23/2022 7:00:00 PM -0.04 31.928 0.101 6.94 42.97 17.09
12/23/2022 7:15:00 PM -0.04 31.928 0.1 6.93 40.36 17.1
12/23/2022 7:30:00 PM -0.04 31.928 0.1 6.93 40.19 17.12
12/23/2022 7:45:00 PM -0.04 31.928 0.099 6.92 37.85 17.12
12/23/2022 8:00:00 PM -0.04 31.928 0.098 6.93 35.9 17.14
12/23/2022 8:15:00 PM -0.04 31.928 0.098 6.93 35.39 17.15
12/23/2022 8:30:00 PM -0.04 31.928 0.098 6.92 32.96 17.16
12/23/2022 8:45:00 PM -0.04 31.928 0.097 6.9 32.45 17.18
12/23/2022 9:00:00 PM -0.04 31.928 0.097 6.91 29.75 17.18
12/23/2022 9:15:00 PM -0.04 31.928 0.096 6.92 29.02 17.2
12/23/2022 9:30:00 PM -0.04 31.928 0.096 6.9 29.35 17.19
12/23/2022 9:45:00 PM -0.04 31.928 0.096 6.91 28.34 17.2
12/23/2022 10:00:00 PM -0.04 31.928 0.095 6.89 28 17.2
12/23/2022 10:15:00 PM -0.04 31.928 0.095 6.9 27.35 17.21
12/23/2022 10:30:00 PM -0.04 31.928 0.095 6.91 26.77 17.21
12/23/2022 10:45:00 PM -0.04 31.928 0.095 6.9 25.75 17.21
12/23/2022 11:00:00 PM -0.04 31.928 0.094 6.89 23.53 17.22
12/23/2022 11:15:00 PM -0.04 31.928 0.094 6.89 25.86 17.23
12/23/2022 11:30:00 PM -0.04 31.928 0.094 6.88 24.26 17.23
12/23/2022 11:45:00 PM -0.04 31.928 0.093 6.88 23.61 17.23
12/24/2022 12:00:00 AM -0.04 31.928 0.093 6.9 24.84 17.23
12/24/2022 12:15:00 AM -0.04 31.928 0.093 6.9 23.58 17.24
12/24/2022 12:30:00 AM -0.04 31.928 0.093 6.91 23 17.23
12/24/2022 12:45:00 AM -0.04 31.928 0.093 6.9 22.35 17.24
12/24/2022 1:00:00 AM -0.04 31.928 0.093 6.92 21.68 17.24
12/24/2022 1:15:00 AM -0.04 31.928 0.05 6.89 24.07 17.24
12/24/2022 1:30:00 AM -0.04 31.928 0.06 6.89 21.58 17.24
12/24/2022 1:45:00 AM -0.04 31.928 0.039 6.9 21.21 17.25
12/24/2022 2:00:00 AM -0.04 31.928 0.036 6.9 20.84 17.27
12/24/2022 2:15:00 AM -0.04 31.928 0.033 6.91 19.66 17.26
12/24/2022 2:30:00 AM -0.04 31.928 0.032 6.9 19.55 17.26
12/24/2022 2:45:00 AM -0.04 31.928 0.032 6.9 18.51 17.26
12/24/2022 3:00:00 AM -0.04 31.928 0.032 6.92 19.15 17.26
12/24/2022 3:15:00 AM -0.04 31.928 0.031 6.92 18.8 17.27
12/24/2022 3:30:00 AM -0.04 31.928 0.031 6.91 24.52 17.27
12/24/2022 3:45:00 AM -0.04 31.928 0.031 6.9 18.42 17.27
12/24/2022 4:00:00 AM -0.04 31.928 0.031 6.92 19.06 17.28
12/24/2022 4:15:00 AM -0.04 31.928 0.031 6.92 17.24 17.28
12/24/2022 4:30:00 AM -0.04 31.928 0.031 6.92 16.07 17.29
12/24/2022 4:45:00 AM -0.04 31.928 0.031 6.91 73.78 17.28
12/24/2022 5:00:00 AM -0.04 31.928 0.031 6.93 19.29 17.28
12/24/2022 5:15:00 AM -0.04 31.928 0.031 6.92 27.98 17.29
12/24/2022 5:30:00 AM -0.04 31.928 0.031 6.94 52.61 17.29
12/24/2022 5:45:00 AM -0.04 31.928 0.031 6.93 14.43 17.3
12/24/2022 6:00:00 AM -0.04 31.928 0.031 6.94 44.48 17.31
12/24/2022 6:15:00 AM -0.04 31.928 0.031 6.93 14.86 17.3
12/24/2022 6:30:00 AM -0.04 31.928 0.031 6.93 38.93 17.3
12/24/2022 6:45:00 AM -0.04 31.928 0.031 6.93 13.35 17.31
12/24/2022 7:00:00 AM -0.04 31.928 0.031 6.96 146.29 17.32
12/24/2022 7:15:00 AM -0.04 31.928 0.031 6.94 104.22 17.31
12/24/2022 7:30:00 AM -0.04 31.928 0.031 6.97 74.74 17.3
12/24/2022 7:45:00 AM -0.04 31.928 0.031 6.99 15.05 17.32
12/24/2022 8:00:00 AM -0.04 31.928 0.031 6.96 13.17 17.31
12/24/2022 8:15:00 AM -0.04 31.928 0.031 7 14.54 17.31
12/24/2022 8:30:00 AM -0.04 31.928 0.031 6.97 24.14 17.31
12/24/2022 8:45:00 AM -0.04 31.928 0.032 6.97 76.85 17.32
12/24/2022 9:00:00 AM -0.04 31.928 0.032 6.99 14.01 17.32
12/24/2022 9:15:00 AM -0.04 31.928 0.032 7.01 21.52 17.32
12/24/2022 9:30:00 AM -0.04 31.928 0.032 7.01 13.61 17.32
12/24/2022 9:45:00 AM -0.04 31.928 0.032 7.01 12.55 17.33
12/24/2022 10:00:00 AM -0.04 31.928 0.032 7 14.4 17.31
12/24/2022 10:15:00 AM -0.04 31.928 0.032 7.02 13.52 17.32
12/24/2022 10:30:00 AM -0.04 31.928 0.032 6.99 13.11 17.33
12/24/2022 10:45:00 AM -0.04 31.928 0.032 7 13.36 17.31
12/24/2022 11:00:00 AM -0.04 31.928 0.032 7.01 13.54 17.32
12/24/2022 11:15:00 AM -0.04 31.928 0.032 7.01 11.52 17.31
12/24/2022 11:30:00 AM -0.04 31.928 0.032 7.03 11.71 17.31
12/24/2022 11:45:00 AM -0.04 31.928 0.032 7 11.67 17.31
12/24/2022 12:00:00 PM -0.04 31.928 0.032 7 12.31 17.32
12/24/2022 12:15:00 PM -0.04 31.928 0.032 7.01 11.98 17.32
12/24/2022 12:30:00 PM -0.04 31.928 0.032 7 13.77 17.32
12/24/2022 12:45:00 PM -0.04 31.928 0.032 7.01 11.61 17.31
12/24/2022 1:00:00 PM -0.04 31.928 0.033 7.02 12 17.32
12/24/2022 1:15:00 PM -0.04 31.928 0.033 7.02 10.84 17.32
12/24/2022 1:30:00 PM -0.04 31.928 0.033 7.02 12.09 17.32
12/24/2022 1:45:00 PM -0.04 31.928 0.033 7.02 11.09 17.32
12/24/2022 2:00:00 PM -0.04 31.928 0.033 7.03 10.72 17.33
12/24/2022 2:15:00 PM -0.04 31.928 0.033 7.04 11.43 17.34
12/24/2022 2:30:00 PM -0.04 31.928 0.033 7.03 248.34 17.34
12/24/2022 2:45:00 PM -0.04 31.928 0.033 7.03 10.58 17.34
12/24/2022 3:00:00 PM -0.04 31.928 0.033 7.03 10.32 17.34
12/24/2022 3:15:00 PM -0.04 31.928 0.033 7.04 9.47 17.34
12/24/2022 3:30:00 PM -0.04 31.928 0.033 7.04 10.01 17.35
12/24/2022 3:45:00 PM -0.04 31.928 0.033 7.03 9.25 17.35
12/24/2022 4:00:00 PM -0.04 31.928 0.033 7.04 9.42 17.35
12/24/2022 4:15:00 PM -0.04 31.928 0.033 7.04 9.61 17.34
12/24/2022 4:30:00 PM -0.04 31.928 0.034 7.04 10.4 17.35
12/24/2022 4:45:00 PM -0.04 31.928 0.034 7.04 9.29 17.34
12/24/2022 5:00:00 PM -0.04 31.928 0.034 7.05 9.33 17.34
12/24/2022 5:15:00 PM -0.04 31.928 0.034 7.05 8.95 17.33
12/24/2022 5:30:00 PM -0.04 31.928 0.034 7.04 8.9 17.34
12/24/2022 5:45:00 PM -0.04 31.928 0.034 7.05 9.24 17.33
12/24/2022 6:00:00 PM -0.04 31.928 0.034 7.04 9.09 17.34
12/24/2022 6:15:00 PM -0.04 31.928 0.034 7.05 9.48 17.34
12/24/2022 6:30:00 PM -0.04 31.928 0.034 7.05 9.22 17.33
12/24/2022 6:45:00 PM -0.04 31.928 0.034 7.05 9.01 17.33
12/24/2022 7:00:00 PM -0.04 31.928 0.034 7.05 9.63 17.34
12/24/2022 7:15:00 PM -0.04 31.928 0.034 7.06 8.64 17.33
12/24/2022 7:30:00 PM -0.04 31.928 0.034 7.05 8.99 17.33
12/24/2022 7:45:00 PM -0.04 31.928 0.034 7.06 8.5 17.32
12/24/2022 8:00:00 PM -0.04 31.928 0.034 7.06 8.55 17.33
12/24/2022 8:15:00 PM -0.04 31.928 0.035 7.06 7.89 17.33
12/24/2022 8:30:00 PM -0.04 31.928 0.035 7.06 8.44 17.32
12/24/2022 8:45:00 PM -0.04 31.928 0.035 7.06 8.58 17.33
12/24/2022 9:00:00 PM -0.04 31.928 0.035 7.06 8.37 17.33
12/24/2022 9:15:00 PM -0.04 31.928 0.035 7.06 8.55 17.33
12/24/2022 9:30:00 PM -0.04 31.928 0.035 7.06 8.77 17.32
12/24/2022 9:45:00 PM -0.04 31.928 0.035 7.06 8.13 17.32
12/24/2022 10:00:00 PM -0.04 31.928 0.035 7.07 8.14 17.33
12/24/2022 10:15:00 PM -0.04 31.928 0.035 7.05 8.27 17.33
12/24/2022 10:30:00 PM -0.04 31.928 0.035 7.06 8.38 17.32
12/24/2022 10:45:00 PM -0.04 31.928 0.035 7.06 8.58 17.32
12/24/2022 11:00:00 PM -0.04 31.928 0.035 7.06 9.19 17.34
12/24/2022 11:15:00 PM -0.04 31.928 0.035 7.07 8.21 17.33
12/24/2022 11:30:00 PM -0.04 31.928 0.035 7.07 8.25 17.33
12/24/2022 11:45:00 PM -0.04 31.928 0.035 7.07 7.94 17.34
12/25/2022 12:00:00 AM -0.04 31.928 0.035 7.07 8.26 17.33
12/25/2022 12:15:00 AM -0.04 31.928 0.035 7.07 8.37 17.34
12/25/2022 12:30:00 AM -0.04 31.928 0.035 7.06 8.4 17.33
12/25/2022 12:45:00 AM -0.04 31.928 0.035 7.07 8.87 17.34
12/25/2022 1:00:00 AM -0.04 31.928 0.035 7.07 8.91 17.34
12/25/2022 1:15:00 AM -0.04 31.928 0.035 7.07 8.67 17.34
12/25/2022 1:30:00 AM -0.04 31.928 0.035 7.07 9.17 17.34
12/25/2022 1:45:00 AM -0.04 31.928 0.036 7.07 8.42 17.33
12/25/2022 2:00:00 AM -0.04 31.928 0.036 7.07 7.97 17.34
12/25/2022 2:15:00 AM -0.04 31.928 0.036 7.07 8.1 17.33
12/25/2022 2:30:00 AM -0.04 31.928 0.036 7.07 8.37 17.34
12/25/2022 2:45:00 AM -0.04 31.928 0.036 7.07 8.11 17.33
12/25/2022 3:00:00 AM -0.04 31.928 0.036 7.08 8.01 17.33
12/25/2022 3:15:00 AM -0.04 31.928 0.036 7.08 8.02 17.34
12/25/2022 3:30:00 AM -0.04 31.928 0.036 7.09 7.86 17.33
12/25/2022 3:45:00 AM -0.04 31.928 0.036 7.08 7.39 17.34
12/25/2022 4:00:00 AM -0.04 31.928 0.036 7.09 7.37 17.32
12/25/2022 4:15:00 AM -0.04 31.928 0.036 7.09 7.21 17.34
12/25/2022 4:30:00 AM -0.04 31.928 0.036 7.09 7.25 17.33
12/25/2022 4:45:00 AM -0.04 31.928 0.036 7.09 7.65 17.34
12/25/2022 5:00:00 AM -0.04 31.928 0.036 7.09 7.62 17.33
12/25/2022 5:15:00 AM -0.04 31.928 0.036 7.09 7.49 17.31
12/25/2022 5:30:00 AM -0.04 31.928 0.036 7.1 7.08 17.33
12/25/2022 5:45:00 AM -0.04 31.928 0.036 7.1 6.8 17.32
12/25/2022 6:00:00 AM -0.04 31.928 0.036 7.1 6.74 17.31
12/25/2022 6:15:00 AM -0.04 31.928 0.036 7.11 6.79 17.32
12/25/2022 6:30:00 AM -0.04 31.928 0.036 7.1 6.76 17.34
12/25/2022 6:45:00 AM -0.04 31.928 0.036 7.1 6.87 17.33
12/25/2022 7:00:00 AM -0.04 31.928 0.036 7.1 6.74 17.34
12/25/2022 7:15:00 AM -0.04 31.928 0.036 7.1 7.23 17.33
12/25/2022 7:30:00 AM -0.04 31.928 0.036 7.1 6.35 17.34
12/25/2022 7:45:00 AM -0.04 31.928 0.036 7.1 6.58 17.35
12/25/2022 8:00:00 AM -0.04 31.928 0.036 7.1 6.6 17.34
12/25/2022 8:15:00 AM -0.04 31.928 0.036 7.1 6.55 17.36
12/25/2022 8:30:00 AM -0.04 31.928 0.037 7.1 6.39 17.37
12/25/2022 8:45:00 AM -0.04 31.928 0.037 7.1 6.46 17.37
12/25/2022 9:00:00 AM -0.04 31.928 0.037 7.11 6.33 17.37
12/25/2022 9:15:00 AM -0.04 31.928 0.037 7.11 6.39 17.39
12/25/2022 9:30:00 AM -0.04 31.928 0.037 7.11 6.44 17.39
12/25/2022 9:45:00 AM -0.04 31.928 0.037 7.11 6.31 17.38
12/25/2022 10:00:00 AM -0.04 31.928 0.037 7.11 6.35 17.39
12/25/2022 10:15:00 AM -0.04 31.928 0.037 7.12 6.46 17.41
12/25/2022 10:30:00 AM -0.04 31.928 0.037 7.12 6.03 17.4
12/25/2022 10:45:00 AM -0.04 31.928 0.037 7.12 6.24 17.41
12/25/2022 11:00:00 AM -0.04 31.928 0.037 7.12 6.12 17.4
12/25/2022 11:15:00 AM -0.04 31.928 0.037 7.12 6.06 17.4
12/25/2022 11:30:00 AM -0.04 31.928 0.037 7.13 6.1 17.41
12/25/2022 11:45:00 AM -0.04 31.928 0.037 7.12 6.18 17.39
12/25/2022 12:00:00 PM -0.04 31.928 0.037 7.12 6.12 17.4
12/25/2022 12:15:00 PM -0.04 31.928 0.037 7.13 5.98 17.4
12/25/2022 12:30:00 PM -0.04 31.928 0.037 7.13 6.28 17.4
12/25/2022 12:45:00 PM -0.04 31.928 0.037 7.13 6.39 17.4
12/25/2022 1:00:00 PM -0.04 31.928 0.037 7.13 6.26 17.4
12/25/2022 1:15:00 PM -0.04 31.928 0.037 7.13 6.22 17.39
12/25/2022 1:30:00 PM -0.04 31.928 0.037 7.14 6.29 17.4
12/25/2022 1:45:00 PM -0.04 31.928 0.037 7.14 6.36 17.41
12/25/2022 2:00:00 PM -0.04 31.928 0.037 7.14 6.26 17.42
12/25/2022 2:15:00 PM -0.04 31.928 0.037 7.14 6.26 17.42
12/25/2022 2:30:00 PM -0.04 31.928 0.037 7.14 6.51 17.42
12/25/2022 2:45:00 PM -0.04 31.928 0.037 7.15 6.58 17.43
12/25/2022 3:00:00 PM -0.04 31.928 0.037 7.15 6.51 17.43
12/25/2022 3:15:00 PM -0.04 31.928 0.037 7.15 6.38 17.44
12/25/2022 3:30:00 PM -0.04 31.928 0.037 7.15 6.76 17.43
12/25/2022 3:45:00 PM -0.04 31.928 0.037 7.15 6.2 17.43
12/25/2022 4:00:00 PM -0.04 31.928 0.037 7.15 6.47 17.42
12/25/2022 4:15:00 PM -0.04 31.928 0.037 7.15 6.14 17.42
12/25/2022 4:30:00 PM -0.04 31.928 0.037 7.15 6.61 17.41
12/25/2022 4:45:00 PM -0.04 31.928 0.037 7.15 6.24 17.41
12/25/2022 5:00:00 PM -0.04 31.928 0.037 7.15 6 17.41
12/25/2022 5:15:00 PM -0.04 31.928 0.037 7.15 6.02 17.41
12/25/2022 5:30:00 PM -0.04 31.928 0.038 7.15 6.03 17.38
12/25/2022 5:45:00 PM -0.04 31.928 0.038 7.15 6 17.39
12/25/2022 6:00:00 PM -0.04 31.928 0.038 7.15 6.13 17.38
12/25/2022 6:15:00 PM -0.04 31.928 0.038 7.14 6.1 17.39
12/25/2022 6:30:00 PM -0.04 31.928 0.038 7.14 6.06 17.39
12/25/2022 6:45:00 PM -0.04 31.928 0.038 7.14 5.96 17.39
12/25/2022 7:00:00 PM -0.04 31.928 0.038 7.14 6.06 17.39
12/25/2022 7:15:00 PM -0.04 31.928 0.038 7.14 6.09 17.4
12/25/2022 7:30:00 PM -0.04 31.928 0.038 7.14 6.15 17.39
12/25/2022 7:45:00 PM -0.04 31.928 0.038 7.14 6.14 17.4
12/25/2022 8:00:00 PM -0.04 31.928 0.038 7.14 6.25 17.4
12/25/2022 8:15:00 PM -0.04 31.928 0.038 7.14 5.88 17.4
12/25/2022 8:30:00 PM -0.04 31.928 0.038 7.14 6.05 17.4
12/25/2022 8:45:00 PM -0.04 31.928 0.038 7.14 6.13 17.4
12/25/2022 9:00:00 PM -0.04 31.928 0.038 7.14 6.04 17.4
12/25/2022 9:15:00 PM -0.04 31.928 0.038 7.14 6.04 17.4
12/25/2022 9:30:00 PM -0.04 31.928 0.038 7.14 5.98 17.4
12/25/2022 9:45:00 PM -0.04 31.928 0.038 7.14 5.96 17.4
12/25/2022 10:00:00 PM -0.04 31.928 0.038 7.14 6.02 17.39
12/25/2022 10:15:00 PM -0.04 31.928 0.038 7.14 5.87 17.4
12/25/2022 10:30:00 PM -0.04 31.928 0.038 7.14 5.91 17.39
12/25/2022 10:45:00 PM -0.04 31.928 0.038 7.14 5.79 17.38
12/25/2022 11:00:00 PM -0.04 31.928 0.038 7.14 5.77 17.4
12/25/2022 11:15:00 PM -0.04 31.928 0.038 7.14 5.8 17.39
12/25/2022 11:30:00 PM -0.04 31.928 0.038 7.14 5.74 17.4
12/25/2022 11:45:00 PM -0.04 31.928 0.038 7.14 5.74 17.41
12/26/2022 12:00:00 AM -0.04 31.928 0.038 7.14 5.84 17.39
12/26/2022 12:15:00 AM -0.04 31.928 0.038 7.14 5.53 17.4
12/26/2022 12:30:00 AM -0.04 31.928 0.038 7.14 5.6 17.39
12/26/2022 12:45:00 AM -0.04 31.928 0.038 7.13 5.61 17.4
12/26/2022 1:00:00 AM -0.04 31.928 0.038 7.14 5.68 17.39
12/26/2022 1:15:00 AM -0.04 31.928 0.038 7.14 5.65 17.39
12/26/2022 1:30:00 AM -0.04 31.928 0.039 7.14 5.59 17.4
12/26/2022 1:45:00 AM -0.04 31.928 0.039 7.14 5.69 17.4
12/26/2022 2:00:00 AM -0.04 31.928 0.039 7.14 5.69 17.41
12/26/2022 2:15:00 AM -0.04 31.928 0.039 7.14 5.75 17.42
12/26/2022 2:30:00 AM -0.04 31.928 0.039 7.14 5.49 17.43
12/26/2022 2:45:00 AM -0.04 31.928 0.039 7.15 5.52 17.43
12/26/2022 3:00:00 AM -0.04 31.928 0.039 7.14 5.61 17.43
12/26/2022 3:15:00 AM -0.04 31.928 0.039 7.14 5.69 17.41
12/26/2022 3:30:00 AM -0.04 31.928 0.039 7.14 6.15 17.43
12/26/2022 3:45:00 AM -0.04 31.928 0.039 7.14 5.48 17.43
12/26/2022 4:00:00 AM -0.04 31.928 0.039 7.14 5.61 17.44
12/26/2022 4:15:00 AM -0.04 31.928 0.039 7.14 5.31 17.44
12/26/2022 4:30:00 AM -0.04 31.928 0.039 7.14 5.35 17.45
12/26/2022 4:45:00 AM -0.04 31.928 0.039 7.14 5.27 17.44
12/26/2022 5:00:00 AM -0.04 31.928 0.039 7.14 5.5 17.43
12/26/2022 5:15:00 AM -0.04 31.928 0.039 7.14 5.44 17.44
12/26/2022 5:30:00 AM -0.04 31.928 0.039 7.14 5.22 17.44
12/26/2022 5:45:00 AM -0.04 31.928 0.039 7.13 5.36 17.44
12/26/2022 6:00:00 AM -0.04 31.928 0.039 7.14 5.18 17.43
12/26/2022 6:15:00 AM -0.04 31.928 0.039 7.14 5.29 17.43
12/26/2022 6:30:00 AM -0.04 31.928 0.039 7.14 5.19 17.44
12/26/2022 6:45:00 AM -0.04 31.928 0.039 7.13 5.26 17.44
12/26/2022 7:00:00 AM -0.04 31.928 0.039 7.13 5.18 17.42
12/26/2022 7:15:00 AM -0.04 31.928 0.039 7.13 5.23 17.43
12/26/2022 7:30:00 AM -0.04 31.928 0.039 7.13 5.26 17.43
12/26/2022 7:45:00 AM -0.04 31.928 0.039 7.13 5.25 17.41
12/26/2022 8:00:00 AM -0.04 31.928 0.039 7.13 5.34 17.42
12/26/2022 8:15:00 AM -0.04 31.928 0.039 7.13 5.23 17.42
12/26/2022 8:30:00 AM -0.04 31.928 0.039 7.13 5.41 17.39
12/26/2022 8:45:00 AM -0.04 31.928 0.04 7.12 5.09 17.41
12/26/2022 9:00:00 AM -0.04 31.928 0.04 7.12 5.14 17.43
12/26/2022 9:15:00 AM -0.04 31.928 0.04 7.12 5.09 17.44
12/26/2022 9:30:00 AM -0.04 31.928 0.04 7.13 5.08 17.46
12/26/2022 9:45:00 AM -0.04 31.928 0.04 7.12 5.34 17.42
12/26/2022 10:00:00 AM -0.04 31.928 0.04 7.12 5.48 17.44
12/26/2022 10:15:00 AM -0.04 31.928 0.04 7.12 5.25 17.43
12/26/2022 10:30:00 AM -0.04 31.928 0.04 7.12 5.39 17.46
12/26/2022 10:45:00 AM -0.04 31.928 0.04 7.12 5.2 17.48
12/26/2022 11:00:00 AM -0.04 31.928 0.04 7.12 5.19 17.47
12/26/2022 11:15:00 AM -0.04 31.928 0.04 7.13 8.32 17.5
12/26/2022 11:30:00 AM -0.04 31.928 0.04 7.13 5.22 17.52
12/26/2022 11:45:00 AM -0.04 31.928 0.04 7.13 5.21 17.54
12/26/2022 12:00:00 PM -0.04 31.928 0.04 7.13 5.17 17.53
12/26/2022 12:15:00 PM -0.04 31.928 0.04 7.13 5.15 17.52
12/26/2022 12:30:00 PM -0.04 31.928 0.04 7.14 5 17.54
12/26/2022 12:45:00 PM -0.04 31.928 0.04 7.14 5.82 17.57
12/26/2022 1:00:00 PM -0.04 31.928 0.04 7.14 5.2 17.56
12/26/2022 1:15:00 PM -0.04 31.928 0.04 7.15 5.18 17.56
12/26/2022 1:30:00 PM -0.04 31.928 0.04 7.15 5.46 17.54
12/26/2022 1:45:00 PM -0.04 31.928 0.04 7.15 5.18 17.54
12/26/2022 2:00:00 PM -0.04 31.928 0.04 7.15 5.51 17.53
12/26/2022 2:15:00 PM -0.04 31.928 0.04 7.15 5.18 17.55
12/26/2022 2:30:00 PM -0.04 31.928 0.04 7.15 5.23 17.56
12/26/2022 2:45:00 PM -0.04 31.928 0.04 7.15 5 17.55
12/26/2022 3:00:00 PM -0.04 31.928 0.04 7.15 5.09 17.55
12/26/2022 3:15:00 PM -0.04 31.928 0.04 7.16 5.09 17.55
12/26/2022 3:30:00 PM -0.04 31.928 0.04 7.16 4.98 17.54
12/26/2022 3:45:00 PM -0.04 31.928 0.04 7.16 5.22 17.53
12/26/2022 4:00:00 PM -0.04 31.928 0.04 7.16 5.05 17.53
12/26/2022 4:15:00 PM -0.04 31.928 0.04 7.16 4.99 17.52
12/26/2022 4:30:00 PM -0.04 31.928 0.04 7.16 4.82 17.54
12/26/2022 4:45:00 PM -0.04 31.928 0.04 7.16 4.93 17.52
12/26/2022 5:00:00 PM -0.04 31.928 0.04 7.16 5.42 17.48
12/26/2022 5:15:00 PM -0.04 31.928 0.04 7.15 4.93 17.47
12/26/2022 5:30:00 PM -0.04 31.928 0.04 7.15 5 17.48
12/26/2022 5:45:00 PM -0.04 31.928 0.04 7.15 4.97 17.47
12/26/2022 6:00:00 PM -0.04 31.928 0.04 7.15 5.22 17.46
12/26/2022 6:15:00 PM -0.04 31.928 0.04 7.15 4.81 17.43
12/26/2022 6:30:00 PM -0.04 31.928 0.04 7.15 5.05 17.43
12/26/2022 6:45:00 PM -0.04 31.928 0.04 7.14 5.03 17.42
12/26/2022 7:00:00 PM -0.04 31.928 0.04 7.14 4.87 17.42
12/26/2022 7:15:00 PM -0.04 31.928 0.04 7.14 4.98 17.41
12/26/2022 7:30:00 PM -0.04 31.928 0.04 7.14 4.93 17.42
12/26/2022 7:45:00 PM -0.04 31.928 0.04 7.14 4.99 17.41
12/26/2022 8:00:00 PM -0.04 31.928 0.04 7.14 4.96 17.42
12/26/2022 8:15:00 PM -0.04 31.928 0.04 7.14 5.12 17.38
12/26/2022 8:30:00 PM -0.04 31.928 0.04 7.14 5.92 17.38
12/26/2022 8:45:00 PM -0.04 31.928 0.04 7.14 4.87 17.36
12/26/2022 9:00:00 PM -0.04 31.928 0.04 7.14 4.85 17.39
12/26/2022 9:15:00 PM -0.04 31.928 0.04 7.14 4.81 17.39
12/26/2022 9:30:00 PM -0.04 31.928 0.04 7.14 4.84 17.38
12/26/2022 9:45:00 PM -0.04 31.928 0.04 7.14 4.91 17.39
12/26/2022 10:00:00 PM -0.04 31.928 0.04 7.14 4.77 17.39
12/26/2022 10:15:00 PM -0.04 31.928 0.04 7.13 4.98 17.37
12/26/2022 10:30:00 PM -0.04 31.928 0.04 7.13 4.99 17.36
12/26/2022 10:45:00 PM -0.04 31.928 0.04 7.13 5.19 17.37
12/26/2022 11:00:00 PM -0.04 31.928 0.04 7.13 4.93 17.36
12/26/2022 11:15:00 PM -0.04 31.928 0.04 7.13 4.96 17.37
12/26/2022 11:30:00 PM -0.04 31.928 0.04 7.13 4.79 17.37
12/26/2022 11:45:00 PM -0.04 31.928 0.04 7.13 4.67 17.36
12/27/2022 12:00:00 AM -0.04 31.928 0.04 7.13 5.35 17.37
12/27/2022 12:15:00 AM -0.04 31.928 0.04 7.13 4.74 17.34
12/27/2022 12:30:00 AM -0.04 31.928 0.04 7.13 4.75 17.35
12/27/2022 12:45:00 AM -0.04 31.928 0.04 7.13 4.83 17.37
12/27/2022 1:00:00 AM -0.04 31.928 0.04 7.13 4.74 17.38
12/27/2022 1:15:00 AM -0.04 31.928 0.04 7.13 5.08 17.32
12/27/2022 1:30:00 AM -0.04 31.928 0.04 7.13 4.69 17.31
12/27/2022 1:45:00 AM -0.04 31.928 0.04 7.13 4.6 17.32
12/27/2022 2:00:00 AM -0.04 31.928 0.04 7.13 4.68 17.34
12/27/2022 2:15:00 AM -0.04 31.928 0.04 7.13 4.72 17.32
12/27/2022 2:30:00 AM -0.04 31.928 0.04 7.13 4.73 17.31
12/27/2022 2:45:00 AM -0.04 31.928 0.04 7.12 4.79 17.33
12/27/2022 3:00:00 AM -0.04 31.928 0.04 7.13 5.16 17.35
12/27/2022 3:15:00 AM -0.04 31.928 0.04 7.12 4.62 17.37
12/27/2022 3:30:00 AM -0.04 31.928 0.04 7.13 4.6 17.39
12/27/2022 3:45:00 AM -0.04 31.928 0.04 7.12 4.6 17.41
12/27/2022 4:00:00 AM -0.04 31.928 0.04 7.12 4.71 17.39
12/27/2022 4:15:00 AM -0.04 31.928 0.04 7.12 5.01 17.39
12/27/2022 4:30:00 AM -0.04 31.928 0.04 7.12 4.71 17.41
12/27/2022 4:45:00 AM -0.04 31.928 0.04 7.12 4.61 17.42
12/27/2022 5:00:00 AM -0.04 31.928 0.04 7.12 5.49 17.42
12/27/2022 5:15:00 AM -0.04 31.928 0.04 7.12 4.56 17.41
12/27/2022 5:30:00 AM -0.04 31.928 0.04 7.11 4.73 17.41
12/27/2022 5:45:00 AM -0.04 31.928 0.04 7.12 4.76 17.41
12/27/2022 6:00:00 AM -0.04 31.928 0.04 7.12 4.54 17.4
12/27/2022 6:15:00 AM -0.04 31.928 0.04 7.12 4.78 17.4
12/27/2022 6:30:00 AM -0.04 31.928 0.04 7.12 4.61 17.4
12/27/2022 6:45:00 AM -0.04 31.928 0.04 7.11 4.64 17.4
12/27/2022 7:00:00 AM -0.04 31.928 0.04 7.11 4.57 17.41
12/27/2022 7:15:00 AM -0.04 31.928 0.04 7.11 4.66 17.41
12/27/2022 7:30:00 AM -0.04 31.928 0.04 7.11 4.7 17.4
12/27/2022 7:45:00 AM -0.04 31.928 0.04 7.11 4.54 17.41
12/27/2022 8:00:00 AM -0.04 31.928 0.041 7.1 4.6 17.4
12/27/2022 8:15:00 AM -0.04 31.928 0.041 7.11 4.99 17.38
12/27/2022 8:30:00 AM -0.04 31.928 0.041 7.1 4.63 17.39
12/27/2022 8:45:00 AM -0.04 31.928 0.041 7.11 4.47 17.38
12/27/2022 9:00:00 AM -0.04 31.928 0.041 7.1 4.77 17.38
12/27/2022 9:15:00 AM -0.04 31.928 0.041 7.11 4.73 17.37
12/27/2022 9:30:00 AM -0.04 31.928 0.041 7.1 4.52 17.35
12/27/2022 9:45:00 AM -0.04 31.928 0.041 7.11 4.58 17.35
12/27/2022 10:00:00 AM -0.04 31.928 0.041 7.1 4.49 17.34
12/27/2022 10:15:00 AM -0.04 31.928 0.041 7.11 4.59 17.35
12/27/2022 10:30:00 AM -0.04 31.928 0.041 7.1 4.47 17.38
12/27/2022 10:45:00 AM -0.04 31.928 0.041 7.11 4.42 17.42
12/27/2022 11:00:00 AM -0.04 31.928 0.041 7.11 4.44 17.5
12/27/2022 11:15:00 AM -0.04 31.928 0.041 7.12 4.43 17.54
12/27/2022 11:30:00 AM -0.04 31.928 0.041 7.13 4.95 17.55
12/27/2022 11:45:00 AM -0.04 31.928 0.041 7.14 4.58 17.56
12/27/2022 12:00:00 PM -0.04 31.928 0.041 7.15 4.59 17.54
12/27/2022 12:15:00 PM -0.04 31.928 0.041 7.15 4.51 17.55
12/27/2022 12:30:00 PM -0.04 31.928 0.041 7.16 4.63 17.54
12/27/2022 12:45:00 PM -0.04 31.928 0.041 7.16 4.48 17.56
12/27/2022 1:00:00 PM -0.04 31.928 0.041 7.16 4.61 17.56
12/27/2022 1:15:00 PM -0.04 31.928 0.041 7.16 5.06 17.56
12/27/2022 1:30:00 PM -0.04 31.928 0.041 7.17 4.72 17.58
12/27/2022 1:45:00 PM -0.04 31.928 0.041 7.18 5.32 17.59
12/27/2022 2:00:00 PM -0.04 31.928 0.041 7.18 4.77 17.59
12/27/2022 2:15:00 PM -0.04 31.928 0.041 7.19 4.93 17.61
12/27/2022 2:30:00 PM -0.04 31.928 0.04 7.18 5.01 17.62
12/27/2022 2:45:00 PM -0.04 31.928 0.04 7.19 5.47 17.61
12/27/2022 3:00:00 PM -0.04 31.928 0.04 7.19 4.62 17.61
12/27/2022 3:15:00 PM -0.04 31.928 0.04 7.19 4.57 17.59
12/27/2022 3:30:00 PM -0.04 31.928 0.04 7.19 4.81 17.59
12/27/2022 3:45:00 PM -0.04 31.928 0.04 7.19 4.84 17.59
12/27/2022 4:00:00 PM -0.04 31.928 0.04 7.19 4.68 17.6
12/27/2022 4:15:00 PM -0.04 31.928 0.04 7.19 4.68 17.6
12/27/2022 4:30:00 PM -0.04 31.928 0.04 7.18 4.54 17.59
12/27/2022 4:45:00 PM -0.04 31.928 0.04 7.19 4.72 17.58
12/27/2022 5:00:00 PM -0.04 31.928 0.04 7.2 4.63 17.58
12/27/2022 5:15:00 PM -0.04 31.928 0.04 7.18 4.81 17.55
12/27/2022 5:30:00 PM -0.04 31.928 0.04 7.19 4.7 17.56
12/27/2022 5:45:00 PM -0.04 31.928 0.04 7.19 4.68 17.56
12/27/2022 6:00:00 PM -0.04 31.928 0.04 7.18 4.65 17.53
12/27/2022 6:15:00 PM -0.04 31.928 0.04 7.18 4.55 17.54
12/27/2022 6:30:00 PM -0.04 31.928 0.04 7.19 4.51 17.54
12/27/2022 6:45:00 PM -0.04 31.928 0.04 7.17 4.58 17.52
12/27/2022 7:00:00 PM -0.04 31.928 0.04 7.18 4.55 17.52
12/27/2022 7:15:00 PM -0.04 31.928 0.04 7.17 4.51 17.51
12/27/2022 7:30:00 PM -0.04 31.928 0.04 7.17 4.57 17.53
12/27/2022 7:45:00 PM -0.04 31.928 0.04 7.17 4.66 17.54
12/27/2022 8:00:00 PM -0.04 31.928 0.04 7.17 4.62 17.52
12/27/2022 8:15:00 PM -0.04 31.928 0.04 7.16 4.55 17.53
12/27/2022 8:30:00 PM -0.04 31.928 0.04 7.17 4.59 17.51
12/27/2022 8:45:00 PM -0.04 31.928 0.04 7.17 4.63 17.5
12/27/2022 9:00:00 PM -0.04 31.928 0.04 7.17 4.92 17.52
12/27/2022 9:15:00 PM -0.04 31.928 0.04 7.16 4.54 17.52
12/27/2022 9:30:00 PM -0.04 31.928 0.04 7.16 4.51 17.49
12/27/2022 9:45:00 PM -0.04 31.928 0.04 7.17 4.71 17.48
12/27/2022 10:00:00 PM -0.04 31.928 0.04 7.16 4.58 17.5
12/27/2022 10:15:00 PM -0.04 31.928 0.04 7.15 4.57 17.51
12/27/2022 10:30:00 PM -0.04 31.928 0.04 7.14 4.58 17.5
12/27/2022 10:45:00 PM -0.04 31.928 0.04 7.15 4.54 17.51
12/27/2022 11:00:00 PM -0.04 31.928 0.041 7.15 4.61 17.52
12/27/2022 11:15:00 PM -0.04 31.928 0.041 7.13 4.62 17.52
12/27/2022 11:30:00 PM -0.04 31.928 0.041 7.13 4.91 17.52
12/27/2022 11:45:00 PM -0.04 31.928 0.041 7.12 4.53 17.5
12/28/2022 12:00:00 AM -0.04 31.928 0.041 7.12 4.62 17.5
12/28/2022 12:15:00 AM -0.04 31.928 0.041 7.12 4.55 17.5
12/28/2022 12:30:00 AM -0.04 31.928 0.041 7.12 4.84 17.49
12/28/2022 12:45:00 AM -0.04 31.928 0.041 7.13 4.5 17.49
12/28/2022 1:00:00 AM -0.04 31.928 0.041 7.12 4.51 17.49
12/28/2022 1:15:00 AM -0.04 31.928 0.041 7.13 4.77 17.49
12/28/2022 1:30:00 AM -0.04 31.928 0.041 7.12 4.77 17.5
12/28/2022 1:45:00 AM -0.04 31.928 0.041 7.13 4.59 17.48
12/28/2022 2:00:00 AM -0.04 31.928 0.041 7.12 4.95 17.47
12/28/2022 2:15:00 AM -0.04 31.928 0.041 7.13 4.53 17.46
12/28/2022 2:30:00 AM -0.04 31.928 0.041 7.14 4.51 17.46
12/28/2022 2:45:00 AM -0.04 31.928 0.041 7.14 4.57 17.44
12/28/2022 3:00:00 AM -0.04 31.928 0.041 7.12 4.7 17.45
12/28/2022 3:15:00 AM -0.04 31.928 0.041 7.13 4.41 17.45
12/28/2022 3:30:00 AM -0.04 31.928 0.041 7.13 4.51 17.47
12/28/2022 3:45:00 AM -0.04 31.928 0.041 7.13 5.09 17.49
12/28/2022 4:00:00 AM -0.04 31.928 0.041 7.13 4.68 17.49
12/28/2022 4:15:00 AM -0.04 31.928 0.041 7.15 4.73 17.49
12/28/2022 4:30:00 AM -0.04 31.928 0.041 7.17 4.83 17.51
12/28/2022 4:45:00 AM -0.04 31.928 0.041 7.17 4.74 17.52
12/28/2022 5:00:00 AM -0.04 31.928 0.041 7.16 4.57 17.53
12/28/2022 5:15:00 AM -0.04 31.928 0.041 7.16 4.82 17.53
12/28/2022 5:30:00 AM -0.04 31.928 0.041 7.16 4.7 17.52
12/28/2022 5:45:00 AM -0.04 31.928 0.041 7.16 4.45 17.52
12/28/2022 6:00:00 AM -0.04 31.928 0.041 7.17 4.53 17.52
12/28/2022 6:15:00 AM -0.04 31.928 0.041 7.16 4.48 17.52
12/28/2022 6:30:00 AM -0.04 31.928 0.041 7.17 4.53 17.51
12/28/2022 6:45:00 AM -0.04 31.928 0.041 7.17 4.47 17.53
12/28/2022 7:00:00 AM -0.04 31.928 0.041 7.17 4.88 17.52
12/28/2022 7:15:00 AM -0.04 31.928 0.041 7.17 4.7 17.51
12/28/2022 7:30:00 AM -0.04 31.928 0.041 7.17 4.51 17.51
12/28/2022 7:45:00 AM -0.04 31.928 0.041 7.17 5.74 17.51
12/28/2022 8:00:00 AM -0.04 31.928 0.041 7.16 4.5 17.52
12/28/2022 8:15:00 AM -0.04 31.928 0.041 7.17 4.42 17.53
12/28/2022 8:30:00 AM -0.04 31.928 0.041 7.17 4.63 17.52
12/28/2022 8:45:00 AM -0.04 31.928 0.041 7.16 4.52 17.53
12/28/2022 9:00:00 AM -0.04 31.928 0.041 7.17 4.51 17.55
12/28/2022 9:15:00 AM -0.04 31.928 0.041 7.17 4.58 17.54
12/28/2022 9:30:00 AM -0.04 31.928 0.041 7.17 4.48 17.58
12/28/2022 9:45:00 AM -0.04 31.928 0.041 7.17 4.52 17.56
12/28/2022 10:00:00 AM -0.04 31.928 0.041 7.16 4.54 17.52
12/28/2022 10:15:00 AM -0.04 31.928 0.041 7.19 4.72 17.44
12/28/2022 10:30:00 AM -0.04 31.928 0.041 7.19 4.77 17.37
12/28/2022 10:45:00 AM -0.04 31.928 0.041 7.19 4.62 17.42
12/28/2022 11:00:00 AM -0.04 31.928 0.041 7.19 4.83 17.4
12/28/2022 11:15:00 AM -0.04 31.928 0.041 7.2 5.18 17.42
12/28/2022 11:30:00 AM -0.04 31.928 0.041 7.21 5.04 17.34
12/28/2022 11:45:00 AM -0.04 31.928 0.04 7.21 4.96 17.39
12/28/2022 12:00:00 PM -0.04 31.928 0.04 7.21 5.07 17.39
12/28/2022 12:15:00 PM -0.04 31.928 0.04 7.21 5.16 17.38
12/28/2022 12:30:00 PM -0.04 31.928 0.04 7.22 5.99 17.41
12/28/2022 12:45:00 PM -0.03 31.946 0.04 7.22 6.57 17.52
12/28/2022 1:00:00 PM -0.03 31.946 0.04 7.22 6.42 17.53
12/28/2022 1:15:00 PM -0.03 31.946 0.041 7.22 7.06 17.53
12/28/2022 1:30:00 PM -0.03 31.946 0.041 7.22 6.5 17.56
12/28/2022 1:45:00 PM -0.03 31.946 0.041 7.22 6.68 17.58
12/28/2022 2:00:00 PM -0.03 31.946 0.041 7.22 6.16 17.55
12/28/2022 2:15:00 PM -0.03 31.946 0.041 7.22 6.25 17.59
12/28/2022 2:30:00 PM -0.02 31.964 0.041 7.22 6.6 17.59
12/28/2022 2:45:00 PM -0.03 31.946 0.041 7.22 6.52 17.59
12/28/2022 3:00:00 PM -0.02 31.964 0.041 7.22 6.69 17.59
12/28/2022 3:15:00 PM -0.02 31.964 0.041 7.22 6.62 17.59
12/28/2022 3:30:00 PM -0.01 31.982 0.042 7.22 6.79 17.58
12/28/2022 3:45:00 PM -0.01 31.982 0.043 7.22 6.64 17.56
12/28/2022 4:00:00 PM -0.01 31.982 0.045 7.21 6.54 17.58
12/28/2022 4:15:00 PM -0.02 31.964 0.09 7.22 6.89 17.58
12/28/2022 4:30:00 PM -0.02 31.964 0.108 7.22 6.93 17.56
12/28/2022 4:45:00 PM -0.02 31.964 0.11 7.2 10.34 17.55
12/28/2022 5:00:00 PM -0.02 31.964 0.11 7.2 12.45 17.55
12/28/2022 5:15:00 PM -0.02 31.964 0.11 7.2 8.04 17.55
12/28/2022 5:30:00 PM -0.03 31.946 0.11 7.2 7.98 17.54
12/28/2022 5:45:00 PM -0.03 31.946 0.11 7.18 6.25 17.55
12/28/2022 6:00:00 PM -0.03 31.946 0.11 7.19 5.93 17.55
12/28/2022 6:15:00 PM -0.03 31.946 0.11 7.19 6.68 17.54
12/28/2022 6:30:00 PM -0.03 31.946 0.11 7.19 6.36 17.54
12/28/2022 6:45:00 PM -0.03 31.946 0.11 7.19 5.79 17.55
12/28/2022 7:00:00 PM -0.02 31.964 0.11 7.19 5.58 17.54
12/28/2022 7:15:00 PM -0.02 31.964 0.11 7.19 5.65 17.54
12/28/2022 7:30:00 PM -0.02 31.964 0.11 7.18 5.08 17.54
12/28/2022 7:45:00 PM -0.03 31.946 0.11 7.19 5.51 17.55
12/28/2022 8:00:00 PM -0.03 31.946 0.111 7.18 5.21 17.55
12/28/2022 8:15:00 PM -0.03 31.946 0.111 7.18 5.33 17.55
12/28/2022 8:30:00 PM -0.03 31.946 0.111 7.19 5.26 17.55
12/28/2022 8:45:00 PM -0.03 31.946 0.111 7.17 4.84 17.55
12/28/2022 9:00:00 PM -0.03 31.946 0.111 7.19 4.86 17.55
12/28/2022 9:15:00 PM -0.04 31.928 0.111 7.19 4.91 17.56
12/28/2022 9:30:00 PM -0.04 31.928 0.111 7.18 5.42 17.56
12/28/2022 9:45:00 PM -0.04 31.928 0.111 7.19 5.1 17.55
12/28/2022 10:00:00 PM -0.05 31.91 0.111 7.18 4.48 17.55
12/28/2022 10:15:00 PM -0.05 31.91 0.112 7.19 5.26 17.55
12/28/2022 10:30:00 PM -0.05 31.91 0.112 7.18 4.45 17.56
12/28/2022 10:45:00 PM -0.05 31.91 0.112 7.18 4.69 17.55
12/28/2022 11:00:00 PM -0.05 31.91 0.112 7.18 4.7 17.56
12/28/2022 11:15:00 PM -0.05 31.91 0.112 7.18 4.82 17.56
12/28/2022 11:30:00 PM -0.05 31.91 0.112 7.18 4.87 17.56
12/28/2022 11:45:00 PM -0.05 31.91 0.112 7.19 4.81 17.57
12/29/2022 12:00:00 AM -0.05 31.91 0.112 7.18 4.44 17.56
12/29/2022 12:15:00 AM -0.05 31.91 0.112 7.18 4.64 17.56
12/29/2022 12:30:00 AM -0.04 31.928 0.112 7.19 4.94 17.56
12/29/2022 12:45:00 AM -0.05 31.91 0.112 7.19 4.54 17.57
12/29/2022 1:00:00 AM -0.05 31.91 0.113 7.19 4.81 17.57
12/29/2022 1:15:00 AM -0.05 31.91 0.113 7.18 4.92 17.56
12/29/2022 1:30:00 AM -0.05 31.91 0.113 7.19 4.57 17.57
12/29/2022 1:45:00 AM -0.05 31.91 0.113 7.19 4.86 17.57
12/29/2022 2:00:00 AM -0.05 31.91 0.113 7.18 4.57 17.57
12/29/2022 2:15:00 AM -0.05 31.91 0.113 7.19 4.36 17.58
12/29/2022 2:30:00 AM -0.05 31.91 0.113 7.18 4.42 17.57
12/29/2022 2:45:00 AM -0.05 31.91 0.113 7.19 4.52 17.58
12/29/2022 3:00:00 AM -0.05 31.91 0.113 7.19 4.46 17.58
12/29/2022 3:15:00 AM -0.05 31.91 0.113 7.18 4.77 17.57
12/29/2022 3:30:00 AM -0.05 31.91 0.113 7.18 4.6 17.58
12/29/2022 3:45:00 AM -0.05 31.91 0.114 7.19 4.51 17.57
12/29/2022 4:00:00 AM -0.04 31.928 0.114 7.18 4.83 17.57
12/29/2022 4:15:00 AM -0.04 31.928 0.114 7.18 4.33 17.58
12/29/2022 4:30:00 AM -0.04 31.928 0.114 7.19 4.5 17.59
12/29/2022 4:45:00 AM -0.05 31.91 0.114 7.19 4.45 17.59
12/29/2022 5:00:00 AM -0.04 31.928 0.114 7.19 4.22 17.58
12/29/2022 5:15:00 AM -0.04 31.928 0.114 7.19 4.63 17.58
12/29/2022 5:30:00 AM -0.04 31.928 0.114 7.19 4.53 17.58
12/29/2022 5:45:00 AM -0.04 31.928 0.114 7.19 4.44 17.59
12/29/2022 6:00:00 AM -0.04 31.928 0.114 7.19 4.34 17.59
12/29/2022 6:15:00 AM -0.04 31.928 0.114 7.19 4.41 17.6
12/29/2022 6:30:00 AM -0.04 31.928 0.114 7.2 4.28 17.59
12/29/2022 6:45:00 AM -0.04 31.928 0.114 7.18 4.52 17.59
12/29/2022 7:00:00 AM -0.04 31.928 0.114 7.2 4.45 17.6
12/29/2022 7:15:00 AM -0.04 31.928 0.114 7.19 4.31 17.59
12/29/2022 7:30:00 AM -0.04 31.928 0.114 7.2 4.44 17.6
12/29/2022 7:45:00 AM -0.04 31.928 0.114 7.2 4.28 17.61
12/29/2022 8:00:00 AM -0.04 31.928 0.114 7.2 4.31 17.61
12/29/2022 8:15:00 AM -0.04 31.928 0.114 7.2 4.19 17.62
12/29/2022 8:30:00 AM -0.04 31.928 0.114 7.18 4.31 17.64
12/29/2022 8:45:00 AM -0.04 31.928 0.114 7.2 4.36 17.64
12/29/2022 9:00:00 AM -0.04 31.928 0.114 7.19 4.05 17.64
12/29/2022 9:15:00 AM -0.03 31.946 0.114 7.21 4.19 17.66
12/29/2022 9:30:00 AM -0.03 31.946 0.114 7.21 4.42 17.66
12/29/2022 9:45:00 AM -0.03 31.946 0.115 7.2 4.36 17.66
12/29/2022 10:00:00 AM -0.03 31.946 0.115 7.21 4.15 17.64
12/29/2022 10:15:00 AM -0.03 31.946 0.115 7.22 4.48 17.65
12/29/2022 10:30:00 AM -0.03 31.946 0.115 7.21 3.92 17.64
12/29/2022 10:45:00 AM -0.03 31.946 0.115 7.21 3.85 17.62
12/29/2022 11:00:00 AM -0.02 31.964 0.115 7.22 4.08 17.63
12/29/2022 11:15:00 AM -0.02 31.964 0.115 7.22 4 17.61
12/29/2022 11:30:00 AM 0 32 0.116 7.21 3.88 17.61
12/29/2022 11:45:00 AM 0 32 0.116 7.23 4.41 17.6
12/29/2022 12:00:00 PM 0.01 32.018 0.116 7.22 4.12 17.6
12/29/2022 12:15:00 PM 0.03 32.054 0.117 7.23 4.03 17.59
12/29/2022 12:30:00 PM 0.07 32.126 0.117 7.22 4.31 17.57
12/29/2022 12:45:00 PM 0.09 32.162 0.117 7.22 4.87 17.58
12/29/2022 1:00:00 PM 0.11 32.198 0.117 7.22 4.98 17.58
12/29/2022 1:15:00 PM 0.11 32.198 0.117 7.23 5.31 17.56
12/29/2022 1:30:00 PM 0.1 32.18 0.117 7.22 5.81 17.56
12/29/2022 1:45:00 PM 0.09 32.162 0.117 7.23 6.2 17.57
12/29/2022 2:00:00 PM 0.09 32.162 0.117 7.23 6.75 17.56
12/29/2022 2:15:00 PM 0.09 32.162 0.116 7.23 6.47 17.56
12/29/2022 2:30:00 PM 0.09 32.162 0.116 7.22 6.72 17.54
12/29/2022 2:45:00 PM 0.09 32.162 0.116 7.22 6.57 17.54
12/29/2022 3:00:00 PM 0.09 32.162 0.115 7.22 6.25 17.55
12/29/2022 3:15:00 PM 0.08 32.144 0.115 7.22 6.29 17.55
12/29/2022 3:30:00 PM 0.06 32.108 0.115 7.22 6.39 17.54
12/29/2022 3:45:00 PM 0.05 32.09 0.114 7.22 6.71 17.54
12/29/2022 4:00:00 PM 0.05 32.09 0.114 7.21 6.12 17.54
12/29/2022 4:15:00 PM 0.04 32.072 0.114 7.22 6.49 17.54
12/29/2022 4:30:00 PM 0.03 32.054 0.114 7.22 5.94 17.54
12/29/2022 4:45:00 PM 0.02 32.036 0.114 7.21 6.38 17.52
12/29/2022 5:00:00 PM 0.01 32.018 0.113 7.21 5.94 17.52
12/29/2022 5:15:00 PM 0.01 32.018 0.113 7.21 6.31 17.51
12/29/2022 5:30:00 PM 0 32 0.113 7.21 6.27 17.51
12/29/2022 5:45:00 PM 0 32 0.113 7.21 6.45 17.52
12/29/2022 6:00:00 PM 0 32 0.113 7.2 6.16 17.52
12/29/2022 6:15:00 PM 0 32 0.113 7.21 5.74 17.52
12/29/2022 6:30:00 PM -0.01 31.982 0.113 7.2 6.27 17.51
12/29/2022 6:45:00 PM 0 32 0.113 7.21 5.75 17.52
12/29/2022 7:00:00 PM 0 32 0.113 7.21 5.69 17.52
12/29/2022 7:15:00 PM 0 32 0.113 7.2 5.78 17.51
12/29/2022 7:30:00 PM -0.01 31.982 0.113 7.2 5.7 17.52
12/29/2022 7:45:00 PM -0.01 31.982 0.113 7.2 5.48 17.52
12/29/2022 8:00:00 PM -0.01 31.982 0.113 7.2 5.33 17.53
12/29/2022 8:15:00 PM -0.01 31.982 0.113 7.2 5.35 17.53
12/29/2022 8:30:00 PM -0.01 31.982 0.113 7.19 5.84 17.53
12/29/2022 8:45:00 PM -0.02 31.964 0.113 7.2 5.13 17.54
12/29/2022 9:00:00 PM 0 32 0.113 7.21 5.22 17.53
12/29/2022 9:15:00 PM 0.02 32.036 0.113 7.2 5.18 17.53
12/29/2022 9:30:00 PM 0.03 32.054 0.113 7.18 5.06 17.53
12/29/2022 9:45:00 PM 0.04 32.072 0.113 7.2 5.53 17.53
12/29/2022 10:00:00 PM 0.05 32.09 0.113 7.19 5.18 17.51
12/29/2022 10:15:00 PM 0.06 32.108 0.113 7.2 6.02 17.51
12/29/2022 10:30:00 PM 0.06 32.108 0.113 7.2 5.7 17.51
12/29/2022 10:45:00 PM 0.07 32.126 0.113 7.18 5.31 17.51
12/29/2022 11:00:00 PM 0.07 32.126 0.113 7.2 5.85 17.5
12/29/2022 11:15:00 PM 0.07 32.126 0.113 7.18 5.84 17.5
12/29/2022 11:30:00 PM 0.07 32.126 0.113 7.21 6.03 17.5
12/29/2022 11:45:00 PM 0.07 32.126 0.113 7.2 5.66 17.51
12/30/2022 12:00:00 AM 0.07 32.126 0.113 7.2 6 17.51
12/30/2022 12:15:00 AM 0.08 32.144 0.113 7.2 5.88 17.49
12/30/2022 12:30:00 AM 0.08 32.144 0.114 7.21 6.43 17.5
12/30/2022 12:45:00 AM 0.09 32.162 0.113 7.21 6.28 17.49
12/30/2022 1:00:00 AM 0.09 32.162 0.114 7.19 6.43 17.49
12/30/2022 1:15:00 AM 0.09 32.162 0.114 7.21 6.16 17.48
12/30/2022 1:30:00 AM 0.09 32.162 0.114 7.2 6.69 17.48
12/30/2022 1:45:00 AM 0.09 32.162 0.114 7.2 6.99 17.5
12/30/2022 2:00:00 AM 0.09 32.162 0.114 7.2 6.12 17.48
12/30/2022 2:15:00 AM 0.08 32.144 0.114 7.2 6.65 17.48
12/30/2022 2:30:00 AM 0.07 32.126 0.114 7.2 6.18 17.49
12/30/2022 2:45:00 AM 0.06 32.108 0.114 7.19 6.04 17.49
12/30/2022 3:00:00 AM 0.07 32.126 0.114 7.21 6.37 17.5
12/30/2022 3:15:00 AM 0.08 32.144 0.114 7.21 6.12 17.49
12/30/2022 3:30:00 AM 0.09 32.162 0.114 7.21 5.93 17.49
12/30/2022 3:45:00 AM 0.09 32.162 0.114 7.19 6.27 17.48
12/30/2022 4:00:00 AM 0.08 32.144 0.114 7.2 6.13 17.47
12/30/2022 4:15:00 AM 0.08 32.144 0.114 7.21 6 17.49
12/30/2022 4:30:00 AM 0.08 32.144 0.114 7.2 6.16 17.48
12/30/2022 4:45:00 AM 0.09 32.162 0.114 7.21 6.34 17.49
12/30/2022 5:00:00 AM 0.1 32.18 0.114 7.2 5.76 17.47
12/30/2022 5:15:00 AM 0.11 32.198 0.114 7.21 5.66 17.47
12/30/2022 5:30:00 AM 0.12 32.216 0.114 7.18 5.82 17.47
12/30/2022 5:45:00 AM 0.12 32.216 0.114 7.2 6.17 17.47
12/30/2022 6:00:00 AM 0.11 32.198 0.114 7.2 6.37 17.47
12/30/2022 6:15:00 AM 0.11 32.198 0.114 7.2 6.39 17.47
12/30/2022 6:30:00 AM 0.11 32.198 0.114 7.2 6.31 17.46
12/30/2022 6:45:00 AM 0.12 32.216 0.114 7.2 5.83 17.46
12/30/2022 7:00:00 AM 0.13 32.234 0.114 7.2 6.02 17.46
12/30/2022 7:15:00 AM 0.13 32.234 0.114 7.2 6.05 17.47
12/30/2022 7:30:00 AM 0.14 32.252 0.114 7.2 6.07 17.46
12/30/2022 7:45:00 AM 0.15 32.27 0.114 7.2 6.71 17.47
12/30/2022 8:00:00 AM 0.16 32.288 0.114 7.2 6.23 17.46
12/30/2022 8:15:00 AM 0.17 32.306 0.114 7.19 5.53 17.46
12/30/2022 8:30:00 AM 0.19 32.342 0.114 7.21 5.83 17.47
12/30/2022 8:45:00 AM 0.2 32.36 0.114 7.21 5.81 17.47
12/30/2022 9:00:00 AM 0.23 32.414 0.114 7.21 5.77 17.47
12/30/2022 9:15:00 AM 0.26 32.468 0.114 7.21 6.03 17.48
12/30/2022 9:30:00 AM 0.3 32.54 0.114 7.21 5.88 17.48
12/30/2022 9:45:00 AM 0.34 32.612 0.114 7.21 5.76 17.48
12/30/2022 10:00:00 AM 0.37 32.666 0.114 7.22 6.04 17.48
12/30/2022 10:15:00 AM 0.4 32.72 0.114 7.22 5.78 17.47
12/30/2022 10:30:00 AM 0.44 32.792 0.114 7.23 5.72 17.47
12/30/2022 10:45:00 AM 0.48 32.864 0.114 7.23 5.78 17.45
12/30/2022 11:00:00 AM 0.52 32.936 0.114 7.23 6.07 17.44
12/30/2022 11:15:00 AM 0.56 33.008 0.114 7.24 6.18 17.43
12/30/2022 11:30:00 AM 0.59 33.062 0.114 7.24 6.5 17.41
12/30/2022 11:45:00 AM 0.61 33.098 0.114 7.23 5.82 17.4
12/30/2022 12:00:00 PM 0.63 33.134 0.114 7.23 6.3 17.38
12/30/2022 12:15:00 PM 0.64 33.152 0.114 7.25 6.15 17.37
12/30/2022 12:30:00 PM 0.65 33.17 0.114 7.24 6.45 17.36
12/30/2022 12:45:00 PM 0.67 33.206 0.114 7.25 6 17.34
12/30/2022 1:00:00 PM 0.67 33.206 0.114 7.25 5.77 17.34
12/30/2022 1:15:00 PM 0.68 33.224 0.114 7.22 5.94 17.32
12/30/2022 1:30:00 PM 0.7 33.26 0.114 7.25 5.71 17.32
12/30/2022 1:45:00 PM 0.72 33.296 0.114 7.24 5.92 17.3
12/30/2022 2:00:00 PM 0.74 33.332 0.114 7.25 5.28 17.29
12/30/2022 2:15:00 PM 0.76 33.368 0.114 7.25 5.66 17.28
12/30/2022 2:30:00 PM 0.77 33.386 0.114 7.26 5.51 17.26
12/30/2022 2:45:00 PM 0.78 33.404 0.114 7.25 6.23 17.25
12/30/2022 3:00:00 PM 0.78 33.404 0.114 7.26 5.45 17.24
12/30/2022 3:15:00 PM 0.78 33.404 0.114 7.25 5.71 17.24
12/30/2022 3:30:00 PM 0.79 33.422 0.114 7.26 5.53 17.24
12/30/2022 3:45:00 PM 0.78 33.404 0.114 7.25 5.97 17.23
12/30/2022 4:00:00 PM 0.77 33.386 0.114 7.26 5.93 17.22
12/30/2022 4:15:00 PM 0.76 33.368 0.114 7.25 6.03 17.21
12/30/2022 4:30:00 PM 0.74 33.332 0.114 7.25 5.95 17.21
12/30/2022 4:45:00 PM 0.72 33.296 0.114 7.25 6.22 17.2
12/30/2022 5:00:00 PM 0.69 33.242 0.114 7.25 6.51 17.2
12/30/2022 5:15:00 PM 0.68 33.224 0.114 7.24 6.46 17.2
12/30/2022 5:30:00 PM 0.67 33.206 0.114 7.24 6.18 17.2
12/30/2022 5:45:00 PM 0.65 33.17 0.114 7.24 6.42 17.2
12/30/2022 6:00:00 PM 0.63 33.134 0.115 7.23 6.78 17.2
12/30/2022 6:15:00 PM 0.61 33.098 0.115 7.23 7.38 17.21
12/30/2022 6:30:00 PM 0.58 33.044 0.115 7.22 7.16 17.22
12/30/2022 6:45:00 PM 0.57 33.026 0.115 7.24 6.96 17.23
12/30/2022 7:00:00 PM 0.55 32.99 0.115 7.23 7.12 17.24
12/30/2022 7:15:00 PM 0.53 32.954 0.115 7.23 7.85 17.25
12/30/2022 7:30:00 PM 0.51 32.918 0.115 7.22 7.84 17.25
12/30/2022 7:45:00 PM 0.5 32.9 0.115 7.23 7.73 17.27
12/30/2022 8:00:00 PM 0.49 32.882 0.115 7.23 8.14 17.27
12/30/2022 8:15:00 PM 0.47 32.846 0.115 7.23 8.32 17.29
12/30/2022 8:30:00 PM 0.46 32.828 0.115 7.23 7.52 17.29
12/30/2022 8:45:00 PM 0.44 32.792 0.114 7.22 7.94 17.29
12/30/2022 9:00:00 PM 0.42 32.756 0.114 7.23 7.44 17.31
12/30/2022 9:15:00 PM 0.41 32.738 0.114 7.22 7.95 17.31
12/30/2022 9:30:00 PM 0.4 32.72 0.114 7.22 8.11 17.32
12/30/2022 9:45:00 PM 0.39 32.702 0.114 7.22 8.16 17.32
12/30/2022 10:00:00 PM 0.38 32.684 0.114 7.22 8.51 17.33
12/30/2022 10:15:00 PM 0.37 32.666 0.114 7.23 7.67 17.33
12/30/2022 10:30:00 PM 0.36 32.648 0.114 7.22 7.67 17.34
12/30/2022 10:45:00 PM 0.35 32.63 0.114 7.22 7.68 17.35
12/30/2022 11:00:00 PM 0.34 32.612 0.114 7.22 7.21 17.35
12/30/2022 11:15:00 PM 0.33 32.594 0.114 7.22 7.88 17.36
12/30/2022 11:30:00 PM 0.33 32.594 0.115 7.21 7.41 17.35
12/30/2022 11:45:00 PM 0.32 32.576 0.115 7.21 7.84 17.36
12/31/2022 12:00:00 AM 0.32 32.576 0.115 7.22 7.49 17.35
12/31/2022 12:15:00 AM 0.32 32.576 0.115 7.22 7.24 17.36
12/31/2022 12:30:00 AM 0.32 32.576 0.115 7.22 7.63 17.36
12/31/2022 12:45:00 AM 0.31 32.558 0.115 7.22 7.47 17.36
12/31/2022 1:00:00 AM 0.31 32.558 0.115 7.22 7.9 17.36
12/31/2022 1:15:00 AM 0.3 32.54 0.115 7.21 7.74 17.36
12/31/2022 1:30:00 AM 0.3 32.54 0.114 7.22 7.79 17.36
12/31/2022 1:45:00 AM 0.3 32.54 0.114 7.21 7.86 17.36
12/31/2022 2:00:00 AM 0.29 32.522 0.114 7.22 7.89 17.37
12/31/2022 2:15:00 AM 0.29 32.522 0.114 7.2 7.25 17.36
12/31/2022 2:30:00 AM 0.29 32.522 0.114 7.22 7.47 17.36
12/31/2022 2:45:00 AM 0.29 32.522 0.114 7.21 7.54 17.36
12/31/2022 3:00:00 AM 0.29 32.522 0.114 7.22 7.33 17.36
12/31/2022 3:15:00 AM 0.29 32.522 0.114 7.21 7.65 17.35
12/31/2022 3:30:00 AM 0.29 32.522 0.114 7.22 7.66 17.36
12/31/2022 3:45:00 AM 0.29 32.522 0.114 7.22 7.68 17.36
12/31/2022 4:00:00 AM 0.28 32.504 0.114 7.22 7.45 17.35
12/31/2022 4:15:00 AM 0.28 32.504 0.114 7.22 7.23 17.36
12/31/2022 4:30:00 AM 0.27 32.486 0.114 7.21 7.18 17.36
12/31/2022 4:45:00 AM 0.28 32.504 0.114 7.21 7.23 17.35
12/31/2022 5:00:00 AM 0.3 32.54 0.114 7.21 7.6 17.35
12/31/2022 5:15:00 AM 0.31 32.558 0.113 7.21 7.76 17.34
12/31/2022 5:30:00 AM 0.32 32.576 0.113 7.21 7.79 17.34
12/31/2022 5:45:00 AM 0.33 32.594 0.113 7.2 7.53 17.34
12/31/2022 6:00:00 AM 0.33 32.594 0.113 7.21 8.02 17.33
12/31/2022 6:15:00 AM 0.35 32.63 0.113 7.21 7.68 17.33
12/31/2022 6:30:00 AM 0.36 32.648 0.113 7.21 7.75 17.31
12/31/2022 6:45:00 AM 0.37 32.666 0.112 7.21 7.95 17.32
12/31/2022 7:00:00 AM 0.37 32.666 0.112 7.21 7.95 17.3
12/31/2022 7:15:00 AM 0.39 32.702 0.112 7.19 7.82 17.3
12/31/2022 7:30:00 AM 0.39 32.702 0.112 7.2 7.45 17.3
12/31/2022 7:45:00 AM 0.41 32.738 0.112 7.2 7.82 17.29
12/31/2022 8:00:00 AM 0.42 32.756 0.112 7.21 7.9 17.28
12/31/2022 8:15:00 AM 0.44 32.792 0.112 7.19 8.02 17.27
12/31/2022 8:30:00 AM 0.45 32.81 0.112 7.21 7.64 17.27
12/31/2022 8:45:00 AM 0.47 32.846 0.112 7.21 7.37 17.27
12/31/2022 9:00:00 AM 0.49 32.882 0.112 7.18 7.81 17.26
12/31/2022 9:15:00 AM 0.51 32.918 0.112 7.21 7.56 17.26
12/31/2022 9:30:00 AM 0.53 32.954 0.112 7.19 7.9 17.25
12/31/2022 9:45:00 AM 0.55 32.99 0.112 7.21 7.71 17.24
12/31/2022 10:00:00 AM 0.58 33.044 0.111 7.22 7.98 17.25
12/31/2022 10:15:00 AM 0.61 33.098 0.111 7.21 7.23 17.24
12/31/2022 10:30:00 AM 0.64 33.152 0.111 7.21 7.65 17.24
12/31/2022 10:45:00 AM 0.69 33.242 0.111 7.22 7.42 17.23
12/31/2022 11:00:00 AM 0.74 33.332 0.112 7.22 7.39 17.21
12/31/2022 11:15:00 AM 0.79 33.422 0.112 7.22 7.4 17.21
12/31/2022 11:30:00 AM 0.82 33.476 0.112 7.22 7.49 17.19
12/31/2022 11:45:00 AM 0.86 33.548 0.112 7.22 7.26 17.17
12/31/2022 12:00:00 PM 0.91 33.638 0.112 7.23 7.55 17.16
12/31/2022 12:15:00 PM 0.94 33.692 0.112 7.23 7.77 17.15
12/31/2022 12:30:00 PM 0.98 33.764 0.112 7.23 7.55 17.13
12/31/2022 12:45:00 PM 1.01 33.818 0.112 7.24 7.58 17.11
12/31/2022 1:00:00 PM 1.04 33.872 0.112 7.24 7.77 17.09
12/31/2022 1:15:00 PM 1.08 33.944 0.112 7.24 7.64 17.07
12/31/2022 1:30:00 PM 1.12 34.016 0.112 7.24 7.44 17.06
12/31/2022 1:45:00 PM 1.15 34.07 0.112 7.24 7.92 17.03
12/31/2022 2:00:00 PM 1.19 34.142 0.113 7.24 7.74 17.02
12/31/2022 2:15:00 PM 1.22 34.196 0.113 7.25 7.87 17
12/31/2022 2:30:00 PM 1.24 34.232 0.113 7.25 7.59 16.98
12/31/2022 2:45:00 PM 1.25 34.25 0.113 7.25 7.79 16.96
12/31/2022 3:00:00 PM 1.26 34.268 0.113 7.25 7.06 16.95
12/31/2022 3:15:00 PM 1.28 34.304 0.113 7.25 7.6 16.94
12/31/2022 3:30:00 PM 1.31 34.358 0.113 7.25 7.64 16.92
12/31/2022 3:45:00 PM 1.32 34.376 0.113 7.25 7.76 16.9
12/31/2022 4:00:00 PM 1.31 34.358 0.113 7.23 7.76 16.89
12/31/2022 4:15:00 PM 1.31 34.358 0.113 7.25 7.97 16.87
12/31/2022 4:30:00 PM 1.31 34.358 0.113 7.25 8.34 16.85
12/31/2022 4:45:00 PM 1.31 34.358 0.113 7.24 7.97 16.84
12/31/2022 5:00:00 PM 1.32 34.376 0.113 7.24 7.67 16.83
12/31/2022 5:15:00 PM 1.31 34.358 0.113 7.24 7.91 16.82
12/31/2022 5:30:00 PM 1.31 34.358 0.112 7.23 7.98 16.82
12/31/2022 5:45:00 PM 1.3 34.34 0.112 7.23 7.98 16.81
12/31/2022 6:00:00 PM 1.29 34.322 0.112 7.21 8.28 16.81
12/31/2022 6:15:00 PM 1.28 34.304 0.112 7.23 8.6 16.81
12/31/2022 6:30:00 PM 1.27 34.286 0.112 7.22 8.15 16.8
12/31/2022 6:45:00 PM 1.26 34.268 0.112 7.22 8.09 16.8
12/31/2022 7:00:00 PM 1.25 34.25 0.112 7.2 8.8 16.8
12/31/2022 7:15:00 PM 1.25 34.25 0.112 7.22 8.54 16.8
12/31/2022 7:30:00 PM 1.24 34.232 0.112 7.21 7.93 16.79
12/31/2022 7:45:00 PM 1.24 34.232 0.112 7.21 8.63 16.79
12/31/2022 8:00:00 PM 1.24 34.232 0.112 7.21 8.87 16.79
12/31/2022 8:15:00 PM 1.23 34.214 0.112 7.21 8.51 16.79
12/31/2022 8:30:00 PM 1.23 34.214 0.112 7.2 7.93 16.79
12/31/2022 8:45:00 PM 1.23 34.214 0.112 7.21 8.61 16.79
12/31/2022 9:00:00 PM 1.23 34.214 0.112 7.21 8.63 16.79
12/31/2022 9:15:00 PM 1.22 34.196 0.112 7.18 8.03 16.79
12/31/2022 9:30:00 PM 1.22 34.196 0.112 7.21 8.35 16.78
12/31/2022 9:45:00 PM 1.23 34.214 0.112 7.18 8.07 16.78
12/31/2022 10:00:00 PM 1.23 34.214 0.112 7.2 8.44 16.78
12/31/2022 10:15:00 PM 1.23 34.214 0.113 7.2 8.76 16.77
12/31/2022 10:30:00 PM 1.22 34.196 0.113 7.2 8.75 16.77
12/31/2022 10:45:00 PM 1.23 34.214 0.114 7.19 8.2 16.78
12/31/2022 11:00:00 PM 1.22 34.196 0.114 7.19 9.23 16.77
12/31/2022 11:15:00 PM 1.22 34.196 0.114 7.2 9.28 16.77
12/31/2022 11:30:00 PM 1.22 34.196 0.114 7.18 9.28 16.76
12/31/2022 11:45:00 PM 1.21 34.178 0.114 7.19 9.47 16.77
1/1/2023 12:00:00 AM 1.2 34.16 0.114 7.19 9.16 16.77
1/1/2023 12:15:00 AM 1.19 34.142 0.114 7.19 10.19 16.77
1/1/2023 12:30:00 AM 1.18 34.124 0.114 7.19 9.46 16.78
1/1/2023 12:45:00 AM 1.16 34.088 0.114 7.19 9.55 16.78
1/1/2023 1:00:00 AM 1.13 34.034 0.114 7.19 9.51 16.79
1/1/2023 1:15:00 AM 1.1 33.98 0.113 7.18 9.72 16.79
1/1/2023 1:30:00 AM 1.09 33.962 0.113 7.19 10.03 16.8
1/1/2023 1:45:00 AM 1.09 33.962 0.113 7.18 10.34 16.8
1/1/2023 2:00:00 AM 1.08 33.944 0.113 7.18 10.28 16.81
1/1/2023 2:15:00 AM 1.07 33.926 0.113 7.17 10.61 16.81
1/1/2023 2:30:00 AM 1.06 33.908 0.113 7.17 11.39 16.81
1/1/2023 2:45:00 AM 1.05 33.89 0.113 7.17 11.2 16.82
1/1/2023 3:00:00 AM 1.04 33.872 0.113 7.18 10.84 16.83
1/1/2023 3:15:00 AM 1.04 33.872 0.113 7.17 11.64 16.84
1/1/2023 3:30:00 AM 1.03 33.854 0.113 7.18 11.45 16.84
1/1/2023 3:45:00 AM 1.02 33.836 0.113 7.17 11.85 16.85
1/1/2023 4:00:00 AM 1.01 33.818 0.113 7.18 11.37 16.85
1/1/2023 4:15:00 AM 1 33.8 0.113 7.16 11.31 16.86
1/1/2023 4:30:00 AM 0.99 33.782 0.113 7.18 11.3 16.86
1/1/2023 4:45:00 AM 0.98 33.764 0.113 7.16 11.42 16.87
1/1/2023 5:00:00 AM 0.97 33.746 0.113 7.17 11.56 16.88
1/1/2023 5:15:00 AM 0.96 33.728 0.113 7.18 12.24 16.88
1/1/2023 5:30:00 AM 0.96 33.728 0.113 7.17 11.7 16.89
1/1/2023 5:45:00 AM 0.97 33.746 0.113 7.18 11.4 16.89
1/1/2023 6:00:00 AM 0.96 33.728 0.113 7.18 12.08 16.9
1/1/2023 6:15:00 AM 0.97 33.746 0.113 7.17 11.99 16.9
1/1/2023 6:30:00 AM 0.97 33.746 0.113 7.18 12.34 16.9
1/1/2023 6:45:00 AM 0.98 33.764 0.113 7.18 12.75 16.9
1/1/2023 7:00:00 AM 0.99 33.782 0.113 7.18 12.19 16.91
1/1/2023 7:15:00 AM 1 33.8 0.113 7.17 12.23 16.91
1/1/2023 7:30:00 AM 1.01 33.818 0.113 7.16 13.18 16.91
1/1/2023 7:45:00 AM 1.02 33.836 0.113 7.17 12.4 16.91
1/1/2023 8:00:00 AM 1.03 33.854 0.113 7.18 12.48 16.91
1/1/2023 8:15:00 AM 1.04 33.872 0.113 7.17 13.25 16.92
1/1/2023 8:30:00 AM 1.06 33.908 0.113 7.18 13.17 16.92
1/1/2023 8:45:00 AM 1.09 33.962 0.113 7.17 12.82 16.93
1/1/2023 9:00:00 AM 1.12 34.016 0.113 7.18 12.81 16.94
1/1/2023 9:15:00 AM 1.16 34.088 0.113 7.18 13.27 16.93
1/1/2023 9:30:00 AM 1.19 34.142 0.113 7.19 13.08 16.93
1/1/2023 9:45:00 AM 1.23 34.214 0.113 7.2 12.84 16.94
1/1/2023 10:00:00 AM 1.26 34.268 0.113 7.21 13.24 16.93
1/1/2023 10:15:00 AM 1.29 34.322 0.113 7.21 12.5 16.93
1/1/2023 10:30:00 AM 1.32 34.376 0.112 7.19 12.96 16.92
1/1/2023 10:45:00 AM 1.37 34.466 0.112 7.21 13.12 16.91
1/1/2023 11:00:00 AM 1.43 34.574 0.112 7.21 13.11 16.91
1/1/2023 11:15:00 AM 1.5 34.7 0.112 7.2 13.97 16.88
1/1/2023 11:30:00 AM 1.58 34.844 0.111 7.22 13 16.86
1/1/2023 11:45:00 AM 1.64 34.952 0.111 7.23 13.54 16.84
1/1/2023 12:00:00 PM 1.68 35.024 0.111 7.22 12.72 16.82
1/1/2023 12:15:00 PM 1.74 35.132 0.11 7.24 13.01 16.79
1/1/2023 12:30:00 PM 1.82 35.276 0.11 7.21 12.87 16.77
1/1/2023 12:45:00 PM 1.87 35.366 0.11 7.23 12.62 16.75
1/1/2023 1:00:00 PM 1.93 35.474 0.109 7.23 12.39 16.73
1/1/2023 1:15:00 PM 2.02 35.636 0.109 7.22 12.58 16.7
1/1/2023 1:30:00 PM 2.1 35.78 0.109 7.24 12.34 16.68
1/1/2023 1:45:00 PM 2.14 35.852 0.109 7.24 13.36 16.66
1/1/2023 2:00:00 PM 2.19 35.942 0.109 7.25 12.57 16.64
1/1/2023 2:15:00 PM 2.23 36.014 0.109 7.24 13.28 16.62
1/1/2023 2:30:00 PM 2.28 36.104 0.108 7.25 12.15 16.59
1/1/2023 2:45:00 PM 2.32 36.176 0.108 7.25 12.48 16.57
1/1/2023 3:00:00 PM 2.35 36.23 0.108 7.25 12.93 16.54
1/1/2023 3:15:00 PM 2.37 36.266 0.108 7.24 11.76 16.52
1/1/2023 3:30:00 PM 2.38 36.284 0.109 7.25 11.99 16.5
1/1/2023 3:45:00 PM 2.4 36.32 0.109 7.24 12.7 16.48
1/1/2023 4:00:00 PM 2.42 36.356 0.109 7.23 11.93 16.47
1/1/2023 4:15:00 PM 2.43 36.374 0.109 7.22 12.23 16.45
1/1/2023 4:30:00 PM 2.4 36.32 0.109 7.23 11.98 16.45
1/1/2023 4:45:00 PM 2.39 36.302 0.109 7.23 12.32 16.44
1/1/2023 5:00:00 PM 2.38 36.284 0.109 7.23 11.9 16.43
1/1/2023 5:15:00 PM 2.38 36.284 0.109 7.22 12.04 16.43
1/1/2023 5:30:00 PM 2.38 36.284 0.109 7.22 11.93 16.42
1/1/2023 5:45:00 PM 2.37 36.266 0.109 7.22 11.15 16.42
1/1/2023 6:00:00 PM 2.35 36.23 0.109 7.21 11.9 16.42
1/1/2023 6:15:00 PM 2.31 36.158 0.109 7.21 12.13 16.43
1/1/2023 6:30:00 PM 2.29 36.122 0.109 7.21 11.29 16.44
1/1/2023 6:45:00 PM 2.28 36.104 0.109 7.21 11.05 16.44
1/1/2023 7:00:00 PM 2.27 36.086 0.109 7.21 11.29 16.45
1/1/2023 7:15:00 PM 2.26 36.068 0.109 7.2 11.31 16.45
1/1/2023 7:30:00 PM 2.25 36.05 0.109 7.19 11.31 16.45
1/1/2023 7:45:00 PM 2.24 36.032 0.109 7.2 11.14 16.46
1/1/2023 8:00:00 PM 2.23 36.014 0.109 7.2 11.24 16.46
1/1/2023 8:15:00 PM 2.22 35.996 0.109 7.19 10.97 16.47
1/1/2023 8:30:00 PM 2.21 35.978 0.109 7.19 11.61 16.47
1/1/2023 8:45:00 PM 2.2 35.96 0.109 7.19 10.89 16.47
1/1/2023 9:00:00 PM 2.18 35.924 0.109 7.19 10.4 16.48
1/1/2023 9:15:00 PM 2.17 35.906 0.109 7.18 10.43 16.48
1/1/2023 9:30:00 PM 2.16 35.888 0.109 7.19 10.74 16.48
1/1/2023 9:45:00 PM 2.15 35.87 0.109 7.15 10.72 16.49
1/1/2023 10:00:00 PM 2.15 35.87 0.109 7.18 11.03 16.49
1/1/2023 10:15:00 PM 2.14 35.852 0.109 7.18 10.1 16.49
1/1/2023 10:30:00 PM 2.14 35.852 0.109 7.17 10.38 16.5
1/1/2023 10:45:00 PM 2.13 35.834 0.109 7.18 10.58 16.5
1/1/2023 11:00:00 PM 2.13 35.834 0.109 7.15 10.05 16.49
1/1/2023 11:15:00 PM 2.13 35.834 0.109 7.17 9.91 16.49
1/1/2023 11:30:00 PM 2.13 35.834 0.109 7.15 9.69 16.5
1/1/2023 11:45:00 PM 2.13 35.834 0.109 7.18 9.92 16.5
1/2/2023 12:00:00 AM 2.13 35.834 0.109 7.17 9.44 16.49
1/2/2023 12:15:00 AM 2.14 35.852 0.109 7.17 8.99 16.49
1/2/2023 12:30:00 AM 2.14 35.852 0.109 7.14 9.49 16.49
1/2/2023 12:45:00 AM 2.14 35.852 0.109 7.17 9.19 16.48
1/2/2023 1:00:00 AM 2.15 35.87 0.109 7.17 9.57 16.48
1/2/2023 1:15:00 AM 2.15 35.87 0.109 7.17 9.49 16.48
1/2/2023 1:30:00 AM 2.15 35.87 0.109 7.14 9.62 16.47
1/2/2023 1:45:00 AM 2.14 35.852 0.109 7.16 9.78 16.47
1/2/2023 2:00:00 AM 2.13 35.834 0.109 7.16 9.04 16.48
1/2/2023 2:15:00 AM 2.12 35.816 0.109 7.17 9.96 16.48
1/2/2023 2:30:00 AM 2.13 35.834 0.109 7.17 9.12 16.48
1/2/2023 2:45:00 AM 2.13 35.834 0.109 7.17 9.34 16.48
1/2/2023 3:00:00 AM 2.13 35.834 0.109 7.17 8.75 16.48
1/2/2023 3:15:00 AM 2.13 35.834 0.109 7.16 8.79 16.48
1/2/2023 3:30:00 AM 2.14 35.852 0.109 7.17 8.75 16.48
1/2/2023 3:45:00 AM 2.15 35.87 0.108 7.15 8.47 16.48
1/2/2023 4:00:00 AM 2.15 35.87 0.108 7.17 8.84 16.48
1/2/2023 4:15:00 AM 2.16 35.888 0.108 7.16 8.38 16.48
1/2/2023 4:30:00 AM 2.16 35.888 0.108 7.16 8.4 16.48
1/2/2023 4:45:00 AM 2.17 35.906 0.108 7.16 8.31 16.48
1/2/2023 5:00:00 AM 2.17 35.906 0.108 7.16 8.16 16.47
1/2/2023 5:15:00 AM 2.18 35.924 0.108 7.17 8.45 16.47
1/2/2023 5:30:00 AM 2.19 35.942 0.108 7.16 8.2 16.47
1/2/2023 5:45:00 AM 2.2 35.96 0.108 7.16 8.02 16.46
1/2/2023 6:00:00 AM 2.21 35.978 0.108 7.16 8.31 16.47
1/2/2023 6:15:00 AM 2.22 35.996 0.108 7.16 8.25 16.47
1/2/2023 6:30:00 AM 2.23 36.014 0.108 7.16 8.24 16.46
1/2/2023 6:45:00 AM 2.23 36.014 0.108 7.16 7.97 16.47
1/2/2023 7:00:00 AM 2.24 36.032 0.108 7.16 7.83 16.46
1/2/2023 7:15:00 AM 2.24 36.032 0.108 7.16 8.15 16.47
1/2/2023 7:30:00 AM 2.24 36.032 0.108 7.15 7.8 16.46
1/2/2023 7:45:00 AM 2.24 36.032 0.108 7.14 7.66 16.47
1/2/2023 8:00:00 AM 2.24 36.032 0.108 7.16 8.17 16.47
1/2/2023 8:15:00 AM 2.25 36.05 0.108 7.16 7.87 16.48
1/2/2023 8:30:00 AM 2.26 36.068 0.108 7.14 7.7 16.49
1/2/2023 8:45:00 AM 2.28 36.104 0.108 7.17 7.49 16.5
1/2/2023 9:00:00 AM 2.28 36.104 0.108 7.17 7.84 16.5
1/2/2023 9:15:00 AM 2.29 36.122 0.108 7.16 7.29 16.51
1/2/2023 9:30:00 AM 2.3 36.14 0.108 7.17 7.28 16.51
1/2/2023 9:45:00 AM 2.32 36.176 0.108 7.17 7.58 16.52
1/2/2023 10:00:00 AM 2.35 36.23 0.108 7.18 6.93 16.52
1/2/2023 10:15:00 AM 2.4 36.32 0.108 7.17 7.12 16.53
1/2/2023 10:30:00 AM 2.45 36.41 0.108 7.19 6.74 16.51
1/2/2023 10:45:00 AM 2.5 36.5 0.108 7.18 6.99 16.51
1/2/2023 11:00:00 AM 2.53 36.554 0.108 7.2 6.82 16.49
1/2/2023 11:15:00 AM 2.58 36.644 0.108 7.2 7.04 16.48
1/2/2023 11:30:00 AM 2.64 36.752 0.108 7.2 7.08 16.46
1/2/2023 11:45:00 AM 2.69 36.842 0.108 7.21 6.92 16.44
1/2/2023 12:00:00 PM 2.75 36.95 0.108 7.21 6.97 16.43
1/2/2023 12:15:00 PM 2.83 37.094 0.108 7.22 6.72 16.41
1/2/2023 12:30:00 PM 2.9 37.22 0.108 7.22 6.35 16.38
1/2/2023 12:45:00 PM 2.98 37.364 0.108 7.22 6.81 16.36
1/2/2023 1:00:00 PM 3.06 37.508 0.108 7.22 6.35 16.33
1/2/2023 1:15:00 PM 3.12 37.616 0.108 7.23 6.21 16.31
1/2/2023 1:30:00 PM 3.18 37.724 0.108 7.24 6.58 16.29
1/2/2023 1:45:00 PM 3.22 37.796 0.108 7.24 6.4 16.27
1/2/2023 2:00:00 PM 3.23 37.814 0.108 7.23 6.63 16.25
1/2/2023 2:15:00 PM 3.27 37.886 0.108 7.24 6.31 16.24
1/2/2023 2:30:00 PM 3.32 37.976 0.108 7.23 6.06 16.21
1/2/2023 2:45:00 PM 3.37 38.066 0.108 7.24 6.32 16.19
1/2/2023 3:00:00 PM 3.43 38.174 0.108 7.24 6.36 16.16
1/2/2023 3:15:00 PM 3.48 38.264 0.108 7.21 6.1 16.13
1/2/2023 3:30:00 PM 3.52 38.336 0.108 7.24 6.4 16.11
1/2/2023 3:45:00 PM 3.56 38.408 0.108 7.21 6.06 16.08
1/2/2023 4:00:00 PM 3.6 38.48 0.108 7.23 5.91 16.05
1/2/2023 4:15:00 PM 3.62 38.516 0.108 7.24 6.17 16.03
1/2/2023 4:30:00 PM 3.63 38.534 0.108 7.24 6.1 16.01
1/2/2023 4:45:00 PM 3.64 38.552 0.108 7.22 6.2 15.99
1/2/2023 5:00:00 PM 3.64 38.552 0.108 7.22 6.33 15.97
1/2/2023 5:15:00 PM 3.65 38.57 0.108 7.2 6.16 15.96
1/2/2023 5:30:00 PM 3.65 38.57 0.108 7.22 6.13 15.95
1/2/2023 5:45:00 PM 3.64 38.552 0.108 7.21 6.7 15.94
1/2/2023 6:00:00 PM 3.64 38.552 0.108 7.2 6.22 15.94
1/2/2023 6:15:00 PM 3.63 38.534 0.108 7.21 6.29 15.93
1/2/2023 6:30:00 PM 3.62 38.516 0.108 7.2 6.7 15.94
1/2/2023 6:45:00 PM 3.61 38.498 0.108 7.2 6.6 15.94
1/2/2023 7:00:00 PM 3.59 38.462 0.108 7.19 6.46 15.94
1/2/2023 7:15:00 PM 3.58 38.444 0.108 7.18 6.48 15.95
1/2/2023 7:30:00 PM 3.56 38.408 0.108 7.18 6.36 15.95
1/2/2023 7:45:00 PM 3.55 38.39 0.108 7.19 6.23 15.95
1/2/2023 8:00:00 PM 3.54 38.372 0.108 7.18 6.53 15.95
1/2/2023 8:15:00 PM 3.53 38.354 0.108 7.19 6.21 15.96
1/2/2023 8:30:00 PM 3.53 38.354 0.108 7.18 6.47 15.95
1/2/2023 8:45:00 PM 3.52 38.336 0.108 7.17 6.41 15.95
1/2/2023 9:00:00 PM 3.5 38.3 0.108 7.18 6.59 15.96
1/2/2023 9:15:00 PM 3.49 38.282 0.108 7.18 6.5 15.97
1/2/2023 9:30:00 PM 3.48 38.264 0.108 7.17 6.58 15.97
1/2/2023 9:45:00 PM 3.46 38.228 0.108 7.17 6.09 15.97
1/2/2023 10:00:00 PM 3.45 38.21 0.108 7.17 6.28 15.97
1/2/2023 10:15:00 PM 3.44 38.192 0.108 7.16 6.68 15.98
1/2/2023 10:30:00 PM 3.42 38.156 0.108 7.16 6.07 15.98
1/2/2023 10:45:00 PM 3.41 38.138 0.108 7.16 6.27 15.99
1/2/2023 11:00:00 PM 3.39 38.102 0.108 7.16 6.27 15.99
1/2/2023 11:15:00 PM 3.38 38.084 0.108 7.15 6.33 15.99
1/2/2023 11:30:00 PM 3.36 38.048 0.108 7.15 6.25 16
1/2/2023 11:45:00 PM 3.34 38.012 0.108 7.15 6.36 16
1/3/2023 12:00:00 AM 3.32 37.976 0.108 7.15 6.16 16.01
1/3/2023 12:15:00 AM 3.31 37.958 0.108 7.13 5.95 16.01
1/3/2023 12:30:00 AM 3.31 37.958 0.108 7.16 6.36 16.01
1/3/2023 12:45:00 AM 3.31 37.958 0.108 7.15 5.76 16.01
1/3/2023 1:00:00 AM 3.31 37.958 0.108 7.15 6.11 16.01
1/3/2023 1:15:00 AM 3.31 37.958 0.108 7.14 6.06 16
1/3/2023 1:30:00 AM 3.31 37.958 0.108 7.14 5.86 16
1/3/2023 1:45:00 AM 3.31 37.958 0.108 7.15 5.6 16
1/3/2023 2:00:00 AM 3.32 37.976 0.108 7.15 5.92 15.99
1/3/2023 2:15:00 AM 3.32 37.976 0.108 7.14 5.91 15.99
1/3/2023 2:30:00 AM 3.32 37.976 0.108 7.15 5.74 15.99
1/3/2023 2:45:00 AM 3.33 37.994 0.108 7.12 5.83 15.99
1/3/2023 3:00:00 AM 3.33 37.994 0.108 7.15 5.46 15.99
1/3/2023 3:15:00 AM 3.34 38.012 0.108 7.15 5.97 15.99
1/3/2023 3:30:00 AM 3.35 38.03 0.108 7.16 5.7 15.98
1/3/2023 3:45:00 AM 3.35 38.03 0.108 7.14 6.08 15.98
1/3/2023 4:00:00 AM 3.36 38.048 0.108 7.15 5.83 15.97
1/3/2023 4:15:00 AM 3.37 38.066 0.108 7.16 5.66 15.97
1/3/2023 4:30:00 AM 3.38 38.084 0.108 7.13 5.58 15.96
1/3/2023 4:45:00 AM 3.39 38.102 0.108 7.15 5.89 15.95
1/3/2023 5:00:00 AM 3.4 38.12 0.108 7.12 5.66 15.94
1/3/2023 5:15:00 AM 3.41 38.138 0.108 7.14 5.41 15.94
1/3/2023 5:30:00 AM 3.42 38.156 0.108 7.15 5.81 15.93
1/3/2023 5:45:00 AM 3.43 38.174 0.108 7.14 6 15.92
1/3/2023 6:00:00 AM 3.44 38.192 0.108 7.15 5.6 15.92
1/3/2023 6:15:00 AM 3.45 38.21 0.108 7.15 5.76 15.91
1/3/2023 6:30:00 AM 3.46 38.228 0.108 7.14 5.54 15.9
1/3/2023 6:45:00 AM 3.47 38.246 0.108 7.15 5.7 15.89
1/3/2023 7:00:00 AM 3.48 38.264 0.108 7.15 5.86 15.88
1/3/2023 7:15:00 AM 3.49 38.282 0.108 7.16 5.47 15.88
1/3/2023 7:30:00 AM 3.5 38.3 0.108 7.13 5.74 15.87
1/3/2023 7:45:00 AM 3.52 38.336 0.108 7.15 5.85 15.86
1/3/2023 8:00:00 AM 3.53 38.354 0.108 7.14 5.57 15.86
1/3/2023 8:15:00 AM 3.55 38.39 0.108 7.16 5.57 15.85
1/3/2023 8:30:00 AM 3.56 38.408 0.108 7.16 5.84 15.85
1/3/2023 8:45:00 AM 3.58 38.444 0.108 7.16 5.74 15.85
1/3/2023 9:00:00 AM 3.6 38.48 0.108 7.16 5.23 15.85
1/3/2023 9:15:00 AM 3.62 38.516 0.108 7.16 5.14 15.84
1/3/2023 9:30:00 AM 3.63 38.534 0.108 7.16 5.3 15.84
1/3/2023 9:45:00 AM 3.65 38.57 0.108 7.17 5.62 15.84
1/3/2023 10:00:00 AM 3.65 38.57 0.106 7.07 4.06 12.93
1/3/2023 10:15:00 AM 3.69 38.642 0.105 7.08 4.33 12.92
1/3/2023 10:30:00 AM 3.72 38.696 0.106 7.06 4.23 12.91
1/3/2023 10:45:00 AM 3.74 38.732 0.106 7.06 4.13 12.9
1/3/2023 11:00:00 AM 3.77 38.786 0.106 7.05 4.29 12.89
1/3/2023 11:15:00 AM 3.8 38.84 0.106 7.06 4.38 12.88
1/3/2023 11:30:00 AM 3.83 38.894 0.106 7.06 4.57 12.88
1/3/2023 11:45:00 AM 3.85 38.93 0.106 7.06 4.58 12.87
1/3/2023 12:00:00 PM 3.88 38.984 0.107 7.07 4.76 12.85
1/3/2023 12:15:00 PM 3.92 39.056 0.107 7.07 4.84 12.84
1/3/2023 12:30:00 PM 3.96 39.128 0.107 7.08 5.22 12.84
1/3/2023 12:45:00 PM 4.01 39.218 0.107 7.09 5.79 12.81
1/3/2023 1:00:00 PM 4.03 39.254 0.107 7.09 6.31 12.81
1/3/2023 1:15:00 PM 4.04 39.272 0.108 7.09 7.31 12.79
1/3/2023 1:30:00 PM 4.04 39.272 0.108 7.09 6.84 12.78
1/3/2023 1:45:00 PM 4.05 39.29 0.108 7.09 8.04 12.76
1/3/2023 2:00:00 PM 4.06 39.308 0.109 7.09 7.72 12.76
1/3/2023 2:15:00 PM 4.07 39.326 0.108 7.09 8.16 12.74
1/3/2023 2:30:00 PM 4.07 39.326 0.109 7.09 8.43 12.74
1/3/2023 2:45:00 PM 4.08 39.344 0.109 7.09 9.4 12.73
1/3/2023 3:00:00 PM 4.08 39.344 0.11 7.09 10.67 12.73
1/3/2023 3:15:00 PM 4.09 39.362 0.11 7.09 11.17 12.72
1/3/2023 3:30:00 PM 4.1 39.38 0.109 7.09 10.65 12.71
1/3/2023 3:45:00 PM 4.1 39.38 0.109 7.09 12.24 12.7
1/3/2023 4:00:00 PM 4.11 39.398 0.109 7.08 11.63 12.69
1/3/2023 4:15:00 PM 4.11 39.398 0.109 7.09 12.82 12.69
1/3/2023 4:30:00 PM 4.11 39.398 0.109 7.08 12.82 12.67
1/3/2023 4:45:00 PM 4.11 39.398 0.108 7.08 13.59 12.67
1/3/2023 5:00:00 PM 4.11 39.398 0.108 7.08 13.98 12.67
1/3/2023 5:15:00 PM 4.1 39.38 0.108 7.07 14.25 12.66
1/3/2023 5:30:00 PM 4.1 39.38 0.109 7.07 13.49 12.66
1/3/2023 5:45:00 PM 4.09 39.362 0.107 7.07 14.07 12.65
1/3/2023 6:00:00 PM 4.09 39.362 0.109 7.07 14.23 12.65
1/3/2023 6:15:00 PM 4.08 39.344 0.107 7.07 14.58 12.65
1/3/2023 6:30:00 PM 4.07 39.326 0.107 7.07 15.02 12.65
1/3/2023 6:45:00 PM 4.06 39.308 0.108 7.07 15.54 12.66
1/3/2023 7:00:00 PM 4.05 39.29 0.107 7.06 15.89 12.65
1/3/2023 7:15:00 PM 4.04 39.272 0.108 7.06 16.83 12.66
1/3/2023 7:30:00 PM 4.03 39.254 0.108 7.06 17.82 12.66
1/3/2023 7:45:00 PM 4.02 39.236 0.109 7.06 19.03 12.66
1/3/2023 8:00:00 PM 4 39.2 0.108 7.05 19.92 12.66
1/3/2023 8:15:00 PM 3.98 39.164 0.109 7.06 21.09 12.67
1/3/2023 8:30:00 PM 3.96 39.128 0.109 7.05 22.27 12.67
1/3/2023 8:45:00 PM 3.94 39.092 0.109 7.05 21.93 12.68
1/3/2023 9:00:00 PM 3.91 39.038 0.108 7.04 26.83 12.69
1/3/2023 9:15:00 PM 3.9 39.02 0.109 7.04 22.15 12.7
1/3/2023 9:30:00 PM 3.87 38.966 0.108 7.05 23.41 12.7
1/3/2023 9:45:00 PM 3.86 38.948 0.107 7.03 23.41 12.71
1/3/2023 10:00:00 PM 3.84 38.912 0.107 7.03 22.64 12.71
1/3/2023 10:15:00 PM 3.83 38.894 0.106 7.02 22.11 12.72
1/3/2023 10:30:00 PM 3.82 38.876 0.106 7.03 21.46 12.72
1/3/2023 10:45:00 PM 3.82 38.876 0.107 7.03 22.24 12.71
1/3/2023 11:00:00 PM 3.81 38.858 0.106 7.02 23.48 12.72
1/3/2023 11:15:00 PM 3.8 38.84 0.106 7.02 22.82 12.72
1/3/2023 11:30:00 PM 3.8 38.84 0.106 7.01 22.95 12.72
1/3/2023 11:45:00 PM 3.79 38.822 0.106 7.01 25.11 12.72
1/4/2023 12:00:00 AM 3.79 38.822 0.106 7.01 25.09 12.73
1/4/2023 12:15:00 AM 3.78 38.804 0.105 7.01 24.61 12.73
1/4/2023 12:30:00 AM 3.78 38.804 0.105 7.01 23.45 12.73
1/4/2023 12:45:00 AM 3.78 38.804 0.105 7.01 26.03 12.73
1/4/2023 1:00:00 AM 3.77 38.786 0.104 7 26.28 12.73
1/4/2023 1:15:00 AM 3.77 38.786 0.104 7 24.81 12.72
1/4/2023 1:30:00 AM 3.78 38.804 0.103 7 25.7 12.73
1/4/2023 1:45:00 AM 3.78 38.804 0.103 7 25.66 12.73
1/4/2023 2:00:00 AM 3.79 38.822 0.103 7 26.42 12.72
1/4/2023 2:15:00 AM 3.8 38.84 0.104 6.99 26.71 12.73
1/4/2023 2:30:00 AM 3.8 38.84 0.103 6.99 26.14 12.73
1/4/2023 2:45:00 AM 3.8 38.84 0.103 6.99 28.92 12.73
1/4/2023 3:00:00 AM 3.79 38.822 0.103 6.99 26.31 12.73
1/4/2023 3:15:00 AM 3.79 38.822 0.104 6.99 28.09 12.73
1/4/2023 3:30:00 AM 3.8 38.84 0.104 6.98 27.96 12.73
1/4/2023 3:45:00 AM 3.8 38.84 0.104 6.98 28.39 12.72
1/4/2023 4:00:00 AM 3.81 38.858 0.105 6.98 29.15 12.72
1/4/2023 4:15:00 AM 3.81 38.858 0.105 6.98 29.86 12.72
1/4/2023 4:30:00 AM 3.81 38.858 0.104 6.98 28.98 12.73
1/4/2023 4:45:00 AM 3.81 38.858 0.105 6.98 29.9 12.73
1/4/2023 5:00:00 AM 3.81 38.858 0.104 6.98 30.86 12.71
1/4/2023 5:15:00 AM 3.81 38.858 0.104 6.98 30.48 12.72
1/4/2023 5:30:00 AM 3.8 38.84 0.103 6.98 30.15 12.72
1/4/2023 5:45:00 AM 3.78 38.804 0.103 6.97 31.29 12.73
1/4/2023 6:00:00 AM 3.76 38.768 0.103 6.96 28.18 12.74
1/4/2023 6:15:00 AM 3.74 38.732 0.102 6.97 28.36 12.75
1/4/2023 6:30:00 AM 3.71 38.678 0.101 6.96 28.85 12.75
1/4/2023 6:45:00 AM 3.68 38.624 0.1 6.96 28.99 12.77
1/4/2023 7:00:00 AM 3.64 38.552 0.101 6.96 28.44 12.78
1/4/2023 7:15:00 AM 3.61 38.498 0.1 6.96 30.8 12.8
1/4/2023 7:30:00 AM 3.58 38.444 0.1 6.96 29.74 12.8
1/4/2023 7:45:00 AM 3.55 38.39 0.1 6.96 29.31 12.82
1/4/2023 8:00:00 AM 3.54 38.372 0.1 6.95 28.88 12.82
1/4/2023 8:15:00 AM 3.53 38.354 0.099 6.96 27.33 12.83
1/4/2023 8:30:00 AM 3.52 38.336 0.099 6.95 28.47 12.84
1/4/2023 8:45:00 AM 3.52 38.336 0.099 6.96 28.93 12.84
1/4/2023 9:00:00 AM 3.52 38.336 0.099 6.96 27.71 12.85
1/4/2023 9:15:00 AM 3.53 38.354 0.099 6.96 27.57 12.86
1/4/2023 9:30:00 AM 3.54 38.372 0.098 6.96 27.87 12.85
1/4/2023 9:45:00 AM 3.56 38.408 0.099 6.96 27.25 12.86
1/4/2023 10:00:00 AM 3.58 38.444 0.099 6.96 24.4 12.86
1/4/2023 10:15:00 AM 3.61 38.498 0.098 6.97 25.59 12.86
1/4/2023 10:30:00 AM 3.64 38.552 0.099 6.97 26.24 12.85
1/4/2023 10:45:00 AM 3.67 38.606 0.099 6.97 24.96 12.85
1/4/2023 11:00:00 AM 3.71 38.678 0.098 6.97 23.69 12.84
1/4/2023 11:15:00 AM 3.75 38.75 0.099 6.98 22.07 12.83
1/4/2023 11:30:00 AM 3.8 38.84 0.099 6.98 24.09 12.82
1/4/2023 11:45:00 AM 3.86 38.948 0.099 6.99 21.63 12.81
1/4/2023 12:00:00 PM 3.92 39.056 0.099 6.99 22.34 12.8
1/4/2023 12:15:00 PM 3.97 39.146 0.099 6.99 21.4 12.78
1/4/2023 12:30:00 PM 4.02 39.236 0.099 7 22.12 12.76
1/4/2023 12:45:00 PM 4.06 39.308 0.099 7 21.55 12.75
1/4/2023 1:00:00 PM 4.09 39.362 0.099 7.01 19.55 12.73
1/4/2023 1:15:00 PM 4.14 39.452 0.099 7.01 30.46 12.72
1/4/2023 1:30:00 PM 4.2 39.56 0.098 7.02 19.4 12.7
1/4/2023 1:45:00 PM 4.25 39.65 0.099 7.02 18.24 12.68
1/4/2023 2:00:00 PM 4.3 39.74 0.099 7.03 17.96 12.67
1/4/2023 2:15:00 PM 4.34 39.812 0.099 7.03 16.35 12.65
1/4/2023 2:30:00 PM 4.38 39.884 0.099 7.04 17.27 12.64
1/4/2023 2:45:00 PM 4.43 39.974 0.099 7.03 16.93 12.62
1/4/2023 3:00:00 PM 4.47 40.046 0.099 7.04 19.09 12.61
1/4/2023 3:15:00 PM 4.5 40.1 0.099 7.04 17.25 12.59
1/4/2023 3:30:00 PM 4.52 40.136 0.099 7.04 16.07 12.57
1/4/2023 3:45:00 PM 4.55 40.19 0.099 7.04 14.73 12.55
1/4/2023 4:00:00 PM 4.57 40.226 0.099 7.04 15.93 12.53
1/4/2023 4:15:00 PM 4.6 40.28 0.099 7.04 15.87 12.51
1/4/2023 4:30:00 PM 4.62 40.316 0.099 7.04 15.35 12.5
1/4/2023 4:45:00 PM 4.63 40.334 0.099 7.04 14.43 12.48
1/4/2023 5:00:00 PM 4.64 40.352 0.099 7.04 14.09 12.47
1/4/2023 5:15:00 PM 4.66 40.388 0.1 7.04 14.22 12.46
1/4/2023 5:30:00 PM 4.67 40.406 0.099 7.03 14.37 12.45
1/4/2023 5:45:00 PM 4.68 40.424 0.099 7.03 14.28 12.44
1/4/2023 6:00:00 PM 4.7 40.46 0.099 7.03 13.45 12.43
1/4/2023 6:15:00 PM 4.71 40.478 0.099 7.04 12.85 12.42
1/4/2023 6:30:00 PM 4.73 40.514 0.1 7.03 12.7 12.41
1/4/2023 6:45:00 PM 4.76 40.568 0.099 7.04 13.04 12.4
1/4/2023 7:00:00 PM 4.77 40.586 0.1 7.04 12.47 12.4
1/4/2023 7:15:00 PM 4.78 40.604 0.1 7.04 12.44 12.39
1/4/2023 7:30:00 PM 4.78 40.604 0.1 7.04 12.25 12.38
1/4/2023 7:45:00 PM 4.78 40.604 0.1 7.04 12.29 12.38
1/4/2023 8:00:00 PM 4.79 40.622 0.1 7.04 11.48 12.37
1/4/2023 8:15:00 PM 4.8 40.64 0.1 7.04 11.92 12.37
1/4/2023 8:30:00 PM 4.82 40.676 0.1 7.04 11.87 12.36
1/4/2023 8:45:00 PM 4.83 40.694 0.1 7.04 12.13 12.36
1/4/2023 9:00:00 PM 4.84 40.712 0.101 7.04 11.47 12.35
1/4/2023 9:15:00 PM 4.86 40.748 0.1 7.04 10.89 12.35
1/4/2023 9:30:00 PM 4.88 40.784 0.1 7.04 11.07 12.34
1/4/2023 9:45:00 PM 4.9 40.82 0.101 7.05 11.32 12.34
1/4/2023 10:00:00 PM 4.92 40.856 0.101 7.04 10.46 12.33
1/4/2023 10:15:00 PM 4.94 40.892 0.101 7.04 10.6 12.32
1/4/2023 10:30:00 PM 4.95 40.91 0.101 7.04 9.94 12.32
1/4/2023 10:45:00 PM 4.98 40.964 0.101 7.04 10.49 12.32
1/4/2023 11:00:00 PM 4.99 40.982 0.101 7.05 9.7 12.31
1/4/2023 11:15:00 PM 4.99 40.982 0.101 7.04 9.97 12.3
1/4/2023 11:30:00 PM 5 41 0.101 7.04 9.37 12.3
1/4/2023 11:45:00 PM 5.02 41.036 0.101 7.04 9.53 12.29
1/5/2023 12:00:00 AM 5.03 41.054 0.102 7.04 9.23 12.29
1/5/2023 12:15:00 AM 5.04 41.072 0.101 7.04 9.21 12.29
1/5/2023 12:30:00 AM 5.04 41.072 0.102 7.04 9.25 12.28
1/5/2023 12:45:00 AM 5.05 41.09 0.102 7.04 9.19 12.28
1/5/2023 1:00:00 AM 5.06 41.108 0.101 7.04 9.33 12.28
1/5/2023 1:15:00 AM 5.06 41.108 0.102 7.04 8.59 12.27
1/5/2023 1:30:00 AM 5.07 41.126 0.102 7.04 8.83 12.27
1/5/2023 1:45:00 AM 5.08 41.144 0.102 7.04 8.54 12.27
1/5/2023 2:00:00 AM 5.08 41.144 0.102 7.04 8.49 12.27
1/5/2023 2:15:00 AM 5.07 41.126 0.102 7.04 8.31 12.27
1/5/2023 2:30:00 AM 5.06 41.108 0.102 7.04 8.38 12.28
1/5/2023 2:45:00 AM 5.06 41.108 0.102 7.04 8.56 12.28
1/5/2023 3:00:00 AM 5.05 41.09 0.102 7.05 8.27 12.28
1/5/2023 3:15:00 AM 5.05 41.09 0.103 7.05 7.81 12.29
1/5/2023 3:30:00 AM 5.05 41.09 0.102 7.05 7.71 12.29
1/5/2023 3:45:00 AM 5.05 41.09 0.102 7.04 8.54 12.3
1/5/2023 4:00:00 AM 5.03 41.054 0.102 7.05 8.51 12.3
1/5/2023 4:15:00 AM 5.02 41.036 0.103 7.04 8.21 12.31
1/5/2023 4:30:00 AM 5 41 0.103 7.05 7.96 12.31
1/5/2023 4:45:00 AM 4.99 40.982 0.103 7.05 8.04 12.32
1/5/2023 5:00:00 AM 4.97 40.946 0.102 7.05 7.81 12.32
1/5/2023 5:15:00 AM 4.95 40.91 0.102 7.05 8.06 12.33
1/5/2023 5:30:00 AM 4.93 40.874 0.102 7.05 8.12 12.34
1/5/2023 5:45:00 AM 4.91 40.838 0.102 7.05 7.58 12.34
1/5/2023 6:00:00 AM 4.89 40.802 0.102 7.05 7.7 12.35
1/5/2023 6:15:00 AM 4.87 40.766 0.102 7.05 7.66 12.36
1/5/2023 6:30:00 AM 4.85 40.73 0.102 7.05 7.55 12.37
1/5/2023 6:45:00 AM 4.83 40.694 0.103 7.06 7.68 12.38
1/5/2023 7:00:00 AM 4.8 40.64 0.102 7.06 7.79 12.39
1/5/2023 7:15:00 AM 4.78 40.604 0.102 7.06 8 12.39
1/5/2023 7:30:00 AM 4.75 40.55 0.103 7.05 7.42 12.4
1/5/2023 7:45:00 AM 4.72 40.496 0.103 7.06 7.57 12.41
1/5/2023 8:00:00 AM 4.7 40.46 0.103 7.06 7.65 12.42
1/5/2023 8:15:00 AM 4.67 40.406 0.103 7.06 7.05 12.44
1/5/2023 8:30:00 AM 4.65 40.37 0.103 7.06 7.43 12.45
1/5/2023 8:45:00 AM 4.64 40.352 0.103 7.06 7.3 12.47
1/5/2023 9:00:00 AM 4.64 40.352 0.103 7.06 6.76 12.49
1/5/2023 9:15:00 AM 4.66 40.388 0.103 7.07 7.33 12.51
1/5/2023 9:30:00 AM 4.66 40.388 0.103 7.07 6.81 12.52
1/5/2023 9:45:00 AM 4.68 40.424 0.103 7.08 6.84 12.53
1/5/2023 10:00:00 AM 4.7 40.46 0.103 7.08 6.83 12.53
1/5/2023 10:15:00 AM 4.73 40.514 0.102 7.08 6.64 12.53
1/5/2023 10:30:00 AM 4.77 40.586 0.102 7.09 7 12.53
1/5/2023 10:45:00 AM 4.79 40.622 0.102 7.09 6.78 12.53
1/5/2023 11:00:00 AM 4.83 40.694 0.102 7.11 6.8 12.53
1/5/2023 11:15:00 AM 4.87 40.766 0.102 7.11 6.75 12.52
1/5/2023 11:30:00 AM 4.91 40.838 0.102 7.11 6.9 12.52
1/5/2023 11:45:00 AM 4.98 40.964 0.103 7.12 6.76 12.5
1/5/2023 12:00:00 PM 5.03 41.054 0.103 7.12 6.55 12.49
1/5/2023 12:15:00 PM 5.07 41.126 0.103 7.12 6.46 12.48
1/5/2023 12:30:00 PM 5.14 41.252 0.103 7.13 6.36 12.47
1/5/2023 12:45:00 PM 5.19 41.342 0.103 7.13 6.31 12.45
1/5/2023 1:00:00 PM 5.25 41.45 0.103 7.14 6.27 12.44
1/5/2023 1:15:00 PM 5.3 41.54 0.103 7.14 6.25 12.42
1/5/2023 1:30:00 PM 5.34 41.612 0.102 7.15 6.31 12.4
1/5/2023 1:45:00 PM 5.38 41.684 0.102 7.14 6.3 12.39
1/5/2023 2:00:00 PM 5.42 41.756 0.102 7.14 6.5 12.37
1/5/2023 2:15:00 PM 5.45 41.81 0.102 7.15 6.4 12.36
1/5/2023 2:30:00 PM 5.49 41.882 0.102 7.15 6.37 12.33
1/5/2023 2:45:00 PM 5.53 41.954 0.102 7.15 6.36 12.32
1/5/2023 3:00:00 PM 5.58 42.044 0.103 7.15 6.49 12.3
1/5/2023 3:15:00 PM 5.61 42.098 0.103 7.15 6.51 12.28
1/5/2023 3:30:00 PM 5.63 42.134 0.103 7.15 6.48 12.27
1/5/2023 3:45:00 PM 5.64 42.152 0.103 7.15 6.69 12.25
1/5/2023 4:00:00 PM 5.65 42.17 0.103 7.15 6.46 12.24
1/5/2023 4:15:00 PM 5.66 42.188 0.103 7.14 6.73 12.22
1/5/2023 4:30:00 PM 5.67 42.206 0.102 7.14 6.55 12.21
1/5/2023 4:45:00 PM 5.66 42.188 0.103 7.13 6.37 12.2
1/5/2023 5:00:00 PM 5.65 42.17 0.102 7.13 6.7 12.19
1/5/2023 5:15:00 PM 5.63 42.134 0.103 7.13 6.78 12.19
1/5/2023 5:30:00 PM 5.62 42.116 0.103 7.12 6.8 12.19
1/5/2023 5:45:00 PM 5.6 42.08 0.103 7.12 6.65 12.19
1/5/2023 6:00:00 PM 5.57 42.026 0.102 7.12 6.45 12.19
1/5/2023 6:15:00 PM 5.53 41.954 0.103 7.12 6.68 12.19
1/5/2023 6:30:00 PM 5.49 41.882 0.103 7.11 6.74 12.2
1/5/2023 6:45:00 PM 5.44 41.792 0.103 7.12 6.3 12.22
1/5/2023 7:00:00 PM 5.39 41.702 0.102 7.11 6.47 12.22
1/5/2023 7:15:00 PM 5.34 41.612 0.103 7.11 6.37 12.24
1/5/2023 7:30:00 PM 5.29 41.522 0.103 7.11 6.56 12.25
1/5/2023 7:45:00 PM 5.25 41.45 0.103 7.11 6.76 12.26
1/5/2023 8:00:00 PM 5.21 41.378 0.103 7.1 6.24 12.28
1/5/2023 8:15:00 PM 5.17 41.306 0.103 7.1 6.38 12.29
1/5/2023 8:30:00 PM 5.14 41.252 0.103 7.1 6.6 12.3
1/5/2023 8:45:00 PM 5.1 41.18 0.103 7.1 6.72 12.31
1/5/2023 9:00:00 PM 5.07 41.126 0.103 7.1 6.55 12.32
1/5/2023 9:15:00 PM 5.04 41.072 0.103 7.09 6.88 12.32
1/5/2023 9:30:00 PM 5.01 41.018 0.103 7.1 6.55 12.33
1/5/2023 9:45:00 PM 4.99 40.982 0.103 7.09 6.4 12.34
1/5/2023 10:00:00 PM 4.96 40.928 0.103 7.09 6.72 12.35
1/5/2023 10:15:00 PM 4.93 40.874 0.103 7.09 6.55 12.36
1/5/2023 10:30:00 PM 4.9 40.82 0.103 7.09 6.39 12.37
1/5/2023 10:45:00 PM 4.88 40.784 0.103 7.09 6.38 12.39
1/5/2023 11:00:00 PM 4.85 40.73 0.103 7.09 6.34 12.39
1/5/2023 11:15:00 PM 4.81 40.658 0.103 7.09 6.67 12.4
1/5/2023 11:30:00 PM 4.79 40.622 0.103 7.09 6.4 12.41
1/5/2023 11:45:00 PM 4.76 40.568 0.103 7.09 6.3 12.43
1/6/2023 12:00:00 AM 4.74 40.532 0.103 7.09 5.98 12.43
1/6/2023 12:15:00 AM 4.72 40.496 0.103 7.09 5.97 12.44
1/6/2023 12:30:00 AM 4.7 40.46 0.103 7.09 5.73 12.44
1/6/2023 12:45:00 AM 4.68 40.424 0.103 7.08 6.02 12.45
1/6/2023 1:00:00 AM 4.66 40.388 0.104 7.08 6.27 12.45
1/6/2023 1:15:00 AM 4.64 40.352 0.104 7.08 6.19 12.46
1/6/2023 1:30:00 AM 4.63 40.334 0.104 7.08 6.14 12.46
1/6/2023 1:45:00 AM 4.61 40.298 0.104 7.08 6.1 12.47
1/6/2023 2:00:00 AM 4.59 40.262 0.104 7.08 5.71 12.47
1/6/2023 2:15:00 AM 4.57 40.226 0.104 7.08 5.77 12.48
1/6/2023 2:30:00 AM 4.55 40.19 0.104 7.08 5.87 12.48
1/6/2023 2:45:00 AM 4.53 40.154 0.104 7.08 5.82 12.49
1/6/2023 3:00:00 AM 4.52 40.136 0.104 7.08 5.99 12.49
1/6/2023 3:15:00 AM 4.51 40.118 0.104 7.08 5.48 12.5
1/6/2023 3:30:00 AM 4.5 40.1 0.104 7.08 5.83 12.5
1/6/2023 3:45:00 AM 4.49 40.082 0.104 7.08 5.47 12.5
1/6/2023 4:00:00 AM 4.48 40.064 0.104 7.08 5.78 12.5
1/6/2023 4:15:00 AM 4.46 40.028 0.104 7.08 5.37 12.51
1/6/2023 4:30:00 AM 4.46 40.028 0.104 7.08 5.43 12.51
1/6/2023 4:45:00 AM 4.45 40.01 0.104 7.08 5.13 12.51
1/6/2023 5:00:00 AM 4.44 39.992 0.104 7.08 5.36 12.51
1/6/2023 5:15:00 AM 4.43 39.974 0.104 7.08 5.51 12.52
1/6/2023 5:30:00 AM 4.42 39.956 0.104 7.08 5.54 12.52
1/6/2023 5:45:00 AM 4.4 39.92 0.104 7.08 5.54 12.52
1/6/2023 6:00:00 AM 4.39 39.902 0.104 7.08 5.42 12.53
1/6/2023 6:15:00 AM 4.38 39.884 0.104 7.08 5.63 12.53
1/6/2023 6:30:00 AM 4.37 39.866 0.104 7.08 5.55 12.54
1/6/2023 6:45:00 AM 4.35 39.83 0.104 7.08 5.47 12.54
1/6/2023 7:00:00 AM 4.34 39.812 0.104 7.07 5.52 12.54
1/6/2023 7:15:00 AM 4.33 39.794 0.104 7.08 5.44 12.55
1/6/2023 7:30:00 AM 4.32 39.776 0.104 7.08 5.34 12.56
1/6/2023 7:45:00 AM 4.32 39.776 0.104 7.08 5.06 12.56
1/6/2023 8:00:00 AM 4.32 39.776 0.104 7.08 5.16 12.57
1/6/2023 8:15:00 AM 4.32 39.776 0.104 7.08 4.93 12.58
1/6/2023 8:30:00 AM 4.33 39.794 0.104 7.08 4.98 12.59
1/6/2023 8:45:00 AM 4.34 39.812 0.104 7.09 5.08 12.6
1/6/2023 9:00:00 AM 4.35 39.83 0.104 7.09 5.15 12.61
1/6/2023 9:15:00 AM 4.36 39.848 0.104 7.09 5.05 12.62
1/6/2023 9:30:00 AM 4.38 39.884 0.104 7.1 4.89 12.63
1/6/2023 9:45:00 AM 4.41 39.938 0.104 7.11 4.76 12.64
1/6/2023 10:00:00 AM 4.43 39.974 0.104 7.11 4.81 12.64
1/6/2023 10:15:00 AM 4.46 40.028 0.104 7.11 4.88 12.65
1/6/2023 10:30:00 AM 4.47 40.046 0.104 7.12 5.02 12.65
1/6/2023 10:45:00 AM 4.47 40.046 0.104 7.12 4.94 12.64
1/6/2023 11:00:00 AM 4.49 40.082 0.104 7.13 4.85 12.64
1/6/2023 11:15:00 AM 4.5 40.1 0.104 7.12 4.89 12.64
1/6/2023 11:30:00 AM 4.52 40.136 0.104 7.13 4.9 12.63
1/6/2023 11:45:00 AM 4.54 40.172 0.104 7.13 4.83 12.64
1/6/2023 12:00:00 PM 4.57 40.226 0.104 7.13 5.08 12.63
1/6/2023 12:15:00 PM 4.6 40.28 0.104 7.14 4.94 12.63
1/6/2023 12:30:00 PM 4.63 40.334 0.104 7.15 4.79 12.63
1/6/2023 12:45:00 PM 4.66 40.388 0.104 7.15 5.06 12.64
1/6/2023 1:00:00 PM 4.66 40.388 0.104 7.15 4.98 12.62
1/6/2023 1:15:00 PM 4.65 40.37 0.104 7.15 5.01 12.62
1/6/2023 1:30:00 PM 4.65 40.37 0.104 7.15 4.58 12.62
1/6/2023 1:45:00 PM 4.66 40.388 0.104 7.16 4.52 12.62
1/6/2023 2:00:00 PM 4.69 40.442 0.104 7.16 5.28 12.63
1/6/2023 2:15:00 PM 4.71 40.478 0.104 7.16 4.56 12.62
1/6/2023 2:30:00 PM 4.72 40.496 0.104 7.16 4.51 12.62
1/6/2023 2:45:00 PM 4.73 40.514 0.104 7.17 4.58 12.62
1/6/2023 3:00:00 PM 4.74 40.532 0.104 7.17 4.79 12.61
1/6/2023 3:15:00 PM 4.74 40.532 0.104 7.17 4.7 12.61
1/6/2023 3:30:00 PM 4.73 40.514 0.104 7.17 4.85 12.6
1/6/2023 3:45:00 PM 4.72 40.496 0.104 7.17 4.56 12.6
1/6/2023 4:00:00 PM 4.7 40.46 0.104 7.17 4.52 12.6
1/6/2023 4:15:00 PM 4.67 40.406 0.105 7.16 4.59 12.59
1/6/2023 4:30:00 PM 4.64 40.352 0.105 7.16 4.55 12.59
1/6/2023 4:45:00 PM 4.63 40.334 0.105 7.16 4.51 12.58
1/6/2023 5:00:00 PM 4.62 40.316 0.105 7.15 4.41 12.57
1/6/2023 5:15:00 PM 4.61 40.298 0.105 7.15 4.7 12.57
1/6/2023 5:30:00 PM 4.59 40.262 0.105 7.14 4.76 12.57
1/6/2023 5:45:00 PM 4.58 40.244 0.105 7.14 4.64 12.57
1/6/2023 6:00:00 PM 4.56 40.208 0.105 7.14 4.64 12.57
1/6/2023 6:15:00 PM 4.55 40.19 0.105 7.14 4.63 12.57
1/6/2023 6:30:00 PM 4.53 40.154 0.105 7.14 4.47 12.57
1/6/2023 6:45:00 PM 4.51 40.118 0.105 7.13 4.72 12.58
1/6/2023 7:00:00 PM 4.5 40.1 0.105 7.13 4.7 12.58
1/6/2023 7:15:00 PM 4.48 40.064 0.105 7.13 4.73 12.58
1/6/2023 7:30:00 PM 4.46 40.028 0.105 7.13 4.45 12.6
1/6/2023 7:45:00 PM 4.44 39.992 0.105 7.13 4.65 12.6
1/6/2023 8:00:00 PM 4.42 39.956 0.105 7.13 4.56 12.61
1/6/2023 8:15:00 PM 4.4 39.92 0.105 7.12 4.55 12.62
1/6/2023 8:30:00 PM 4.37 39.866 0.105 7.12 4.51 12.63
1/6/2023 8:45:00 PM 4.34 39.812 0.105 7.12 4.41 12.63
1/6/2023 9:00:00 PM 4.32 39.776 0.105 7.12 4.49 12.64
1/6/2023 9:15:00 PM 4.29 39.722 0.104 7.12 4.63 12.65
1/6/2023 9:30:00 PM 4.26 39.668 0.104 7.12 4.54 12.66
1/6/2023 9:45:00 PM 4.24 39.632 0.105 7.12 4.66 12.67
1/6/2023 10:00:00 PM 4.21 39.578 0.104 7.12 4.91 12.68
1/6/2023 10:15:00 PM 4.18 39.524 0.105 7.12 4.6 12.69
1/6/2023 10:30:00 PM 4.16 39.488 0.105 7.12 4.52 12.69
1/6/2023 10:45:00 PM 4.13 39.434 0.105 7.12 4.65 12.7
1/6/2023 11:00:00 PM 4.11 39.398 0.105 7.12 4.45 12.72
1/6/2023 11:15:00 PM 4.09 39.362 0.105 7.12 4.69 12.72
1/6/2023 11:30:00 PM 4.07 39.326 0.105 7.12 4.13 12.72
1/6/2023 11:45:00 PM 4.04 39.272 0.105 7.12 4.44 12.73
1/7/2023 12:00:00 AM 4.02 39.236 0.105 7.12 4.34 12.74
1/7/2023 12:15:00 AM 4 39.2 0.105 7.11 4.53 12.74
1/7/2023 12:30:00 AM 3.98 39.164 0.105 7.12 4.55 12.74
1/7/2023 12:45:00 AM 3.96 39.128 0.105 7.11 3.97 12.76
1/7/2023 1:00:00 AM 3.94 39.092 0.105 7.12 4.41 12.76
1/7/2023 1:15:00 AM 3.93 39.074 0.105 7.11 4.19 12.77
1/7/2023 1:30:00 AM 3.91 39.038 0.105 7.11 4.19 12.78
1/7/2023 1:45:00 AM 3.89 39.002 0.105 7.11 4.38 12.78
1/7/2023 2:00:00 AM 3.87 38.966 0.105 7.11 4.44 12.78
1/7/2023 2:15:00 AM 3.85 38.93 0.105 7.11 4.43 12.79
1/7/2023 2:30:00 AM 3.84 38.912 0.105 7.11 4.5 12.8
1/7/2023 2:45:00 AM 3.82 38.876 0.105 7.11 4.44 12.8
1/7/2023 3:00:00 AM 3.8 38.84 0.105 7.11 4.33 12.81
1/7/2023 3:15:00 AM 3.79 38.822 0.105 7.11 4.08 12.81
1/7/2023 3:30:00 AM 3.77 38.786 0.105 7.11 4.22 12.82
1/7/2023 3:45:00 AM 3.76 38.768 0.105 7.11 3.84 12.83
1/7/2023 4:00:00 AM 3.74 38.732 0.105 7.1 4.26 12.83
1/7/2023 4:15:00 AM 3.73 38.714 0.105 7.1 4.04 12.83
1/7/2023 4:30:00 AM 3.72 38.696 0.105 7.1 3.95 12.83
1/7/2023 4:45:00 AM 3.7 38.66 0.105 7.1 4.25 12.84
1/7/2023 5:00:00 AM 3.69 38.642 0.105 7.1 4.19 12.84
1/7/2023 5:15:00 AM 3.68 38.624 0.105 7.1 4.06 12.85
1/7/2023 5:30:00 AM 3.66 38.588 0.105 7.1 4.18 12.86
1/7/2023 5:45:00 AM 3.65 38.57 0.105 7.11 4.26 12.86
1/7/2023 6:00:00 AM 3.63 38.534 0.105 7.1 3.53 12.87
1/7/2023 6:15:00 AM 3.62 38.516 0.105 7.1 3.72 12.87
1/7/2023 6:30:00 AM 3.61 38.498 0.105 7.1 3.43 12.88
1/7/2023 6:45:00 AM 3.6 38.48 0.105 7.1 3.86 12.88
1/7/2023 7:00:00 AM 3.59 38.462 0.105 7.1 3.75 12.88
1/7/2023 7:15:00 AM 3.58 38.444 0.105 7.11 3.59 12.89
1/7/2023 7:30:00 AM 3.57 38.426 0.105 7.1 3.6 12.89
1/7/2023 7:45:00 AM 3.54 38.372 0.105 7.1 3.48 12.9
1/7/2023 8:00:00 AM 3.53 38.354 0.105 7.1 3.41 12.91
1/7/2023 8:15:00 AM 3.52 38.336 0.105 7.11 3.59 12.92
1/7/2023 8:30:00 AM 3.52 38.336 0.105 7.11 3.6 12.93
1/7/2023 8:45:00 AM 3.51 38.318 0.105 7.11 3.31 12.95
1/7/2023 9:00:00 AM 3.52 38.336 0.105 7.12 3.5 12.97
1/7/2023 9:15:00 AM 3.53 38.354 0.105 7.12 3.33 12.98
1/7/2023 9:30:00 AM 3.55 38.39 0.105 7.13 3.56 12.99
1/7/2023 9:45:00 AM 3.57 38.426 0.105 7.14 3.4 13
1/7/2023 10:00:00 AM 3.6 38.48 0.105 7.14 3.37 13.01
1/7/2023 10:15:00 AM 3.62 38.516 0.105 7.15 3.37 13.01
1/7/2023 10:30:00 AM 3.65 38.57 0.105 7.15 3.27 13.01
1/7/2023 10:45:00 AM 3.66 38.588 0.105 7.16 3.51 13.01
1/7/2023 11:00:00 AM 3.67 38.606 0.105 7.16 3.31 13.01
1/7/2023 11:15:00 AM 3.69 38.642 0.105 7.16 3.35 13
1/7/2023 11:30:00 AM 3.7 38.66 0.105 7.16 3.56 13
1/7/2023 11:45:00 AM 3.72 38.696 0.105 7.17 3.07 13
1/7/2023 12:00:00 PM 3.76 38.768 0.105 7.17 3.21 13
1/7/2023 12:15:00 PM 3.78 38.804 0.105 7.17 3.06 13
1/7/2023 12:30:00 PM 3.79 38.822 0.105 7.18 3.24 12.98
1/7/2023 12:45:00 PM 3.8 38.84 0.105 7.18 3.12 12.98
1/7/2023 1:00:00 PM 3.85 38.93 0.105 7.18 3.14 12.98
1/7/2023 1:15:00 PM 3.9 39.02 0.105 7.18 3.16 12.98
1/7/2023 1:30:00 PM 3.95 39.11 0.105 7.19 3.11 12.96
1/7/2023 1:45:00 PM 3.94 39.092 0.106 7.19 3.27 12.94
1/7/2023 2:00:00 PM 3.93 39.074 0.106 7.19 3.14 12.93
1/7/2023 2:15:00 PM 3.92 39.056 0.106 7.19 3.08 12.92
1/7/2023 2:30:00 PM 3.92 39.056 0.105 7.19 3.28 12.92
1/7/2023 2:45:00 PM 3.94 39.092 0.105 7.19 3 12.93
1/7/2023 3:00:00 PM 3.95 39.11 0.105 7.19 3.37 12.92
1/7/2023 3:15:00 PM 3.97 39.146 0.105 7.19 3.04 12.93
1/7/2023 3:30:00 PM 3.98 39.164 0.105 7.19 3.22 12.93
1/7/2023 3:45:00 PM 3.99 39.182 0.105 7.2 3.29 12.92
1/7/2023 4:00:00 PM 3.98 39.164 0.105 7.19 3.36 12.91
1/7/2023 4:15:00 PM 3.98 39.164 0.106 7.19 3.37 12.89
1/7/2023 4:30:00 PM 3.95 39.11 0.105 7.19 3.34 12.87
1/7/2023 4:45:00 PM 3.94 39.092 0.106 7.18 3.52 12.87
1/7/2023 5:00:00 PM 3.92 39.056 0.106 7.18 3.47 12.86
1/7/2023 5:15:00 PM 3.92 39.056 0.106 7.17 3.4 12.86
1/7/2023 5:30:00 PM 3.91 39.038 0.106 7.17 3.42 12.85
1/7/2023 5:45:00 PM 3.91 39.038 0.106 7.17 3.15 12.86
1/7/2023 6:00:00 PM 3.9 39.02 0.106 7.17 3.29 12.86
1/7/2023 6:15:00 PM 3.9 39.02 0.106 7.17 3.7 12.86
1/7/2023 6:30:00 PM 3.89 39.002 0.106 7.16 3.52 12.85
1/7/2023 6:45:00 PM 3.89 39.002 0.106 7.16 3.33 12.86
1/7/2023 7:00:00 PM 3.88 38.984 0.106 7.16 3.65 12.86
1/7/2023 7:15:00 PM 3.87 38.966 0.106 7.16 3.35 12.86
1/7/2023 7:30:00 PM 3.86 38.948 0.106 7.16 3.56 12.87
1/7/2023 7:45:00 PM 3.84 38.912 0.106 7.16 3.56 12.86
1/7/2023 8:00:00 PM 3.82 38.876 0.106 7.16 3.64 12.88
1/7/2023 8:15:00 PM 3.8 38.84 0.106 7.16 3.47 12.88
1/7/2023 8:30:00 PM 3.79 38.822 0.106 7.16 3.62 12.89
1/7/2023 8:45:00 PM 3.77 38.786 0.106 7.16 3.3 12.89
1/7/2023 9:00:00 PM 3.75 38.75 0.106 7.16 3.5 12.91
1/7/2023 9:15:00 PM 3.74 38.732 0.106 7.16 3.35 12.91
1/7/2023 9:30:00 PM 3.71 38.678 0.106 7.16 3.48 12.91
1/7/2023 9:45:00 PM 3.69 38.642 0.106 7.16 3.51 12.92
1/7/2023 10:00:00 PM 3.67 38.606 0.106 7.16 3.32 12.93
1/7/2023 10:15:00 PM 3.64 38.552 0.106 7.15 3.38 12.93
1/7/2023 10:30:00 PM 3.62 38.516 0.106 7.16 3.37 12.94
1/7/2023 10:45:00 PM 3.6 38.48 0.106 7.15 3.6 12.95
1/7/2023 11:00:00 PM 3.59 38.462 0.106 7.15 3.24 12.96
1/7/2023 11:15:00 PM 3.57 38.426 0.106 7.15 3.3 12.96
1/7/2023 11:30:00 PM 3.54 38.372 0.106 7.16 3.27 12.96
1/7/2023 11:45:00 PM 3.52 38.336 0.106 7.15 3.32 12.97
1/8/2023 12:00:00 AM 3.5 38.3 0.106 7.16 3.3 12.98
1/8/2023 12:15:00 AM 3.48 38.264 0.107 7.15 3.18 12.99
1/8/2023 12:30:00 AM 3.45 38.21 0.107 7.15 3.21 13
1/8/2023 12:45:00 AM 3.43 38.174 0.107 7.15 3.38 13.01
1/8/2023 1:00:00 AM 3.4 38.12 0.107 7.15 3.11 13.02
1/8/2023 1:15:00 AM 3.38 38.084 0.107 7.15 3.49 13.03
1/8/2023 1:30:00 AM 3.36 38.048 0.107 7.15 3.22 13.04
1/8/2023 1:45:00 AM 3.33 37.994 0.107 7.15 3.25 13.05
1/8/2023 2:00:00 AM 3.31 37.958 0.107 7.15 3.04 13.05
1/8/2023 2:15:00 AM 3.27 37.886 0.107 7.15 2.98 13.07
1/8/2023 2:30:00 AM 3.24 37.832 0.107 7.15 3 13.08
1/8/2023 2:45:00 AM 3.2 37.76 0.107 7.15 3.13 13.09
1/8/2023 3:00:00 AM 3.17 37.706 0.107 7.15 3.12 13.11
1/8/2023 3:15:00 AM 3.13 37.634 0.106 7.15 3.12 13.12
1/8/2023 3:30:00 AM 3.09 37.562 0.107 7.14 3.23 13.13
1/8/2023 3:45:00 AM 3.05 37.49 0.106 7.14 3.21 13.14
1/8/2023 4:00:00 AM 3 37.4 0.106 7.14 3.1 13.16
1/8/2023 4:15:00 AM 2.96 37.328 0.107 7.14 3.4 13.17
1/8/2023 4:30:00 AM 2.92 37.256 0.107 7.14 3.23 13.19
1/8/2023 4:45:00 AM 2.89 37.202 0.107 7.14 3.33 13.2
1/8/2023 5:00:00 AM 2.86 37.148 0.107 7.14 3.25 13.22
1/8/2023 5:15:00 AM 2.84 37.112 0.107 7.14 3.19 13.22
1/8/2023 5:30:00 AM 2.81 37.058 0.107 7.14 3.17 13.23
1/8/2023 5:45:00 AM 2.79 37.022 0.107 7.14 3.24 13.25
1/8/2023 6:00:00 AM 2.76 36.968 0.107 7.14 3.27 13.25
1/8/2023 6:15:00 AM 2.73 36.914 0.107 7.14 3.19 13.27
1/8/2023 6:30:00 AM 2.7 36.86 0.107 7.14 3.21 13.28
1/8/2023 6:45:00 AM 2.67 36.806 0.107 7.14 2.96 13.29
1/8/2023 7:00:00 AM 2.64 36.752 0.107 7.13 3.03 13.3
1/8/2023 7:15:00 AM 2.61 36.698 0.107 7.13 3.3 13.32
1/8/2023 7:30:00 AM 2.59 36.662 0.107 7.13 3.01 13.32
1/8/2023 7:45:00 AM 2.56 36.608 0.107 7.14 2.95 13.34
1/8/2023 8:00:00 AM 2.54 36.572 0.107 7.14 3.1 13.36
1/8/2023 8:15:00 AM 2.53 36.554 0.107 7.14 3.1 13.38
1/8/2023 8:30:00 AM 2.52 36.536 0.107 7.14 2.89 13.39
1/8/2023 8:45:00 AM 2.51 36.518 0.107 7.15 3.19 13.41
1/8/2023 9:00:00 AM 2.51 36.518 0.107 7.15 2.92 13.43
1/8/2023 9:15:00 AM 2.5 36.5 0.107 7.16 2.96 13.45
1/8/2023 9:30:00 AM 2.51 36.518 0.107 7.16 2.99 13.46
1/8/2023 9:45:00 AM 2.52 36.536 0.107 7.17 2.86 13.47
1/8/2023 10:00:00 AM 2.55 36.59 0.107 7.17 3.04 13.49
1/8/2023 10:15:00 AM 2.61 36.698 0.107 7.18 2.95 13.48
1/8/2023 10:30:00 AM 2.61 36.698 0.107 7.18 2.9 13.48
1/8/2023 10:45:00 AM 2.63 36.734 0.107 7.18 2.74 13.48
1/8/2023 11:00:00 AM 2.65 36.77 0.107 7.19 2.69 13.48
1/8/2023 11:15:00 AM 2.72 36.896 0.107 7.19 2.66 13.46
1/8/2023 11:30:00 AM 2.77 36.986 0.107 7.19 2.82 13.45
1/8/2023 11:45:00 AM 2.8 37.04 0.107 7.19 2.69 13.43
1/8/2023 12:00:00 PM 2.85 37.13 0.107 7.2 2.94 13.42
1/8/2023 12:15:00 PM 2.88 37.184 0.107 7.2 2.69 13.4
1/8/2023 12:30:00 PM 2.92 37.256 0.107 7.2 2.66 13.38
1/8/2023 12:45:00 PM 2.97 37.346 0.107 7.2 2.7 13.36
1/8/2023 1:00:00 PM 3.01 37.418 0.107 7.2 2.65 13.34
1/8/2023 1:15:00 PM 3.04 37.472 0.107 7.21 2.79 13.33
1/8/2023 1:30:00 PM 3.05 37.49 0.107 7.21 2.53 13.32
1/8/2023 1:45:00 PM 3.07 37.526 0.107 7.21 2.72 13.31
1/8/2023 2:00:00 PM 3.07 37.526 0.107 7.21 2.62 13.3
1/8/2023 2:15:00 PM 3.07 37.526 0.107 7.21 2.56 13.29
1/8/2023 2:30:00 PM 3.05 37.49 0.107 7.2 2.51 13.28
1/8/2023 2:45:00 PM 3.04 37.472 0.107 7.2 2.66 13.27
1/8/2023 3:00:00 PM 3.02 37.436 0.107 7.2 2.7 13.26
1/8/2023 3:15:00 PM 3.01 37.418 0.107 7.19 2.71 13.25
1/8/2023 3:30:00 PM 3 37.4 0.107 7.19 2.59 13.25
1/8/2023 3:45:00 PM 2.99 37.382 0.107 7.19 2.57 13.23
1/8/2023 4:00:00 PM 2.98 37.364 0.108 7.19 2.6 13.22
1/8/2023 4:15:00 PM 2.98 37.364 0.107 7.19 2.78 13.21
1/8/2023 4:30:00 PM 2.99 37.382 0.107 7.18 2.67 13.2
1/8/2023 4:45:00 PM 2.99 37.382 0.107 7.18 2.61 13.18
1/8/2023 5:00:00 PM 2.99 37.382 0.107 7.18 2.73 13.16
1/8/2023 5:15:00 PM 2.99 37.382 0.107 7.17 2.63 13.15
1/8/2023 5:30:00 PM 2.99 37.382 0.107 7.17 2.82 13.13
1/8/2023 5:45:00 PM 2.98 37.364 0.107 7.16 2.6 13.12
1/8/2023 6:00:00 PM 2.97 37.346 0.107 7.16 2.79 13.12
1/8/2023 6:15:00 PM 2.94 37.292 0.108 7.16 2.92 13.12
1/8/2023 6:30:00 PM 2.93 37.274 0.108 7.16 2.71 13.12
1/8/2023 6:45:00 PM 2.91 37.238 0.107 7.16 2.89 13.13
1/8/2023 7:00:00 PM 2.87 37.166 0.108 7.16 2.82 13.14
1/8/2023 7:15:00 PM 2.82 37.076 0.108 7.15 3.02 13.15
1/8/2023 7:30:00 PM 2.77 36.986 0.108 7.16 3.01 13.17
1/8/2023 7:45:00 PM 2.72 36.896 0.108 7.16 2.82 13.19
1/8/2023 8:00:00 PM 2.67 36.806 0.108 7.16 2.82 13.2
1/8/2023 8:15:00 PM 2.62 36.716 0.108 7.16 2.65 13.22
1/8/2023 8:30:00 PM 2.57 36.626 0.108 7.16 2.78 13.24
1/8/2023 8:45:00 PM 2.52 36.536 0.108 7.16 2.78 13.26
1/8/2023 9:00:00 PM 2.47 36.446 0.108 7.15 2.95 13.27
1/8/2023 9:15:00 PM 2.41 36.338 0.108 7.15 2.58 13.29
1/8/2023 9:30:00 PM 2.36 36.248 0.108 7.15 2.85 13.32
1/8/2023 9:45:00 PM 2.31 36.158 0.108 7.15 2.81 13.33
1/8/2023 10:00:00 PM 2.26 36.068 0.108 7.14 2.7 13.35
1/8/2023 10:15:00 PM 2.22 35.996 0.108 7.14 2.83 13.36
1/8/2023 10:30:00 PM 2.18 35.924 0.108 7.14 2.8 13.37
1/8/2023 10:45:00 PM 2.14 35.852 0.108 7.14 2.75 13.37
1/8/2023 11:00:00 PM 2.09 35.762 0.108 7.14 2.8 13.39
1/8/2023 11:15:00 PM 2.07 35.726 0.108 7.14 2.98 13.41
1/8/2023 11:30:00 PM 2.04 35.672 0.108 7.13 2.8 13.41
1/8/2023 11:45:00 PM 2.02 35.636 0.109 7.14 2.86 13.42
1/9/2023 12:00:00 AM 2.01 35.618 0.109 7.14 2.63 13.43
1/9/2023 12:15:00 AM 1.99 35.582 0.109 7.14 2.73 13.44
1/9/2023 12:30:00 AM 1.98 35.564 0.108 7.14 2.75 13.44
1/9/2023 12:45:00 AM 1.96 35.528 0.109 7.14 2.82 13.44
1/9/2023 1:00:00 AM 1.94 35.492 0.109 7.13 2.58 13.45
1/9/2023 1:15:00 AM 1.93 35.474 0.108 7.14 2.72 13.46
1/9/2023 1:30:00 AM 1.91 35.438 0.109 7.14 2.83 13.46
1/9/2023 1:45:00 AM 1.89 35.402 0.109 7.14 2.68 13.47
1/9/2023 2:00:00 AM 1.86 35.348 0.109 7.14 2.68 13.48
1/9/2023 2:15:00 AM 1.84 35.312 0.109 7.14 2.61 13.49
1/9/2023 2:30:00 AM 1.83 35.294 0.109 7.13 2.75 13.49
1/9/2023 2:45:00 AM 1.81 35.258 0.108 7.14 2.72 13.5
1/9/2023 3:00:00 AM 1.79 35.222 0.109 7.14 2.75 13.51
1/9/2023 3:15:00 AM 1.78 35.204 0.109 7.13 2.58 13.51
1/9/2023 3:30:00 AM 1.76 35.168 0.109 7.14 2.61 13.52
1/9/2023 3:45:00 AM 1.74 35.132 0.109 7.13 2.51 13.52
1/9/2023 4:00:00 AM 1.72 35.096 0.109 7.13 2.55 13.53
1/9/2023 4:15:00 AM 1.71 35.078 0.109 7.13 2.66 13.53
1/9/2023 4:30:00 AM 1.7 35.06 0.109 7.13 2.68 13.53
1/9/2023 4:45:00 AM 1.69 35.042 0.109 7.14 2.81 13.53
1/9/2023 5:00:00 AM 1.67 35.006 0.109 7.13 2.75 13.54
1/9/2023 5:15:00 AM 1.64 34.952 0.11 7.13 2.74 13.55
1/9/2023 5:30:00 AM 1.6 34.88 0.11 7.13 2.62 13.55
1/9/2023 5:45:00 AM 1.57 34.826 0.109 7.13 2.63 13.56
1/9/2023 6:00:00 AM 1.53 34.754 0.109 7.13 2.38 13.57
1/9/2023 6:15:00 AM 1.5 34.7 0.109 7.13 2.75 13.58
1/9/2023 6:30:00 AM 1.47 34.646 0.109 7.13 2.73 13.59
1/9/2023 6:45:00 AM 1.44 34.592 0.109 7.13 2.62 13.6
1/9/2023 7:00:00 AM 1.41 34.538 0.11 7.13 2.77 13.61
1/9/2023 7:15:00 AM 1.38 34.484 0.109 7.13 2.49 13.62
1/9/2023 7:30:00 AM 1.35 34.43 0.109 7.13 2.7 13.63
1/9/2023 7:45:00 AM 1.35 34.43 0.11 7.13 2.69 13.64
1/9/2023 8:00:00 AM 1.36 34.448 0.109 7.13 2.66 13.66
1/9/2023 8:15:00 AM 1.37 34.466 0.109 7.14 2.6 13.67
1/9/2023 8:30:00 AM 1.38 34.484 0.11 7.14 2.7 13.68
1/9/2023 8:45:00 AM 1.4 34.52 0.109 7.15 2.76 13.7
1/9/2023 9:00:00 AM 1.42 34.556 0.11 7.15 2.77 13.71
1/9/2023 9:15:00 AM 1.45 34.61 0.109 7.16 2.48 13.72
1/9/2023 9:30:00 AM 1.47 34.646 0.109 7.16 2.56 13.72
1/9/2023 9:45:00 AM 1.49 34.682 0.109 7.17 2.48 13.72
1/9/2023 10:00:00 AM 1.51 34.718 0.109 7.17 2.51 13.71
1/9/2023 10:15:00 AM 1.53 34.754 0.109 7.18 2.64 13.72
1/9/2023 10:30:00 AM 1.56 34.808 0.109 7.18 2.52 13.72
1/9/2023 10:45:00 AM 1.59 34.862 0.11 7.19 2.55 13.71
1/9/2023 11:00:00 AM 1.64 34.952 0.11 7.19 2.49 13.71
1/9/2023 11:15:00 AM 1.69 35.042 0.11 7.19 2.64 13.7
1/9/2023 11:30:00 AM 1.75 35.15 0.109 7.2 2.54 13.69
1/9/2023 11:45:00 AM 1.82 35.276 0.109 7.2 2.45 13.68
1/9/2023 12:00:00 PM 1.86 35.348 0.109 7.21 2.55 13.67
1/9/2023 12:15:00 PM 1.89 35.402 0.109 7.21 2.54 13.65
1/9/2023 12:30:00 PM 1.95 35.51 0.109 7.22 2.4 13.64
1/9/2023 12:45:00 PM 2.01 35.618 0.11 7.22 2.38 13.6
1/9/2023 1:00:00 PM 2.09 35.762 0.11 7.22 2.62 13.58
1/9/2023 1:15:00 PM 2.15 35.87 0.109 7.22 2.52 13.55
1/9/2023 1:30:00 PM 2.17 35.906 0.11 7.23 2.44 13.53
1/9/2023 1:45:00 PM 2.19 35.942 0.11 7.23 2.42 13.52
1/9/2023 2:00:00 PM 2.2 35.96 0.11 7.23 2.36 13.5
1/9/2023 2:15:00 PM 2.22 35.996 0.109 7.23 2.3 13.49
1/9/2023 2:30:00 PM 2.23 36.014 0.11 7.23 2.55 13.48
1/9/2023 2:45:00 PM 2.25 36.05 0.11 7.22 2.38 13.46
1/9/2023 3:00:00 PM 2.25 36.05 0.11 7.22 2.54 13.44
1/9/2023 3:15:00 PM 2.25 36.05 0.11 7.21 2.26 13.43
1/9/2023 3:30:00 PM 2.23 36.014 0.11 7.21 2.54 13.42
1/9/2023 3:45:00 PM 2.22 35.996 0.11 7.21 2.38 13.42
1/9/2023 4:00:00 PM 2.2 35.96 0.11 7.21 2.26 13.41
1/9/2023 4:15:00 PM 2.18 35.924 0.11 7.2 2.46 13.41
1/9/2023 4:30:00 PM 2.17 35.906 0.11 7.2 2.64 13.39
1/9/2023 4:45:00 PM 2.16 35.888 0.11 7.2 2.3 13.39
1/9/2023 5:00:00 PM 2.15 35.87 0.11 7.19 2.42 13.37
1/9/2023 5:15:00 PM 2.15 35.87 0.11 7.19 2.28 13.36
1/9/2023 5:30:00 PM 2.14 35.852 0.11 7.19 2.42 13.36
1/9/2023 5:45:00 PM 2.14 35.852 0.11 7.19 2.57 13.35
1/9/2023 6:00:00 PM 2.14 35.852 0.11 7.19 2.48 13.34
1/9/2023 6:15:00 PM 2.13 35.834 0.11 7.19 2.52 13.34
1/9/2023 6:30:00 PM 2.12 35.816 0.11 7.19 2.39 13.34
1/9/2023 6:45:00 PM 2.11 35.798 0.11 7.19 2.52 13.34
1/9/2023 7:00:00 PM 2.09 35.762 0.11 7.19 2.45 13.34
1/9/2023 7:15:00 PM 2.07 35.726 0.11 7.19 2.41 13.35
1/9/2023 7:30:00 PM 2.05 35.69 0.11 7.18 2.64 13.36
1/9/2023 7:45:00 PM 2.02 35.636 0.11 7.18 2.3 13.37
1/9/2023 8:00:00 PM 1.99 35.582 0.11 7.18 2.42 13.38
1/9/2023 8:15:00 PM 1.95 35.51 0.11 7.18 2.38 13.39
1/9/2023 8:30:00 PM 1.91 35.438 0.11 7.18 2.44 13.41
1/9/2023 8:45:00 PM 1.86 35.348 0.11 7.18 2.46 13.42
1/9/2023 9:00:00 PM 1.84 35.312 0.11 7.18 2.41 13.44
1/9/2023 9:15:00 PM 1.82 35.276 0.11 7.18 2.52 13.45
1/9/2023 9:30:00 PM 1.8 35.24 0.11 7.17 2.52 13.47
1/9/2023 9:45:00 PM 1.78 35.204 0.11 7.17 2.38 13.48
1/9/2023 10:00:00 PM 1.76 35.168 0.11 7.17 2.9 13.49
1/9/2023 10:15:00 PM 1.73 35.114 0.11 7.17 2.51 13.5
1/9/2023 10:30:00 PM 1.71 35.078 0.111 7.17 2.35 13.51
1/9/2023 10:45:00 PM 1.7 35.06 0.11 7.17 2.5 13.51
1/9/2023 11:00:00 PM 1.69 35.042 0.11 7.17 2.49 13.52
1/9/2023 11:15:00 PM 1.68 35.024 0.111 7.17 2.4 13.53
1/9/2023 11:30:00 PM 1.68 35.024 0.111 7.17 2.51 13.53
1/9/2023 11:45:00 PM 1.68 35.024 0.11 7.17 2.42 13.53
1/10/2023 12:00:00 AM 1.68 35.024 0.11 7.17 2.59 13.53
1/10/2023 12:15:00 AM 1.69 35.042 0.111 7.17 2.57 13.53
1/10/2023 12:30:00 AM 1.7 35.06 0.111 7.17 2.38 13.53
1/10/2023 12:45:00 AM 1.7 35.06 0.111 7.17 2.55 13.53
1/10/2023 1:00:00 AM 1.7 35.06 0.111 7.17 2.48 13.53
1/10/2023 1:15:00 AM 1.7 35.06 0.111 7.17 2.41 13.53
1/10/2023 1:30:00 AM 1.71 35.078 0.11 7.17 2.39 13.53
1/10/2023 1:45:00 AM 1.7 35.06 0.111 7.18 2.33 13.53
1/10/2023 2:00:00 AM 1.7 35.06 0.111 7.18 2.59 13.53
1/10/2023 2:15:00 AM 1.7 35.06 0.111 7.18 2.57 13.53
1/10/2023 2:30:00 AM 1.7 35.06 0.111 7.18 2.35 13.54
1/10/2023 2:45:00 AM 1.7 35.06 0.111 7.18 2.37 13.54
1/10/2023 3:00:00 AM 1.69 35.042 0.111 7.18 2.38 13.54
1/10/2023 3:15:00 AM 1.68 35.024 0.111 7.18 2.4 13.55
1/10/2023 3:30:00 AM 1.67 35.006 0.111 7.18 2.35 13.55
1/10/2023 3:45:00 AM 1.67 35.006 0.111 7.18 2.38 13.56
1/10/2023 4:00:00 AM 1.66 34.988 0.111 7.18 2.43 13.56
1/10/2023 4:15:00 AM 1.66 34.988 0.111 7.18 2.29 13.56
1/10/2023 4:30:00 AM 1.65 34.97 0.111 7.18 2.34 13.56
1/10/2023 4:45:00 AM 1.64 34.952 0.111 7.18 2.36 13.57
1/10/2023 5:00:00 AM 1.64 34.952 0.111 7.18 2.56 13.57
1/10/2023 5:15:00 AM 1.64 34.952 0.111 7.18 2.28 13.56
1/10/2023 5:30:00 AM 1.64 34.952 0.111 7.18 2.37 13.57
1/10/2023 5:45:00 AM 1.64 34.952 0.111 7.18 2.36 13.57
1/10/2023 6:00:00 AM 1.65 34.97 0.111 7.18 2.42 13.56
1/10/2023 6:15:00 AM 1.65 34.97 0.111 7.18 2.39 13.56
1/10/2023 6:30:00 AM 1.66 34.988 0.111 7.18 2.48 13.56
1/10/2023 6:45:00 AM 1.66 34.988 0.111 7.18 2.25 13.56
1/10/2023 7:00:00 AM 1.67 35.006 0.111 7.18 2.3 13.56
1/10/2023 7:15:00 AM 1.68 35.024 0.111 7.18 2.43 13.56
1/10/2023 7:30:00 AM 1.69 35.042 0.111 7.18 2.68 13.55
1/10/2023 7:45:00 AM 1.69 35.042 0.111 7.18 2.37 13.56
1/10/2023 8:00:00 AM 1.71 35.078 0.111 7.18 2.36 13.56
1/10/2023 8:15:00 AM 1.72 35.096 0.111 7.18 2.27 13.55
1/10/2023 8:30:00 AM 1.73 35.114 0.111 7.18 2.45 13.56
1/10/2023 8:45:00 AM 1.75 35.15 0.111 7.19 2.6 13.56
1/10/2023 9:00:00 AM 1.77 35.186 0.111 7.19 2.34 13.56
1/10/2023 9:15:00 AM 1.78 35.204 0.111 7.19 2.41 13.56
1/10/2023 9:30:00 AM 1.8 35.24 0.111 7.19 2.19 13.56
1/10/2023 9:45:00 AM 1.82 35.276 0.111 7.19 2.23 13.56
1/10/2023 10:00:00 AM 1.84 35.312 0.111 7.2 2.22 13.57
1/10/2023 10:15:00 AM 1.86 35.348 0.111 7.2 2.17 13.56
1/10/2023 10:30:00 AM 1.87 35.366 0.111 7.2 2.29 13.56
1/10/2023 10:45:00 AM 1.89 35.402 0.111 7.2 2.13 13.56
1/10/2023 11:00:00 AM 1.91 35.438 0.111 7.21 2.11 13.56
1/10/2023 11:15:00 AM 1.93 35.474 0.111 7.21 2.26 13.55
1/10/2023 11:30:00 AM 1.95 35.51 0.111 7.21 2.08 13.55
1/10/2023 11:45:00 AM 1.97 35.546 0.111 7.21 2.09 13.55
1/10/2023 12:00:00 PM 1.99 35.582 0.111 7.22 1.98 13.55
1/10/2023 12:15:00 PM 2.02 35.636 0.111 7.22 2.12 13.54
1/10/2023 12:30:00 PM 2.04 35.672 0.111 7.22 2.01 13.55
1/10/2023 12:45:00 PM 2.07 35.726 0.111 7.22 2.23 13.54
1/10/2023 1:00:00 PM 2.09 35.762 0.111 7.23 2.31 13.53
1/10/2023 1:15:00 PM 2.11 35.798 0.111 7.23 2.24 13.53
1/10/2023 1:30:00 PM 2.13 35.834 0.111 7.23 2.28 13.52
1/10/2023 1:45:00 PM 2.14 35.852 0.111 7.23 2.2 13.52
1/10/2023 2:00:00 PM 2.17 35.906 0.111 7.23 2.09 13.51
1/10/2023 2:15:00 PM 2.19 35.942 0.111 7.23 2.36 13.51
1/10/2023 2:30:00 PM 2.19 35.942 0.111 7.23 2.24 13.49
1/10/2023 2:45:00 PM 2.21 35.978 0.111 7.24 2.37 13.49
1/10/2023 3:00:00 PM 2.22 35.996 0.111 7.24 2.19 13.48
1/10/2023 3:15:00 PM 2.22 35.996 0.111 7.23 2.11 13.46
1/10/2023 3:30:00 PM 2.22 35.996 0.111 7.23 2.26 13.46
1/10/2023 3:45:00 PM 2.22 35.996 0.111 7.23 2.24 13.45
1/10/2023 4:00:00 PM 2.21 35.978 0.111 7.23 2.17 13.44
1/10/2023 4:15:00 PM 2.21 35.978 0.111 7.23 2.41 13.44
1/10/2023 4:30:00 PM 2.21 35.978 0.111 7.23 2.19 13.43
1/10/2023 4:45:00 PM 2.2 35.96 0.111 7.22 2.28 13.42
1/10/2023 5:00:00 PM 2.2 35.96 0.111 7.22 1.99 13.42
1/10/2023 5:15:00 PM 2.19 35.942 0.111 7.21 2.14 13.41
1/10/2023 5:30:00 PM 2.19 35.942 0.111 7.21 2.25 13.41
1/10/2023 5:45:00 PM 2.19 35.942 0.111 7.21 2.1 13.4
1/10/2023 6:00:00 PM 2.19 35.942 0.111 7.21 2.33 13.4
1/10/2023 6:15:00 PM 2.19 35.942 0.111 7.21 2.26 13.4
1/10/2023 6:30:00 PM 2.18 35.924 0.111 7.2 2.36 13.39
1/10/2023 6:45:00 PM 2.18 35.924 0.111 7.2 2.31 13.39
1/10/2023 7:00:00 PM 2.18 35.924 0.111 7.2 2.22 13.39
1/10/2023 7:15:00 PM 2.18 35.924 0.111 7.2 2.23 13.39
1/10/2023 7:30:00 PM 2.17 35.906 0.111 7.2 2.35 13.39
1/10/2023 7:45:00 PM 2.17 35.906 0.111 7.2 2.5 13.39
1/10/2023 8:00:00 PM 2.17 35.906 0.111 7.2 2.16 13.39
1/10/2023 8:15:00 PM 2.17 35.906 0.111 7.2 2.33 13.39
1/10/2023 8:30:00 PM 2.17 35.906 0.111 7.2 2.31 13.39
1/10/2023 8:45:00 PM 2.17 35.906 0.111 7.2 2.45 13.39
1/10/2023 9:00:00 PM 2.17 35.906 0.111 7.2 2.25 13.39
1/10/2023 9:15:00 PM 2.17 35.906 0.111 7.2 2.48 13.39
1/10/2023 9:30:00 PM 2.17 35.906 0.111 7.2 2.34 13.4
1/10/2023 9:45:00 PM 2.17 35.906 0.111 7.2 2.23 13.39
1/10/2023 10:00:00 PM 2.17 35.906 0.111 7.2 2.28 13.39
1/10/2023 10:15:00 PM 2.17 35.906 0.111 7.19 2.36 13.4
1/10/2023 10:30:00 PM 2.17 35.906 0.111 7.19 2.24 13.39
1/10/2023 10:45:00 PM 2.17 35.906 0.111 7.19 2.38 13.39
1/10/2023 11:00:00 PM 2.17 35.906 0.111 7.19 2.63 13.4
1/10/2023 11:15:00 PM 2.16 35.888 0.111 7.19 2.34 13.4
1/10/2023 11:30:00 PM 2.16 35.888 0.111 7.19 2.23 13.41
1/10/2023 11:45:00 PM 2.16 35.888 0.111 7.19 2.52 13.41
1/11/2023 12:00:00 AM 2.15 35.87 0.111 7.19 2.39 13.41
1/11/2023 12:15:00 AM 2.14 35.852 0.111 7.19 2.34 13.41
1/11/2023 12:30:00 AM 2.14 35.852 0.111 7.19 2.54 13.41
1/11/2023 12:45:00 AM 2.13 35.834 0.111 7.19 2.13 13.41
1/11/2023 1:00:00 AM 2.12 35.816 0.111 7.19 2.21 13.42
1/11/2023 1:15:00 AM 2.12 35.816 0.111 7.19 2.42 13.42
1/11/2023 1:30:00 AM 2.11 35.798 0.111 7.19 2.31 13.42
1/11/2023 1:45:00 AM 2.1 35.78 0.111 7.19 2.28 13.43
1/11/2023 2:00:00 AM 2.1 35.78 0.111 7.19 2.18 13.43
1/11/2023 2:15:00 AM 2.09 35.762 0.112 7.19 2.26 13.43
1/11/2023 2:30:00 AM 2.09 35.762 0.111 7.19 2.1 13.44
1/11/2023 2:45:00 AM 2.08 35.744 0.111 7.19 2.13 13.44
1/11/2023 3:00:00 AM 2.07 35.726 0.112 7.19 2.21 13.45
1/11/2023 3:15:00 AM 2.07 35.726 0.112 7.19 2.23 13.45
1/11/2023 3:30:00 AM 2.06 35.708 0.112 7.19 2.23 13.45
1/11/2023 3:45:00 AM 2.06 35.708 0.112 7.19 2.35 13.46
1/11/2023 4:00:00 AM 2.05 35.69 0.111 7.19 2.11 13.46
1/11/2023 4:15:00 AM 2.05 35.69 0.111 7.19 2.09 13.46
1/11/2023 4:30:00 AM 2.04 35.672 0.112 7.19 2.04 13.46
1/11/2023 4:45:00 AM 2.03 35.654 0.112 7.19 2.26 13.46
1/11/2023 5:00:00 AM 2.03 35.654 0.112 7.19 2.21 13.46
1/11/2023 5:15:00 AM 2.02 35.636 0.112 7.19 2.23 13.46
1/11/2023 5:30:00 AM 2.02 35.636 0.112 7.19 2.04 13.47
1/11/2023 5:45:00 AM 2.01 35.618 0.112 7.19 2.03 13.47
1/11/2023 6:00:00 AM 2.01 35.618 0.112 7.19 2.2 13.47
1/11/2023 6:15:00 AM 2 35.6 0.112 7.19 2.14 13.48
1/11/2023 6:30:00 AM 1.99 35.582 0.112 7.19 2.15 13.48
1/11/2023 6:45:00 AM 1.98 35.564 0.112 7.19 2.22 13.49
1/11/2023 7:00:00 AM 1.96 35.528 0.112 7.19 2.29 13.5
1/11/2023 7:15:00 AM 1.94 35.492 0.112 7.19 2.19 13.5
1/11/2023 7:30:00 AM 1.93 35.474 0.112 7.19 2.12 13.51
1/11/2023 7:45:00 AM 1.91 35.438 0.112 7.19 2.02 13.52
1/11/2023 8:00:00 AM 1.91 35.438 0.112 7.19 2.34 13.54
1/11/2023 8:15:00 AM 1.91 35.438 0.112 7.19 2.17 13.56
1/11/2023 8:30:00 AM 1.92 35.456 0.112 7.2 2.3 13.58
1/11/2023 8:45:00 AM 1.94 35.492 0.112 7.2 2.31 13.59
1/11/2023 9:00:00 AM 1.96 35.528 0.112 7.21 2.18 13.59
1/11/2023 9:15:00 AM 2 35.6 0.112 7.21 2.32 13.6
1/11/2023 9:30:00 AM 2.04 35.672 0.112 7.22 2.33 13.6
1/11/2023 9:45:00 AM 2.08 35.744 0.112 7.22 2.22 13.6
1/11/2023 10:00:00 AM 2.13 35.834 0.112 7.23 2.28 13.6
1/11/2023 10:15:00 AM 2.18 35.924 0.112 7.23 2.2 13.59
1/11/2023 10:30:00 AM 2.25 36.05 0.112 7.23 2.19 13.58
1/11/2023 10:45:00 AM 2.32 36.176 0.111 7.24 2.08 13.57
1/11/2023 11:00:00 AM 2.39 36.302 0.112 7.24 2.13 13.55
1/11/2023 11:15:00 AM 2.47 36.446 0.112 7.25 2.04 13.53
1/11/2023 11:30:00 AM 2.52 36.536 0.112 7.25 2.12 13.51
1/11/2023 11:45:00 AM 2.56 36.608 0.112 7.25 2.04 13.5
1/11/2023 12:00:00 PM 2.61 36.698 0.112 7.25 1.99 13.48
1/11/2023 12:15:00 PM 2.67 36.806 0.112 7.26 2.18 13.46
1/11/2023 12:30:00 PM 2.74 36.932 0.112 7.26 1.94 13.44
1/11/2023 12:45:00 PM 2.82 37.076 0.112 7.26 1.89 13.41
1/11/2023 1:00:00 PM 2.89 37.202 0.111 7.27 2.07 13.39
1/11/2023 1:15:00 PM 2.93 37.274 0.112 7.27 2.02 13.37
1/11/2023 1:30:00 PM 2.96 37.328 0.111 7.27 2.07 13.35
1/11/2023 1:45:00 PM 2.97 37.346 0.111 7.27 2.03 13.34
1/11/2023 2:00:00 PM 2.98 37.364 0.111 7.27 2.03 13.33
1/11/2023 2:15:00 PM 2.99 37.382 0.111 7.28 1.97 13.32
1/11/2023 2:30:00 PM 3.02 37.436 0.111 7.28 2.04 13.31
1/11/2023 2:45:00 PM 3.05 37.49 0.111 7.28 2.1 13.29
1/11/2023 3:00:00 PM 3.07 37.526 0.111 7.28 2.12 13.27
1/11/2023 3:15:00 PM 3.09 37.562 0.111 7.28 1.98 13.27
1/11/2023 3:30:00 PM 3.11 37.598 0.112 7.28 2.11 13.25
1/11/2023 3:45:00 PM 3.11 37.598 0.112 7.28 2.15 13.24
1/11/2023 4:00:00 PM 3.1 37.58 0.112 7.28 2.27 13.23
1/11/2023 4:15:00 PM 3.09 37.562 0.111 7.28 2.1 13.22
1/11/2023 4:30:00 PM 3.07 37.526 0.111 7.28 2.2 13.2
1/11/2023 4:45:00 PM 3.06 37.508 0.112 7.27 2.03 13.18
1/11/2023 5:00:00 PM 3.05 37.49 0.112 7.27 2.35 13.16
1/11/2023 5:15:00 PM 3.04 37.472 0.112 7.26 2.26 13.15
1/11/2023 5:30:00 PM 3.03 37.454 0.112 7.26 2.32 13.14
1/11/2023 5:45:00 PM 3.02 37.436 0.112 7.25 2.43 13.13
1/11/2023 6:00:00 PM 3.01 37.418 0.112 7.25 2.23 13.12
1/11/2023 6:15:00 PM 2.99 37.382 0.112 7.24 2.3 13.12
1/11/2023 6:30:00 PM 2.98 37.364 0.112 7.24 2.32 13.12
1/11/2023 6:45:00 PM 2.95 37.31 0.112 7.24 2.39 13.13
1/11/2023 7:00:00 PM 2.93 37.274 0.112 7.24 2.23 13.13
1/11/2023 7:15:00 PM 2.92 37.256 0.112 7.23 2.24 13.13
1/11/2023 7:30:00 PM 2.91 37.238 0.112 7.23 2.31 13.13
1/11/2023 7:45:00 PM 2.91 37.238 0.112 7.23 2.4 13.13
1/11/2023 8:00:00 PM 2.91 37.238 0.112 7.22 2.38 13.14
1/11/2023 8:15:00 PM 2.9 37.22 0.112 7.23 2.49 13.13
1/11/2023 8:30:00 PM 2.88 37.184 0.112 7.22 2.33 13.14
1/11/2023 8:45:00 PM 2.87 37.166 0.112 7.22 2.39 13.14
1/11/2023 9:00:00 PM 2.85 37.13 0.112 7.22 2.42 13.15
1/11/2023 9:15:00 PM 2.84 37.112 0.112 7.22 2.47 13.16
1/11/2023 9:30:00 PM 2.83 37.094 0.112 7.22 2.39 13.16
1/11/2023 9:45:00 PM 2.82 37.076 0.112 7.22 2.36 13.16
1/11/2023 10:00:00 PM 2.82 37.076 0.113 7.22 2.49 13.16
1/11/2023 10:15:00 PM 2.82 37.076 0.113 7.22 2.43 13.17
1/11/2023 10:30:00 PM 2.81 37.058 0.112 7.22 2.27 13.17
1/11/2023 10:45:00 PM 2.79 37.022 0.113 7.22 2.51 13.18
1/11/2023 11:00:00 PM 2.78 37.004 0.112 7.22 2.35 13.18
1/11/2023 11:15:00 PM 2.77 36.986 0.112 7.22 2.34 13.18
1/11/2023 11:30:00 PM 2.76 36.968 0.112 7.22 2.28 13.18
1/11/2023 11:45:00 PM 2.75 36.95 0.113 7.22 2.24 13.19
1/12/2023 12:00:00 AM 2.74 36.932 0.113 7.21 2.23 13.19
1/12/2023 12:15:00 AM 2.72 36.896 0.113 7.22 2.38 13.19
1/12/2023 12:30:00 AM 2.71 36.878 0.113 7.22 2.33 13.2
1/12/2023 12:45:00 AM 2.7 36.86 0.113 7.22 2.23 13.2
1/12/2023 1:00:00 AM 2.69 36.842 0.113 7.22 2.42 13.21
1/12/2023 1:15:00 AM 2.67 36.806 0.113 7.22 2.29 13.21
1/12/2023 1:30:00 AM 2.66 36.788 0.113 7.21 2.21 13.22
1/12/2023 1:45:00 AM 2.65 36.77 0.113 7.22 2.33 13.21
1/12/2023 2:00:00 AM 2.64 36.752 0.113 7.21 2.21 13.22
1/12/2023 2:15:00 AM 2.62 36.716 0.113 7.21 2.31 13.22
1/12/2023 2:30:00 AM 2.61 36.698 0.113 7.22 2.44 13.23
1/12/2023 2:45:00 AM 2.6 36.68 0.113 7.22 2.29 13.24
1/12/2023 3:00:00 AM 2.59 36.662 0.113 7.21 2.29 13.24
1/12/2023 3:15:00 AM 2.58 36.644 0.113 7.22 2.27 13.24
1/12/2023 3:30:00 AM 2.56 36.608 0.113 7.22 2.16 13.25
1/12/2023 3:45:00 AM 2.56 36.608 0.113 7.22 2.13 13.25
1/12/2023 4:00:00 AM 2.54 36.572 0.113 7.22 2.18 13.25
1/12/2023 4:15:00 AM 2.53 36.554 0.113 7.22 2.12 13.26
1/12/2023 4:30:00 AM 2.53 36.554 0.113 7.22 2.34 13.26
1/12/2023 4:45:00 AM 2.51 36.518 0.113 7.22 2.2 13.25
1/12/2023 5:00:00 AM 2.51 36.518 0.113 7.22 2.12 13.27
1/12/2023 5:15:00 AM 2.5 36.5 0.113 7.22 2.18 13.26
1/12/2023 5:30:00 AM 2.49 36.482 0.113 7.22 2.16 13.27
1/12/2023 5:45:00 AM 2.49 36.482 0.113 7.22 2.2 13.27
1/12/2023 6:00:00 AM 2.49 36.482 0.113 7.21 2.1 13.26
1/12/2023 6:15:00 AM 2.49 36.482 0.113 7.21 2.11 13.27
1/12/2023 6:30:00 AM 2.49 36.482 0.113 7.22 2.03 13.27
1/12/2023 6:45:00 AM 2.49 36.482 0.113 7.21 2.07 13.27
1/12/2023 7:00:00 AM 2.49 36.482 0.113 7.21 2.16 13.27
1/12/2023 7:15:00 AM 2.49 36.482 0.113 7.21 2.06 13.27
1/12/2023 7:30:00 AM 2.5 36.5 0.113 7.22 2.04 13.27
1/12/2023 7:45:00 AM 2.5 36.5 0.113 7.21 2.08 13.27
1/12/2023 8:00:00 AM 2.5 36.5 0.113 7.22 2.12 13.26
1/12/2023 8:15:00 AM 2.51 36.518 0.113 7.22 2.08 13.27
1/12/2023 8:30:00 AM 2.52 36.536 0.113 7.22 2.11 13.27
1/12/2023 8:45:00 AM 2.53 36.554 0.113 7.22 2.2 13.28
1/12/2023 9:00:00 AM 2.55 36.59 0.113 7.22 2.22 13.29
1/12/2023 9:15:00 AM 2.56 36.608 0.113 7.22 2.07 13.29
1/12/2023 9:30:00 AM 2.58 36.644 0.113 7.22 2.03 13.28
1/12/2023 9:45:00 AM 2.6 36.68 0.113 7.23 1.97 13.3
1/12/2023 10:00:00 AM 2.62 36.716 0.113 7.23 1.9 13.29
1/12/2023 10:15:00 AM 2.64 36.752 0.113 7.23 2.27 13.28
1/12/2023 10:30:00 AM 2.66 36.788 0.114 7.24 2.08 13.29
1/12/2023 10:45:00 AM 2.69 36.842 0.113 7.24 2.05 13.29
1/12/2023 11:00:00 AM 2.71 36.878 0.113 7.24 1.94 13.28
1/12/2023 11:15:00 AM 2.73 36.914 0.113 7.24 2.01 13.27
1/12/2023 11:30:00 AM 2.75 36.95 0.113 7.24 1.85 13.25
1/12/2023 11:45:00 AM 2.78 37.004 0.113 7.25 1.97 13.24
1/12/2023 12:00:00 PM 2.81 37.058 0.114 7.25 1.99 13.23
1/12/2023 12:15:00 PM 2.84 37.112 0.113 7.25 2 13.23
1/12/2023 12:30:00 PM 2.88 37.184 0.113 7.25 2.08 13.21
1/12/2023 12:45:00 PM 2.91 37.238 0.113 7.25 1.95 13.2
1/12/2023 1:00:00 PM 2.95 37.31 0.113 7.26 1.98 13.18
1/12/2023 1:15:00 PM 2.99 37.382 0.113 7.26 1.82 13.17
1/12/2023 1:30:00 PM 3.03 37.454 0.113 7.26 1.99 13.16
1/12/2023 1:45:00 PM 3.06 37.508 0.113 7.26 1.94 13.15
1/12/2023 2:00:00 PM 3.11 37.598 0.113 7.27 2.01 13.14
1/12/2023 2:15:00 PM 3.13 37.634 0.113 7.27 2.06 13.11
1/12/2023 2:30:00 PM 3.16 37.688 0.113 7.27 2.05 13.1
1/12/2023 2:45:00 PM 3.18 37.724 0.114 7.27 1.89 13.07
1/12/2023 3:00:00 PM 3.2 37.76 0.113 7.27 1.96 13.06
1/12/2023 3:15:00 PM 3.23 37.814 0.114 7.26 2 13.04
1/12/2023 3:30:00 PM 3.24 37.832 0.114 7.26 1.9 13.02
1/12/2023 3:45:00 PM 3.26 37.868 0.114 7.26 2.04 13.01
1/12/2023 4:00:00 PM 3.28 37.904 0.114 7.26 2.02 12.99
1/12/2023 4:15:00 PM 3.29 37.922 0.114 7.26 1.9 12.97
1/12/2023 4:30:00 PM 3.31 37.958 0.114 7.25 1.93 12.95
1/12/2023 4:45:00 PM 3.33 37.994 0.113 7.25 2.01 12.93
1/12/2023 5:00:00 PM 3.35 38.03 0.113 7.24 1.87 12.91
1/12/2023 5:15:00 PM 3.37 38.066 0.113 7.24 1.94 12.89
1/12/2023 5:30:00 PM 3.39 38.102 0.113 7.24 2.19 12.87
1/12/2023 5:45:00 PM 3.41 38.138 0.113 7.24 2.16 12.85
1/12/2023 6:00:00 PM 3.43 38.174 0.113 7.24 2.23 12.84
1/12/2023 6:15:00 PM 3.46 38.228 0.112 7.23 2.48 12.82
1/12/2023 6:30:00 PM 3.48 38.264 0.113 7.23 2.26 12.81
1/12/2023 6:45:00 PM 3.51 38.318 0.112 7.23 2.61 12.79
1/12/2023 7:00:00 PM 3.53 38.354 0.113 7.23 2.53 12.78
1/12/2023 7:15:00 PM 3.56 38.408 0.113 7.23 2.57 12.77
1/12/2023 7:30:00 PM 3.58 38.444 0.113 7.23 2.56 12.75
1/12/2023 7:45:00 PM 3.61 38.498 0.113 7.23 2.54 12.74
1/12/2023 8:00:00 PM 3.63 38.534 0.113 7.23 2.67 12.74
1/12/2023 8:15:00 PM 3.64 38.552 0.113 7.23 3.01 12.73
1/12/2023 8:30:00 PM 3.66 38.588 0.113 7.23 3.31 12.72
1/12/2023 8:45:00 PM 3.68 38.624 0.113 7.23 3.84 12.71
1/12/2023 9:00:00 PM 3.71 38.678 0.113 7.23 4.96 12.7
1/12/2023 9:15:00 PM 3.73 38.714 0.114 7.23 5.88 12.68
1/12/2023 9:30:00 PM 3.75 38.75 0.114 7.23 6.45 12.67
1/12/2023 9:45:00 PM 3.76 38.768 0.115 7.22 5.66 12.67
1/12/2023 10:00:00 PM 3.78 38.804 0.115 7.22 5.63 12.66
1/12/2023 10:15:00 PM 3.81 38.858 0.115 7.23 5.26 12.65
1/12/2023 10:30:00 PM 3.83 38.894 0.115 7.23 5.28 12.63
1/12/2023 10:45:00 PM 3.85 38.93 0.116 7.23 5.3 12.62
1/12/2023 11:00:00 PM 3.87 38.966 0.116 7.23 4.62 12.6
1/12/2023 11:15:00 PM 3.9 39.02 0.116 7.23 4.23 12.6
1/12/2023 11:30:00 PM 3.91 39.038 0.116 7.23 4.29 12.59
1/12/2023 11:45:00 PM 3.93 39.074 0.116 7.23 3.98 12.58
1/13/2023 12:00:00 AM 3.96 39.128 0.116 7.23 4.21 12.56
1/13/2023 12:15:00 AM 3.98 39.164 0.115 7.23 4.04 12.56
1/13/2023 12:30:00 AM 4 39.2 0.116 7.23 4.17 12.54
1/13/2023 12:45:00 AM 4.01 39.218 0.116 7.23 3.98 12.54
1/13/2023 1:00:00 AM 4.02 39.236 0.116 7.23 4.37 12.54
1/13/2023 1:15:00 AM 4.02 39.236 0.116 7.23 4.38 12.52
1/13/2023 1:30:00 AM 4.03 39.254 0.116 7.22 4.24 12.52
1/13/2023 1:45:00 AM 4.04 39.272 0.116 7.23 4.52 12.51
1/13/2023 2:00:00 AM 4.05 39.29 0.116 7.22 4.64 12.51
1/13/2023 2:15:00 AM 4.06 39.308 0.116 7.22 4.31 12.5
1/13/2023 2:30:00 AM 4.08 39.344 0.116 7.22 4.5 12.5
1/13/2023 2:45:00 AM 4.09 39.362 0.115 7.22 4.08 12.49
1/13/2023 3:00:00 AM 4.1 39.38 0.115 7.22 4.67 12.48
1/13/2023 3:15:00 AM 4.1 39.38 0.115 7.22 4.53 12.48
1/13/2023 3:30:00 AM 4.11 39.398 0.115 7.22 4.18 12.48
1/13/2023 3:45:00 AM 4.11 39.398 0.115 7.22 4.49 12.48
1/13/2023 4:00:00 AM 4.13 39.434 0.115 7.22 4.23 12.47
1/13/2023 4:15:00 AM 4.14 39.452 0.115 7.22 4.09 12.46
1/13/2023 4:30:00 AM 4.15 39.47 0.116 7.22 4.2 12.46
1/13/2023 4:45:00 AM 4.16 39.488 0.115 7.22 4.62 12.46
1/13/2023 5:00:00 AM 4.16 39.488 0.116 7.22 4.39 12.45
1/13/2023 5:15:00 AM 4.16 39.488 0.116 7.22 4.52 12.46
1/13/2023 5:30:00 AM 4.16 39.488 0.116 7.22 4.78 12.46
1/13/2023 5:45:00 AM 4.16 39.488 0.116 7.22 4.81 12.46
1/13/2023 6:00:00 AM 4.17 39.506 0.116 7.22 4.77 12.47
1/13/2023 6:15:00 AM 4.18 39.524 0.116 7.22 5.02 12.46
1/13/2023 6:30:00 AM 4.19 39.542 0.116 7.22 5.25 12.46
1/13/2023 6:45:00 AM 4.2 39.56 0.116 7.22 5.71 12.46
1/13/2023 7:00:00 AM 4.21 39.578 0.116 7.22 5.19 12.46
1/13/2023 7:15:00 AM 4.22 39.596 0.116 7.22 5.21 12.46
1/13/2023 7:30:00 AM 4.23 39.614 0.115 7.22 5.8 12.46
1/13/2023 7:45:00 AM 4.23 39.614 0.115 7.22 5.51 12.46
1/13/2023 8:00:00 AM 4.23 39.614 0.115 7.23 5.95 12.47
1/13/2023 8:15:00 AM 4.22 39.596 0.116 7.23 5.63 12.48
1/13/2023 8:30:00 AM 4.2 39.56 0.116 7.23 5.68 12.49
1/13/2023 8:45:00 AM 4.18 39.524 0.116 7.24 7.26 12.51
1/13/2023 9:00:00 AM 4.15 39.47 0.116 7.23 6.2 12.52
1/13/2023 9:15:00 AM 4.14 39.452 0.115 7.24 6.21 12.54
1/13/2023 9:30:00 AM 4.12 39.416 0.115 7.25 6.73 12.56
1/13/2023 9:45:00 AM 4.11 39.398 0.116 7.25 7.09 12.58
1/13/2023 10:00:00 AM 4.11 39.398 0.116 7.25 7.61 12.6
1/13/2023 10:15:00 AM 4.1 39.38 0.117 7.25 7.69 12.62
1/13/2023 10:30:00 AM 4.09 39.362 0.119 7.25 8.42 12.63
1/13/2023 10:45:00 AM 4.07 39.326 0.12 7.26 8.2 12.64
1/13/2023 11:00:00 AM 4.06 39.308 0.121 7.26 9.09 12.66
1/13/2023 11:15:00 AM 4.05 39.29 0.121 7.26 8.69 12.67
1/13/2023 11:30:00 AM 4.04 39.272 0.121 7.26 8.71 12.67
1/13/2023 11:45:00 AM 4.05 39.29 0.12 7.26 9.08 12.67
1/13/2023 12:00:00 PM 4.04 39.272 0.119 7.26 9.28 12.67
1/13/2023 12:15:00 PM 4.03 39.254 0.118 7.26 9.46 12.68
1/13/2023 12:30:00 PM 4.01 39.218 0.117 7.26 9.36 12.69
1/13/2023 12:45:00 PM 4.02 39.236 0.117 7.25 9.92 12.7
1/13/2023 1:00:00 PM 4.01 39.218 0.117 7.26 9.89 12.7
1/13/2023 1:15:00 PM 3.99 39.182 0.117 7.26 10.35 12.7
1/13/2023 1:30:00 PM 3.98 39.164 0.117 7.25 10.13 12.71
1/13/2023 1:45:00 PM 3.96 39.128 0.117 7.25 10.39 12.71
1/13/2023 2:00:00 PM 3.94 39.092 0.116 7.25 10.18 12.72
1/13/2023 2:15:00 PM 3.92 39.056 0.116 7.25 11.12 12.73
1/13/2023 2:30:00 PM 3.9 39.02 0.116 7.25 10.88 12.73
1/13/2023 2:45:00 PM 3.89 39.002 0.116 7.25 10.92 12.73
1/13/2023 3:00:00 PM 3.86 38.948 0.116 7.25 11.13 12.74
1/13/2023 3:15:00 PM 3.83 38.894 0.116 7.24 10.45 12.74
1/13/2023 3:30:00 PM 3.8 38.84 0.116 7.24 10.96 12.75
1/13/2023 3:45:00 PM 3.76 38.768 0.115 7.24 11.9 12.76
1/13/2023 4:00:00 PM 3.73 38.714 0.115 7.23 11.49 12.78
1/13/2023 4:15:00 PM 3.7 38.66 0.114 7.23 11.45 12.77
1/13/2023 4:30:00 PM 3.66 38.588 0.114 7.23 11.17 12.79
1/13/2023 4:45:00 PM 3.63 38.534 0.114 7.22 11.29 12.8
1/13/2023 5:00:00 PM 3.59 38.462 0.115 7.23 11.67 12.8
1/13/2023 5:15:00 PM 3.55 38.39 0.115 7.22 11.67 12.81
1/13/2023 5:30:00 PM 3.52 38.336 0.115 7.22 11.91 12.82
1/13/2023 5:45:00 PM 3.49 38.282 0.115 7.22 12.03 12.83
1/13/2023 6:00:00 PM 3.47 38.246 0.115 7.21 11.82 12.84
1/13/2023 6:15:00 PM 3.45 38.21 0.114 7.21 12.8 12.85
1/13/2023 6:30:00 PM 3.43 38.174 0.115 7.2 12.34 12.85
1/13/2023 6:45:00 PM 3.41 38.138 0.114 7.2 12.67 12.85
1/13/2023 7:00:00 PM 3.39 38.102 0.114 7.2 13.09 12.86
1/13/2023 7:15:00 PM 3.37 38.066 0.114 7.2 13.11 12.86
1/13/2023 7:30:00 PM 3.36 38.048 0.114 7.2 12.82 12.86
1/13/2023 7:45:00 PM 3.34 38.012 0.114 7.2 13.08 12.87
1/13/2023 8:00:00 PM 3.32 37.976 0.113 7.2 13.04 12.87
1/13/2023 8:15:00 PM 3.3 37.94 0.114 7.19 12.85 12.89
1/13/2023 8:30:00 PM 3.27 37.886 0.114 7.19 12.88 12.89
1/13/2023 8:45:00 PM 3.25 37.85 0.114 7.19 13.15 12.91
1/13/2023 9:00:00 PM 3.22 37.796 0.114 7.19 13.53 12.91
1/13/2023 9:15:00 PM 3.2 37.76 0.114 7.19 13.32 12.92
1/13/2023 9:30:00 PM 3.18 37.724 0.114 7.19 12.94 12.93
1/13/2023 9:45:00 PM 3.16 37.688 0.114 7.19 13.94 12.93
1/13/2023 10:00:00 PM 3.13 37.634 0.114 7.19 13.48 12.95
1/13/2023 10:15:00 PM 3.11 37.598 0.114 7.18 12.72 12.95
1/13/2023 10:30:00 PM 3.09 37.562 0.114 7.18 13.09 12.96
1/13/2023 10:45:00 PM 3.07 37.526 0.114 7.18 14.09 12.96
1/13/2023 11:00:00 PM 3.06 37.508 0.114 7.18 14.35 12.97
1/13/2023 11:15:00 PM 3.04 37.472 0.114 7.18 13.66 12.98
1/13/2023 11:30:00 PM 3.01 37.418 0.114 7.18 14.12 12.98
1/13/2023 11:45:00 PM 3 37.4 0.113 7.18 14.1 12.99
1/14/2023 12:00:00 AM 2.98 37.364 0.113 7.18 13.46 13
1/14/2023 12:15:00 AM 2.95 37.31 0.113 7.18 13.4 13.01
1/14/2023 12:30:00 AM 2.92 37.256 0.113 7.18 13.47 13.02
1/14/2023 12:45:00 AM 2.9 37.22 0.113 7.18 12.88 13.02
1/14/2023 1:00:00 AM 2.87 37.166 0.113 7.18 12.83 13.03
1/14/2023 1:15:00 AM 2.85 37.13 0.113 7.17 12.75 13.04
1/14/2023 1:30:00 AM 2.82 37.076 0.113 7.18 12.58 13.04
1/14/2023 1:45:00 AM 2.79 37.022 0.113 7.18 13.22 13.06
1/14/2023 2:00:00 AM 2.76 36.968 0.113 7.18 12.21 13.07
1/14/2023 2:15:00 AM 2.73 36.914 0.113 7.18 12.5 13.08
1/14/2023 2:30:00 AM 2.7 36.86 0.113 7.18 11.89 13.09
1/14/2023 2:45:00 AM 2.66 36.788 0.113 7.17 12.57 13.1
1/14/2023 3:00:00 AM 2.63 36.734 0.113 7.18 12.36 13.13
1/14/2023 3:15:00 AM 2.6 36.68 0.113 7.17 11.73 13.13
1/14/2023 3:30:00 AM 2.56 36.608 0.113 7.18 12.89 13.15
1/14/2023 3:45:00 AM 2.53 36.554 0.113 7.17 12.13 13.16
1/14/2023 4:00:00 AM 2.51 36.518 0.113 7.17 11.74 13.17
1/14/2023 4:15:00 AM 2.48 36.464 0.113 7.17 11.34 13.19
1/14/2023 4:30:00 AM 2.45 36.41 0.113 7.18 12.02 13.2
1/14/2023 4:45:00 AM 2.41 36.338 0.113 7.17 11.35 13.21
1/14/2023 5:00:00 AM 2.38 36.284 0.113 7.17 11.5 13.22
1/14/2023 5:15:00 AM 2.36 36.248 0.113 7.17 11.04 13.23
1/14/2023 5:30:00 AM 2.33 36.194 0.113 7.17 11.26 13.25
1/14/2023 5:45:00 AM 2.3 36.14 0.114 7.17 11.41 13.26
1/14/2023 6:00:00 AM 2.26 36.068 0.114 7.17 11.15 13.27
1/14/2023 6:15:00 AM 2.24 36.032 0.114 7.17 12.13 13.28
1/14/2023 6:30:00 AM 2.21 35.978 0.114 7.17 12.1 13.29
1/14/2023 6:45:00 AM 2.18 35.924 0.114 7.16 11.29 13.3
1/14/2023 7:00:00 AM 2.15 35.87 0.114 7.16 11.98 13.31
1/14/2023 7:15:00 AM 2.12 35.816 0.114 7.16 10.94 13.32
1/14/2023 7:30:00 AM 2.07 35.726 0.114 7.16 10.72 13.34
1/14/2023 7:45:00 AM 2.03 35.654 0.114 7.16 11.28 13.36
1/14/2023 8:00:00 AM 1.99 35.582 0.114 7.16 10.32 13.37
1/14/2023 8:15:00 AM 1.97 35.546 0.114 7.16 10.99 13.39
1/14/2023 8:30:00 AM 1.94 35.492 0.114 7.16 10.68 13.41
1/14/2023 8:45:00 AM 1.91 35.438 0.114 7.16 10.52 13.43
1/14/2023 9:00:00 AM 1.87 35.366 0.114 7.16 10.69 13.46
1/14/2023 9:15:00 AM 1.85 35.33 0.114 7.17 9.68 13.48
1/14/2023 9:30:00 AM 1.83 35.294 0.114 7.17 9.42 13.51
1/14/2023 9:45:00 AM 1.82 35.276 0.114 7.17 9.39 13.52
1/14/2023 10:00:00 AM 1.8 35.24 0.114 7.17 9.55 13.55
1/14/2023 10:15:00 AM 1.79 35.222 0.114 7.18 8.61 13.56
1/14/2023 10:30:00 AM 1.79 35.222 0.114 7.18 8.59 13.58
1/14/2023 10:45:00 AM 1.78 35.204 0.114 7.18 8.33 13.59
1/14/2023 11:00:00 AM 1.79 35.222 0.114 7.19 9.13 13.6
1/14/2023 11:15:00 AM 1.79 35.222 0.114 7.19 8.41 13.6
1/14/2023 11:30:00 AM 1.78 35.204 0.114 7.19 8.62 13.62
1/14/2023 11:45:00 AM 1.77 35.186 0.114 7.19 8.37 13.63
1/14/2023 12:00:00 PM 1.76 35.168 0.114 7.2 7.79 13.64
1/14/2023 12:15:00 PM 1.76 35.168 0.114 7.2 8.03 13.64
1/14/2023 12:30:00 PM 1.75 35.15 0.114 7.2 8.08 13.65
1/14/2023 12:45:00 PM 1.74 35.132 0.114 7.2 8.25 13.65
1/14/2023 1:00:00 PM 1.73 35.114 0.114 7.2 8.3 13.66
1/14/2023 1:15:00 PM 1.76 35.168 0.114 7.21 8.14 13.66
1/14/2023 1:30:00 PM 1.77 35.186 0.114 7.21 7.04 13.66
1/14/2023 1:45:00 PM 1.77 35.186 0.114 7.21 7.74 13.66
1/14/2023 2:00:00 PM 1.77 35.186 0.114 7.21 7.39 13.67
1/14/2023 2:15:00 PM 1.77 35.186 0.114 7.21 7.43 13.66
1/14/2023 2:30:00 PM 1.77 35.186 0.113 7.22 7.7 13.67
1/14/2023 2:45:00 PM 1.76 35.168 0.114 7.22 6.67 13.66
1/14/2023 3:00:00 PM 1.75 35.15 0.113 7.22 7.32 13.67
1/14/2023 3:15:00 PM 1.72 35.096 0.113 7.22 6.96 13.67
1/14/2023 3:30:00 PM 1.69 35.042 0.114 7.22 6.78 13.68
1/14/2023 3:45:00 PM 1.66 34.988 0.113 7.22 6.33 13.67
1/14/2023 4:00:00 PM 1.64 34.952 0.114 7.21 6.57 13.68
1/14/2023 4:15:00 PM 1.61 34.898 0.114 7.21 7.14 13.68
1/14/2023 4:30:00 PM 1.57 34.826 0.114 7.21 6.37 13.69
1/14/2023 4:45:00 PM 1.53 34.754 0.114 7.2 6.26 13.69
1/14/2023 5:00:00 PM 1.49 34.682 0.114 7.2 5.88 13.69
1/14/2023 5:15:00 PM 1.47 34.646 0.114 7.2 6.35 13.69
1/14/2023 5:30:00 PM 1.43 34.574 0.114 7.19 6.19 13.7
1/14/2023 5:45:00 PM 1.4 34.52 0.114 7.19 5.98 13.71
1/14/2023 6:00:00 PM 1.36 34.448 0.113 7.19 5.52 13.72
1/14/2023 6:15:00 PM 1.31 34.358 0.114 7.18 6.32 13.74
1/14/2023 6:30:00 PM 1.28 34.304 0.114 7.18 6.17 13.75
1/14/2023 6:45:00 PM 1.25 34.25 0.114 7.18 6.07 13.77
1/14/2023 7:00:00 PM 1.22 34.196 0.114 7.18 5.72 13.78
1/14/2023 7:15:00 PM 1.19 34.142 0.114 7.18 5.79 13.78
1/14/2023 7:30:00 PM 1.16 34.088 0.113 7.17 6.07 13.8
1/14/2023 7:45:00 PM 1.13 34.034 0.113 7.17 5.38 13.81
1/14/2023 8:00:00 PM 1.09 33.962 0.114 7.17 5.3 13.82
1/14/2023 8:15:00 PM 1.06 33.908 0.113 7.17 5.35 13.83
1/14/2023 8:30:00 PM 1.03 33.854 0.114 7.17 5.03 13.85
1/14/2023 8:45:00 PM 0.99 33.782 0.114 7.17 5.07 13.86
1/14/2023 9:00:00 PM 0.95 33.71 0.114 7.17 5.38 13.87
1/14/2023 9:15:00 PM 0.91 33.638 0.113 7.17 5.62 13.88
1/14/2023 9:30:00 PM 0.88 33.584 0.113 7.16 5.02 13.9
1/14/2023 9:45:00 PM 0.84 33.512 0.113 7.16 5 13.91
1/14/2023 10:00:00 PM 0.81 33.458 0.114 7.16 5.23 13.92
1/14/2023 10:15:00 PM 0.76 33.368 0.114 7.16 4.82 13.94
1/14/2023 10:30:00 PM 0.73 33.314 0.114 7.16 4.98 13.96
1/14/2023 10:45:00 PM 0.7 33.26 0.114 7.16 5.17 13.97
1/14/2023 11:00:00 PM 0.67 33.206 0.114 7.16 4.35 13.98
1/14/2023 11:15:00 PM 0.64 33.152 0.113 7.16 4.37 14
1/14/2023 11:30:00 PM 0.61 33.098 0.114 7.16 4.69 14.01
1/14/2023 11:45:00 PM 0.58 33.044 0.113 7.16 4.58 14.03
1/15/2023 12:00:00 AM 0.56 33.008 0.114 7.16 4.88 14.04
1/15/2023 12:15:00 AM 0.54 32.972 0.114 7.16 4.82 14.05
1/15/2023 12:30:00 AM 0.51 32.918 0.114 7.16 4.75 14.06
1/15/2023 12:45:00 AM 0.49 32.882 0.114 7.16 4.53 14.07
1/15/2023 1:00:00 AM 0.47 32.846 0.114 7.16 4.48 14.08
1/15/2023 1:15:00 AM 0.45 32.81 0.114 7.16 4.42 14.09
1/15/2023 1:30:00 AM 0.43 32.774 0.114 7.16 4.64 14.1
1/15/2023 1:45:00 AM 0.41 32.738 0.114 7.16 4.2 14.1
1/15/2023 2:00:00 AM 0.39 32.702 0.114 7.16 4.32 14.12
1/15/2023 2:15:00 AM 0.37 32.666 0.114 7.16 4.35 14.13
1/15/2023 2:30:00 AM 0.35 32.63 0.114 7.16 4.21 14.14
1/15/2023 2:45:00 AM 0.33 32.594 0.114 7.16 4.36 14.15
1/15/2023 3:00:00 AM 0.31 32.558 0.114 7.16 4.25 14.15
1/15/2023 3:15:00 AM 0.3 32.54 0.114 7.16 4.18 14.16
1/15/2023 3:30:00 AM 0.28 32.504 0.114 7.16 4.27 14.17
1/15/2023 3:45:00 AM 0.26 32.468 0.114 7.16 4.46 14.18
1/15/2023 4:00:00 AM 0.24 32.432 0.114 7.16 4.18 14.19
1/15/2023 4:30:00 AM 0.21 32.378 0.114 7.17 3.92 14.21
1/15/2023 4:45:00 AM 0.18 32.324 0.114 7.17 3.81 14.22
1/15/2023 5:00:00 AM 0.16 32.288 0.114 7.16 3.72 14.23
1/15/2023 5:15:00 AM 0.14 32.252 0.114 7.16 3.84 14.24
1/15/2023 5:30:00 AM 0.11 32.198 0.114 7.17 3.77 14.25
1/15/2023 5:45:00 AM 0.08 32.144 0.114 7.17 4.01 14.27
1/15/2023 6:00:00 AM 0.05 32.09 0.114 7.17 3.89 14.28
1/15/2023 6:15:00 AM 0.01 32.018 0.114 7.17 3.79 14.29
1/15/2023 6:30:00 AM -0.03 31.946 0.114 7.17 3.7 14.3
1/15/2023 6:45:00 AM -0.05 31.91 0.114 7.16 3.79 14.31
1/15/2023 7:00:00 AM -0.06 31.892 0.114 7.16 3.43 14.32
1/15/2023 7:15:00 AM -0.08 31.856 0.114 7.17 3.63 14.33
1/15/2023 7:30:00 AM -0.09 31.838 0.115 7.17 3.39 14.35
1/15/2023 7:45:00 AM -0.07 31.874 0.115 7.17 3.75 14.36
1/15/2023 8:00:00 AM -0.06 31.892 0.114 7.17 3.61 14.37
1/15/2023 8:15:00 AM -0.06 31.892 0.114 7.17 3.66 14.38
1/15/2023 8:30:00 AM -0.06 31.892 0.115 7.18 3.82 14.4
1/15/2023 8:45:00 AM -0.06 31.892 0.115 7.18 4 14.41
1/15/2023 9:00:00 AM -0.06 31.892 0.115 7.18 3.78 14.43
1/15/2023 9:15:00 AM -0.06 31.892 0.114 7.19 3.88 14.43
1/15/2023 9:30:00 AM -0.05 31.91 0.114 7.19 3.58 14.44
1/15/2023 9:45:00 AM -0.05 31.91 0.115 7.2 3.5 14.45
1/15/2023 10:00:00 AM -0.04 31.928 0.115 7.2 3.68 14.44
1/15/2023 10:15:00 AM 0 32 0.115 7.2 3.26 14.44
1/15/2023 10:30:00 AM 0.06 32.108 0.115 7.2 3.2 14.44
1/15/2023 10:45:00 AM 0.1 32.18 0.115 7.2 3.28 14.42
1/15/2023 11:00:00 AM 0.14 32.252 0.115 7.21 3.29 14.42
1/15/2023 11:15:00 AM 0.2 32.36 0.115 7.21 3.46 14.41
1/15/2023 11:30:00 AM 0.25 32.45 0.114 7.21 3.57 14.4
1/15/2023 11:45:00 AM 0.26 32.468 0.115 7.22 3.66 14.39
1/15/2023 12:00:00 PM 0.28 32.504 0.114 7.22 3.47 14.39
1/15/2023 12:15:00 PM 0.28 32.504 0.114 7.22 3.41 14.38
1/15/2023 12:30:00 PM 0.28 32.504 0.115 7.22 3.28 14.38
1/15/2023 12:45:00 PM 0.29 32.522 0.115 7.22 3.25 14.37
1/15/2023 1:00:00 PM 0.32 32.576 0.115 7.22 3.24 14.35
1/15/2023 1:15:00 PM 0.38 32.684 0.114 7.22 3.51 14.32
1/15/2023 1:30:00 PM 0.43 32.774 0.115 7.22 3.39 14.29
1/15/2023 1:45:00 PM 0.47 32.846 0.114 7.22 3.6 14.27
1/15/2023 2:00:00 PM 0.51 32.918 0.114 7.22 3.47 14.26
1/15/2023 2:15:00 PM 0.52 32.936 0.114 7.23 3.56 14.25
1/15/2023 2:30:00 PM 0.52 32.936 0.114 7.23 3.3 14.24
1/15/2023 2:45:00 PM 0.52 32.936 0.114 7.23 3.55 14.23
1/15/2023 3:00:00 PM 0.52 32.936 0.114 7.23 3.48 14.23
1/15/2023 3:15:00 PM 0.51 32.918 0.114 7.23 3.3 14.22
1/15/2023 3:30:00 PM 0.5 32.9 0.114 7.23 3.49 14.21
1/15/2023 3:45:00 PM 0.48 32.864 0.115 7.23 3.47 14.21
1/15/2023 4:00:00 PM 0.47 32.846 0.115 7.23 3.47 14.21
1/15/2023 4:15:00 PM 0.45 32.81 0.115 7.23 3.34 14.21
1/15/2023 4:30:00 PM 0.45 32.81 0.115 7.22 3.48 14.2
1/15/2023 4:45:00 PM 0.45 32.81 0.115 7.22 3.53 14.18
1/15/2023 5:00:00 PM 0.45 32.81 0.115 7.22 3.61 14.17
1/15/2023 5:15:00 PM 0.46 32.828 0.115 7.22 3.37 14.15
1/15/2023 5:30:00 PM 0.46 32.828 0.115 7.22 3.52 14.14
1/15/2023 5:45:00 PM 0.45 32.81 0.115 7.22 3.6 14.13
1/15/2023 6:00:00 PM 0.46 32.828 0.115 7.21 3.47 14.13
1/15/2023 6:15:00 PM 0.45 32.81 0.115 7.21 3.49 14.13
1/15/2023 6:30:00 PM 0.44 32.792 0.115 7.21 3.43 14.13
1/15/2023 6:45:00 PM 0.41 32.738 0.116 7.21 3.34 14.13
1/15/2023 7:00:00 PM 0.39 32.702 0.116 7.21 3.44 14.15
1/15/2023 7:15:00 PM 0.36 32.648 0.116 7.21 3.39 14.16
1/15/2023 7:30:00 PM 0.32 32.576 0.116 7.21 3.38 14.17
1/15/2023 7:45:00 PM 0.28 32.504 0.116 7.21 3.4 14.18
1/15/2023 8:00:00 PM 0.24 32.432 0.116 7.21 3.23 14.2
1/15/2023 8:15:00 PM 0.2 32.36 0.116 7.21 3.25 14.22
1/15/2023 8:30:00 PM 0.17 32.306 0.116 7.2 3.22 14.23
1/15/2023 8:45:00 PM 0.14 32.252 0.116 7.2 3.4 14.25
1/15/2023 9:00:00 PM 0.11 32.198 0.116 7.2 3.36 14.27
1/15/2023 9:15:00 PM 0.07 32.126 0.116 7.2 3.18 14.29
1/15/2023 9:30:00 PM 0.03 32.054 0.116 7.2 3.17 14.3
1/15/2023 9:45:00 PM -0.01 31.982 0.116 7.2 3.12 14.31
1/15/2023 10:00:00 PM -0.06 31.892 0.116 7.2 3.26 14.33
1/15/2023 10:15:00 PM -0.08 31.856 0.116 7.2 3.01 14.35
1/15/2023 10:30:00 PM -0.07 31.874 0.116 7.2 3.01 14.36
1/15/2023 10:45:00 PM -0.07 31.874 0.116 7.2 2.97 14.37
1/15/2023 11:00:00 PM -0.07 31.874 0.116 7.2 3.02 14.36
1/15/2023 11:15:00 PM -0.07 31.874 0.116 7.2 3.12 14.37
1/15/2023 11:30:00 PM -0.07 31.874 0.116 7.2 3.26 14.36
1/15/2023 11:45:00 PM -0.07 31.874 0.116 7.2 3.1 14.37
1/16/2023 12:00:00 AM -0.07 31.874 0.116 7.19 3.15 14.37
1/16/2023 12:15:00 AM -0.06 31.892 0.117 7.2 3.03 14.37
1/16/2023 12:30:00 AM -0.06 31.892 0.117 7.19 2.86 14.37
1/16/2023 12:45:00 AM -0.06 31.892 0.116 7.2 3.1 14.37
1/16/2023 1:00:00 AM -0.06 31.892 0.117 7.2 2.98 14.35
1/16/2023 1:15:00 AM -0.06 31.892 0.117 7.2 3.4 14.36
1/16/2023 1:30:00 AM -0.06 31.892 0.117 7.2 3.08 14.35
1/16/2023 1:45:00 AM -0.06 31.892 0.117 7.2 2.81 14.35
1/16/2023 2:00:00 AM -0.06 31.892 0.117 7.2 3.18 14.36
1/16/2023 2:15:00 AM -0.06 31.892 0.117 7.2 2.89 14.36
1/16/2023 2:30:00 AM -0.06 31.892 0.117 7.2 2.59 14.35
1/16/2023 2:45:00 AM -0.06 31.892 0.117 7.2 2.66 14.35
1/16/2023 3:00:00 AM -0.07 31.874 0.117 7.21 2.45 14.36
1/16/2023 3:15:00 AM -0.07 31.874 0.117 7.2 2.55 14.36
1/16/2023 3:30:00 AM -0.07 31.874 0.118 7.2 2.67 14.36
1/16/2023 3:45:00 AM -0.06 31.892 0.118 7.2 2.43 14.37
1/16/2023 4:00:00 AM -0.07 31.874 0.118 7.2 2.52 14.37
1/16/2023 4:15:00 AM -0.06 31.892 0.118 7.2 2.34 14.37
1/16/2023 4:30:00 AM -0.06 31.892 0.118 7.21 2.62 14.37
1/16/2023 4:45:00 AM -0.06 31.892 0.118 7.21 2.63 14.37
1/16/2023 5:00:00 AM -0.06 31.892 0.119 7.21 2.53 14.36
1/16/2023 5:15:00 AM -0.06 31.892 0.119 7.21 2.48 14.36
1/16/2023 5:30:00 AM -0.06 31.892 0.119 7.19 2.76 14.37
1/16/2023 5:45:00 AM -0.06 31.892 0.119 7.2 2.73 14.37
1/16/2023 6:00:00 AM -0.06 31.892 0.119 7.21 2.86 14.36
1/16/2023 6:15:00 AM -0.06 31.892 0.119 7.21 2.69 14.36
1/16/2023 6:30:00 AM -0.06 31.892 0.119 7.21 2.94 14.36
1/16/2023 6:45:00 AM -0.06 31.892 0.12 7.21 2.98 14.36
1/16/2023 7:00:00 AM -0.06 31.892 0.12 7.21 2.94 14.36
1/16/2023 7:15:00 AM -0.06 31.892 0.12 7.21 3.41 14.37
1/16/2023 7:30:00 AM -0.06 31.892 0.12 7.21 3.27 14.37
1/16/2023 7:45:00 AM -0.06 31.892 0.12 7.22 3.09 14.38
1/16/2023 8:00:00 AM -0.06 31.892 0.12 7.22 2.95 14.39
1/16/2023 8:15:00 AM -0.06 31.892 0.12 7.22 2.93 14.4
1/16/2023 8:30:00 AM -0.06 31.892 0.12 7.22 2.9 14.41
1/16/2023 8:45:00 AM -0.05 31.91